Summary for KCOLONGM6

Ute Creek Golf Course, Longmont, CO 80504
Join the PWSweather.com Network
View data in metric units
Latest Conditions
Updated 10:20:04 PM MDT Tuesday, Apr 15, 2014
Data Currently Today's Max Today's Min Today's Average
Temperature 54.9°F12.7°C 64.6°F18.1°C 24.8°F-4.0°C 48.6°F9.2°C
Dew Point 16.7°F-8.5°C 34.3°F1.3°C 11.8°F-11.2°C 20.6°F-6.3°C
Winds Calm Calm 12.1 mph WSW19.5 kmh WSW CalmCalm 3.2 mph5.1 kmh
Wind Gusts 0.9 mph1.4 kmh 21.0 mph33.8 kmh -- 4.2 mph6.8 kmh
Humidity 22% 81% 15% 41%
Pressure 29.54 in1000.3 mb 30.14 in1020.7 mb 29.54 in1000.3 mb 29.83 in1010.2 mb
Precipitation 0.00 in0.0 mm - - 0.00 in0.0 mm
Trends
 
Station Profile
Ute Creek Golf CourseLongmont, CO 80504

Lat: 40.194, Lon: -105.067
Elevation: 5014
Station Type: Davis Vantage Pro2

Detailed Summary for Tue, Apr 15, 2014
Hour (MDT) Temperature Dew Point Humidity Winds Wind Gusts Pressure Precip Precip Rate Daily Precip Total
10:20 PM 54.9°F12.7°C 16.7°F-8.5°C 22% Calm Calm 0.9 mph1.4 kmh 29.54 in1000.3 mb 0.00 in0.0 mm 0.00 in/hr0.0 mm/hr 0.00 in0.0 mm
10:19 PM 55.0°F12.8°C 16.9°F-8.4°C 22% 0.9 mph WSW1.4 kmh WSW -- 29.54 in1000.3 mb 0.00 in0.0 mm 0.00 in/hr0.0 mm/hr 0.00 in0.0 mm
10:18 PM 55.4°F13.0°C 18.1°F-7.7°C 23% 0.9 mph WSW1.4 kmh WSW 0.9 mph1.4 kmh 29.54 in1000.3 mb 0.00 in0.0 mm 0.00 in/hr0.0 mm/hr 0.00 in0.0 mm
10:16 PM 55.8°F13.2°C 19.6°F-6.9°C 24% 0.9 mph WSW1.4 kmh WSW -- 29.54 in1000.3 mb 0.00 in0.0 mm 0.00 in/hr0.0 mm/hr 0.00 in0.0 mm
10:15 PM 55.9°F13.3°C 17.6°F-8.0°C 22% 2.0 mph WSW3.2 kmh WSW -- 29.54 in1000.3 mb 0.00 in0.0 mm 0.00 in/hr0.0 mm/hr 0.00 in0.0 mm
10:14 PM 56.1°F13.4°C 17.8°F-7.9°C 22% 2.9 mph WSW4.7 kmh WSW 2.0 mph3.2 kmh 29.54 in1000.3 mb 0.00 in0.0 mm 0.00 in/hr0.0 mm/hr 0.00 in0.0 mm
10:13 PM 56.3°F13.5°C 13.3°F-10.4°C 18% 2.9 mph WSW4.7 kmh WSW 0.9 mph1.4 kmh 29.54 in1000.3 mb 0.00 in0.0 mm 0.00 in/hr0.0 mm/hr 0.00 in0.0 mm
10:12 PM 56.5°F13.6°C 14.7°F-9.6°C 19% 4.0 mph WSW6.4 kmh WSW 2.9 mph4.7 kmh 29.54 in1000.3 mb 0.00 in0.0 mm 0.00 in/hr0.0 mm/hr 0.00 in0.0 mm
10:11 PM 56.7°F13.7°C 14.9°F-9.5°C 19% 4.0 mph WSW6.4 kmh WSW 4.0 mph6.4 kmh 29.54 in1000.3 mb 0.00 in0.0 mm 0.00 in/hr0.0 mm/hr 0.00 in0.0 mm
10:10 PM 56.7°F13.7°C 13.6°F-10.2°C 18% 4.9 mph WSW7.9 kmh WSW 2.9 mph4.7 kmh 29.54 in1000.3 mb 0.00 in0.0 mm 0.00 in/hr0.0 mm/hr 0.00 in0.0 mm
10:09 PM 56.7°F13.7°C 14.9°F-9.5°C 19% 4.9 mph WSW7.9 kmh WSW 4.0 mph6.4 kmh 29.54 in1000.3 mb 0.00 in0.0 mm 0.00 in/hr0.0 mm/hr 0.00 in0.0 mm
10:08 PM 56.8°F13.8°C 13.8°F-10.1°C 18% 6.0 mph WSW9.7 kmh WSW 4.0 mph6.4 kmh 29.54 in1000.3 mb 0.00 in0.0 mm 0.00 in/hr0.0 mm/hr 0.00 in0.0 mm
10:07 PM 56.7°F13.7°C 13.6°F-10.2°C 18% 6.0 mph WSW9.7 kmh WSW 6.9 mph11.1 kmh 29.54 in1000.3 mb 0.00 in0.0 mm 0.00 in/hr0.0 mm/hr 0.00 in0.0 mm
10:05 PM 56.7°F13.7°C 17.2°F-8.2°C 21% 6.0 mph SW9.7 kmh SW 14.1 mph22.7 kmh 29.54 in1000.3 mb 0.00 in0.0 mm 0.00 in/hr0.0 mm/hr 0.00 in0.0 mm
10:04 PM 56.3°F13.5°C 12.0°F-11.1°C 17% 4.9 mph WNW7.9 kmh WNW 15.0 mph24.1 kmh 29.54 in1000.3 mb 0.00 in0.0 mm 0.00 in/hr0.0 mm/hr 0.00 in0.0 mm
10:03 PM 55.9°F13.3°C 13.1°F-10.5°C 18% 4.0 mph NW6.4 kmh NW 15.0 mph24.1 kmh 29.55 in1000.7 mb 0.00 in0.0 mm 0.00 in/hr0.0 mm/hr 0.00 in0.0 mm
10:02 PM 55.8°F13.2°C 14.2°F-9.9°C 19% 4.0 mph W6.4 kmh W 10.1 mph16.3 kmh 29.55 in1000.7 mb 0.00 in0.0 mm 0.00 in/hr0.0 mm/hr 0.00 in0.0 mm
10:01 PM 55.6°F13.1°C 14.0°F-10.0°C 19% 2.9 mph SW4.7 kmh SW 4.9 mph7.9 kmh 29.55 in1000.7 mb 0.00 in0.0 mm 0.00 in/hr0.0 mm/hr 0.00 in0.0 mm
10:00 PM 55.4°F13.0°C 12.6°F-10.8°C 18% 2.9 mph SW4.7 kmh SW 8.1 mph13.0 kmh 29.55 in1000.7 mb 0.00 in0.0 mm 0.00 in/hr0.0 mm/hr 0.00 in0.0 mm
09:59 PM 55.0°F12.8°C 12.2°F-11.0°C 18% 2.0 mph SW3.2 kmh SW 8.1 mph13.0 kmh 29.55 in1000.7 mb 0.00 in0.0 mm 0.00 in/hr0.0 mm/hr 0.00 in0.0 mm
09:58 PM 54.9°F12.7°C 13.3°F-10.4°C 19% 2.0 mph SW3.2 kmh SW 6.0 mph9.7 kmh 29.55 in1000.7 mb 0.00 in0.0 mm 0.00 in/hr0.0 mm/hr 0.00 in0.0 mm
09:57 PM 54.7°F12.6°C 13.3°F-10.4°C 19% 2.0 mph W3.2 kmh W 8.9 mph14.3 kmh 29.55 in1000.7 mb 0.00 in0.0 mm 0.00 in/hr0.0 mm/hr 0.00 in0.0 mm
09:56 PM 54.3°F12.4°C 14.0°F-10.0°C 20% 0.9 mph WSW1.4 kmh WSW 8.9 mph14.3 kmh 29.55 in1000.7 mb 0.00 in0.0 mm 0.00 in/hr0.0 mm/hr 0.00 in0.0 mm
09:55 PM 54.1°F12.3°C 12.7°F-10.7°C 19% 0.9 mph WSW1.4 kmh WSW 10.1 mph16.3 kmh 29.55 in1000.7 mb 0.00 in0.0 mm 0.00 in/hr0.0 mm/hr 0.00 in0.0 mm
09:54 PM 54.1°F12.3°C 12.7°F-10.7°C 19% Calm Calm 4.0 mph6.4 kmh 29.55 in1000.7 mb 0.00 in0.0 mm 0.00 in/hr0.0 mm/hr 0.00 in0.0 mm
09:53 PM 54.1°F12.3°C 14.0°F-10.0°C 20% Calm Calm 2.9 mph4.7 kmh 29.55 in1000.7 mb 0.00 in0.0 mm 0.00 in/hr0.0 mm/hr 0.00 in0.0 mm
09:51 PM 54.1°F12.3°C 14.0°F-10.0°C 20% Calm Calm -- 29.55 in1000.7 mb 0.00 in0.0 mm 0.00 in/hr0.0 mm/hr 0.00 in0.0 mm
09:50 PM 54.1°F12.3°C 14.0°F-10.0°C 20% Calm Calm -- 29.55 in1000.7 mb 0.00 in0.0 mm 0.00 in/hr0.0 mm/hr 0.00 in0.0 mm
09:49 PM 54.1°F12.3°C 15.1°F-9.4°C 21% 0.9 mph SW1.4 kmh SW 2.9 mph4.7 kmh 29.55 in1000.7 mb 0.00 in0.0 mm 0.00 in/hr0.0 mm/hr 0.00 in0.0 mm
09:48 PM 54.1°F12.3°C 15.1°F-9.4°C 21% 0.9 mph SW1.4 kmh SW 2.9 mph4.7 kmh 29.55 in1000.7 mb 0.00 in0.0 mm 0.00 in/hr0.0 mm/hr 0.00 in0.0 mm
09:47 PM 54.1°F12.3°C 15.1°F-9.4°C 21% 0.9 mph SW1.4 kmh SW 2.0 mph3.2 kmh 29.55 in1000.7 mb 0.00 in0.0 mm 0.00 in/hr0.0 mm/hr 0.00 in0.0 mm
09:46 PM 54.3°F12.4°C 16.3°F-8.7°C 22% 0.9 mph SW1.4 kmh SW -- 29.55 in1000.7 mb 0.00 in0.0 mm 0.00 in/hr0.0 mm/hr 0.00 in0.0 mm
09:45 PM 54.5°F12.5°C 15.3°F-9.3°C 21% 0.9 mph SW1.4 kmh SW -- 29.55 in1000.7 mb 0.00 in0.0 mm 0.00 in/hr0.0 mm/hr 0.00 in0.0 mm
09:43 PM 54.5°F12.5°C 15.3°F-9.3°C 21% 0.9 mph SW1.4 kmh SW 2.9 mph4.7 kmh 29.55 in1000.7 mb 0.00 in0.0 mm 0.00 in/hr0.0 mm/hr 0.00 in0.0 mm
09:42 PM 54.7°F12.6°C 15.4°F-9.2°C 21% 0.9 mph SW1.4 kmh SW 4.0 mph6.4 kmh 29.55 in1000.7 mb 0.00 in0.0 mm 0.00 in/hr0.0 mm/hr 0.00 in0.0 mm
09:41 PM 54.7°F12.6°C 14.4°F-9.8°C 20% 0.9 mph SW1.4 kmh SW 2.9 mph4.7 kmh 29.55 in1000.7 mb 0.00 in0.0 mm 0.00 in/hr0.0 mm/hr 0.00 in0.0 mm
09:40 PM 54.7°F12.6°C 14.4°F-9.8°C 20% 0.9 mph SW1.4 kmh SW 6.0 mph9.7 kmh 29.55 in1000.7 mb 0.00 in0.0 mm 0.00 in/hr0.0 mm/hr 0.00 in0.0 mm
09:39 PM 54.7°F12.6°C 14.4°F-9.8°C 20% Calm Calm 6.0 mph9.7 kmh 29.55 in1000.7 mb 0.00 in0.0 mm 0.00 in/hr0.0 mm/hr 0.00 in0.0 mm
09:38 PM 54.7°F12.6°C 14.4°F-9.8°C 20% Calm Calm -- 29.55 in1000.7 mb 0.00 in0.0 mm 0.00 in/hr0.0 mm/hr 0.00 in0.0 mm
09:37 PM 54.9°F12.7°C 15.6°F-9.1°C 21% Calm Calm -- 29.55 in1000.7 mb 0.00 in0.0 mm 0.00 in/hr0.0 mm/hr 0.00 in0.0 mm
09:36 PM 55.0°F12.8°C 15.8°F-9.0°C 21% Calm Calm -- 29.55 in1000.7 mb 0.00 in0.0 mm 0.00 in/hr0.0 mm/hr 0.00 in0.0 mm
09:35 PM 55.0°F12.8°C 15.8°F-9.0°C 21% Calm Calm -- 29.55 in1000.7 mb 0.00 in0.0 mm 0.00 in/hr0.0 mm/hr 0.00 in0.0 mm
09:33 PM 55.0°F12.8°C 15.8°F-9.0°C 21% 0.9 mph SW1.4 kmh SW -- 29.55 in1000.7 mb 0.00 in0.0 mm 0.00 in/hr0.0 mm/hr 0.00 in0.0 mm
09:32 PM 55.2°F12.9°C 14.9°F-9.5°C 20% 0.9 mph SW1.4 kmh SW -- 29.55 in1000.7 mb 0.00 in0.0 mm 0.00 in/hr0.0 mm/hr 0.00 in0.0 mm
09:31 PM 55.2°F12.9°C 14.9°F-9.5°C 20% 0.9 mph SW1.4 kmh SW -- 29.55 in1000.7 mb 0.00 in0.0 mm 0.00 in/hr0.0 mm/hr 0.00 in0.0 mm
09:30 PM 55.2°F12.9°C 14.9°F-9.5°C 20% 0.9 mph SW1.4 kmh SW 0.9 mph1.4 kmh 29.55 in1000.7 mb 0.00 in0.0 mm 0.00 in/hr0.0 mm/hr 0.00 in0.0 mm
09:29 PM 55.2°F12.9°C 14.9°F-9.5°C 20% 0.9 mph SW1.4 kmh SW 2.9 mph4.7 kmh 29.55 in1000.7 mb 0.00 in0.0 mm 0.00 in/hr0.0 mm/hr 0.00 in0.0 mm
09:28 PM 55.2°F12.9°C 14.9°F-9.5°C 20% 2.0 mph SW3.2 kmh SW -- 29.55 in1000.7 mb 0.00 in0.0 mm 0.00 in/hr0.0 mm/hr 0.00 in0.0 mm
09:27 PM 55.4°F13.0°C 13.8°F-10.1°C 19% 2.0 mph SW3.2 kmh SW 0.9 mph1.4 kmh 29.55 in1000.7 mb 0.00 in0.0 mm 0.00 in/hr0.0 mm/hr 0.00 in0.0 mm
09:26 PM 55.4°F13.0°C 13.8°F-10.1°C 19% 2.9 mph SW4.7 kmh SW 2.9 mph4.7 kmh 29.55 in1000.7 mb 0.00 in0.0 mm 0.00 in/hr0.0 mm/hr 0.00 in0.0 mm
09:25 PM 55.6°F13.1°C 15.1°F-9.4°C 20% 2.9 mph SW4.7 kmh SW 4.0 mph6.4 kmh 29.55 in1000.7 mb 0.00 in0.0 mm 0.00 in/hr0.0 mm/hr 0.00 in0.0 mm
09:24 PM 55.8°F13.2°C 15.3°F-9.3°C 20% 2.9 mph SW4.7 kmh SW 4.9 mph7.9 kmh 29.55 in1000.7 mb 0.00 in0.0 mm 0.00 in/hr0.0 mm/hr 0.00 in0.0 mm
09:23 PM 55.8°F13.2°C 15.3°F-9.3°C 20% 2.9 mph SW4.7 kmh SW 4.9 mph7.9 kmh 29.55 in1000.7 mb 0.00 in0.0 mm 0.00 in/hr0.0 mm/hr 0.00 in0.0 mm
09:22 PM 55.9°F13.3°C 14.2°F-9.9°C 19% 2.0 mph WSW3.2 kmh WSW 2.9 mph4.7 kmh 29.55 in1000.7 mb 0.00 in0.0 mm 0.00 in/hr0.0 mm/hr 0.00 in0.0 mm
09:21 PM 55.8°F13.2°C 14.2°F-9.9°C 19% 2.0 mph WSW3.2 kmh WSW 4.9 mph7.9 kmh 29.55 in1000.7 mb 0.00 in0.0 mm 0.00 in/hr0.0 mm/hr 0.00 in0.0 mm
09:20 PM 55.8°F13.2°C 14.2°F-9.9°C 19% 2.0 mph WSW3.2 kmh WSW 6.0 mph9.7 kmh 29.55 in1000.7 mb 0.00 in0.0 mm 0.00 in/hr0.0 mm/hr 0.00 in0.0 mm
09:19 PM 55.6°F13.1°C 14.0°F-10.0°C 19% 2.0 mph W3.2 kmh W 6.9 mph11.1 kmh 29.55 in1000.7 mb 0.00 in0.0 mm 0.00 in/hr0.0 mm/hr 0.00 in0.0 mm
09:18 PM 55.6°F13.1°C 15.1°F-9.4°C 20% 2.0 mph WSW3.2 kmh WSW 8.1 mph13.0 kmh 29.56 in1001.0 mb 0.00 in0.0 mm 0.00 in/hr0.0 mm/hr 0.00 in0.0 mm
09:17 PM 55.6°F13.1°C 14.0°F-10.0°C 19% 0.9 mph SW1.4 kmh SW 6.9 mph11.1 kmh 29.56 in1001.0 mb 0.00 in0.0 mm 0.00 in/hr0.0 mm/hr 0.00 in0.0 mm
09:16 PM 55.8°F13.2°C 15.3°F-9.3°C 20% 0.9 mph SSW1.4 kmh SSW 8.9 mph14.3 kmh 29.56 in1001.0 mb 0.00 in0.0 mm 0.00 in/hr0.0 mm/hr 0.00 in0.0 mm
09:15 PM 55.9°F13.3°C 16.5°F-8.6°C 21% 0.9 mph SW1.4 kmh SW 2.9 mph4.7 kmh 29.56 in1001.0 mb 0.00 in0.0 mm 0.00 in/hr0.0 mm/hr 0.00 in0.0 mm
09:14 PM 56.3°F13.5°C 15.8°F-9.0°C 20% 0.9 mph SW1.4 kmh SW 0.9 mph1.4 kmh 29.56 in1001.0 mb 0.00 in0.0 mm 0.00 in/hr0.0 mm/hr 0.00 in0.0 mm
09:13 PM 56.5°F13.6°C 15.8°F-9.0°C 20% 2.0 mph SW3.2 kmh SW 2.0 mph3.2 kmh 29.56 in1001.0 mb 0.00 in0.0 mm 0.00 in/hr0.0 mm/hr 0.00 in0.0 mm
09:12 PM 56.7°F13.7°C 16.0°F-8.9°C 20% 2.9 mph SW4.7 kmh SW 2.0 mph3.2 kmh 29.56 in1001.0 mb 0.00 in0.0 mm 0.00 in/hr0.0 mm/hr 0.00 in0.0 mm
09:10 PM 56.8°F13.8°C 15.1°F-9.4°C 19% 2.9 mph SW4.7 kmh SW 4.0 mph6.4 kmh 29.56 in1001.0 mb 0.00 in0.0 mm 0.00 in/hr0.0 mm/hr 0.00 in0.0 mm
09:09 PM 57.0°F13.9°C 15.1°F-9.4°C 19% 2.9 mph WSW4.7 kmh WSW 2.9 mph4.7 kmh 29.56 in1001.0 mb 0.00 in0.0 mm 0.00 in/hr0.0 mm/hr 0.00 in0.0 mm
09:08 PM 57.0°F13.9°C 14.0°F-10.0°C 18% 4.0 mph WSW6.4 kmh WSW 2.9 mph4.7 kmh 29.56 in1001.0 mb 0.00 in0.0 mm 0.00 in/hr0.0 mm/hr 0.00 in0.0 mm
09:07 PM 57.0°F13.9°C 14.0°F-10.0°C 18% 4.9 mph WSW7.9 kmh WSW 2.9 mph4.7 kmh 29.56 in1001.0 mb 0.00 in0.0 mm 0.00 in/hr0.0 mm/hr 0.00 in0.0 mm
09:06 PM 57.0°F13.9°C 14.0°F-10.0°C 18% 4.9 mph WSW7.9 kmh WSW 4.0 mph6.4 kmh 29.56 in1001.0 mb 0.00 in0.0 mm 0.00 in/hr0.0 mm/hr 0.00 in0.0 mm
09:05 PM 57.0°F13.9°C 14.0°F-10.0°C 18% 4.9 mph WSW7.9 kmh WSW 4.0 mph6.4 kmh 29.56 in1001.0 mb 0.00 in0.0 mm 0.00 in/hr0.0 mm/hr 0.00 in0.0 mm
09:04 PM 57.0°F13.9°C 12.6°F-10.8°C 17% 4.9 mph WSW7.9 kmh WSW 10.1 mph16.3 kmh 29.56 in1001.0 mb 0.00 in0.0 mm 0.00 in/hr0.0 mm/hr 0.00 in0.0 mm
09:03 PM 57.0°F13.9°C 14.0°F-10.0°C 18% 4.0 mph WSW6.4 kmh WSW 10.1 mph16.3 kmh 29.57 in1001.4 mb 0.00 in0.0 mm 0.00 in/hr0.0 mm/hr 0.00 in0.0 mm
09:02 PM 56.8°F13.8°C 12.4°F-10.9°C 17% 4.0 mph W6.4 kmh W 8.1 mph13.0 kmh 29.57 in1001.4 mb 0.00 in0.0 mm 0.00 in/hr0.0 mm/hr 0.00 in0.0 mm
09:00 PM 56.8°F13.8°C 13.8°F-10.1°C 18% 2.9 mph SW4.7 kmh SW 8.9 mph14.3 kmh 29.57 in1001.4 mb 0.00 in0.0 mm 0.00 in/hr0.0 mm/hr 0.00 in0.0 mm
08:59 PM 56.8°F13.8°C 13.8°F-10.1°C 18% 2.9 mph SSW4.7 kmh SSW 8.9 mph14.3 kmh 29.57 in1001.4 mb 0.00 in0.0 mm 0.00 in/hr0.0 mm/hr 0.00 in0.0 mm
08:58 PM 56.8°F13.8°C 13.8°F-10.1°C 18% 2.9 mph WSW4.7 kmh WSW 12.1 mph19.5 kmh 29.57 in1001.4 mb 0.00 in0.0 mm 0.00 in/hr0.0 mm/hr 0.00 in0.0 mm
08:57 PM 56.7°F13.7°C 13.6°F-10.2°C 18% 2.0 mph SW3.2 kmh SW 10.1 mph16.3 kmh 29.57 in1001.4 mb 0.00 in0.0 mm 0.00 in/hr0.0 mm/hr 0.00 in0.0 mm
08:56 PM 56.7°F13.7°C 14.9°F-9.5°C 19% 0.9 mph WSW1.4 kmh WSW 6.0 mph9.7 kmh 29.57 in1001.4 mb 0.00 in0.0 mm 0.00 in/hr0.0 mm/hr 0.00 in0.0 mm
08:55 PM 56.7°F13.7°C 13.6°F-10.2°C 18% 0.9 mph SW1.4 kmh SW 2.9 mph4.7 kmh 29.57 in1001.4 mb 0.00 in0.0 mm 0.00 in/hr0.0 mm/hr 0.00 in0.0 mm
08:54 PM 56.7°F13.7°C 13.6°F-10.2°C 18% 2.0 mph SW3.2 kmh SW 0.9 mph1.4 kmh 29.57 in1001.4 mb 0.00 in0.0 mm 0.00 in/hr0.0 mm/hr 0.00 in0.0 mm
08:53 PM 56.7°F13.7°C 13.6°F-10.2°C 18% 2.0 mph SW3.2 kmh SW 2.0 mph3.2 kmh 29.57 in1001.4 mb 0.00 in0.0 mm 0.00 in/hr0.0 mm/hr 0.00 in0.0 mm
08:52 PM 56.7°F13.7°C 13.6°F-10.2°C 18% 2.0 mph SW3.2 kmh SW 4.9 mph7.9 kmh 29.57 in1001.4 mb 0.00 in0.0 mm 0.00 in/hr0.0 mm/hr 0.00 in0.0 mm
08:49 PM 56.7°F13.7°C 14.9°F-9.5°C 19% 2.0 mph WSW3.2 kmh WSW 4.0 mph6.4 kmh 29.57 in1001.4 mb 0.00 in0.0 mm 0.00 in/hr0.0 mm/hr 0.00 in0.0 mm
08:48 PM 56.5°F13.6°C 14.7°F-9.6°C 19% 2.0 mph WSW3.2 kmh WSW 2.0 mph3.2 kmh 29.57 in1001.4 mb 0.00 in0.0 mm 0.00 in/hr0.0 mm/hr 0.00 in0.0 mm
08:47 PM 56.5°F13.6°C 13.5°F-10.3°C 18% 2.0 mph WSW3.2 kmh WSW 0.9 mph1.4 kmh 29.57 in1001.4 mb 0.00 in0.0 mm 0.00 in/hr0.0 mm/hr 0.00 in0.0 mm
08:46 PM 56.1°F13.4°C 11.8°F-11.2°C 17% 2.0 mph WSW3.2 kmh WSW 4.9 mph7.9 kmh 29.57 in1001.4 mb 0.00 in0.0 mm 0.00 in/hr0.0 mm/hr 0.00 in0.0 mm
08:45 PM 55.9°F13.3°C 13.1°F-10.5°C 18% 0.9 mph WSW1.4 kmh WSW 8.1 mph13.0 kmh 29.57 in1001.4 mb 0.00 in0.0 mm 0.00 in/hr0.0 mm/hr 0.00 in0.0 mm
08:44 PM 55.9°F13.3°C 14.2°F-9.9°C 19% 0.9 mph WNW1.4 kmh WNW 6.9 mph11.1 kmh 29.57 in1001.4 mb 0.00 in0.0 mm 0.00 in/hr0.0 mm/hr 0.00 in0.0 mm
08:43 PM 55.9°F13.3°C 14.2°F-9.9°C 19% Calm Calm 6.9 mph11.1 kmh 29.57 in1001.4 mb 0.00 in0.0 mm 0.00 in/hr0.0 mm/hr 0.00 in0.0 mm
08:42 PM 55.9°F13.3°C 15.4°F-9.2°C 20% Calm Calm 0.9 mph1.4 kmh 29.57 in1001.4 mb 0.00 in0.0 mm 0.00 in/hr0.0 mm/hr 0.00 in0.0 mm
08:41 PM 55.9°F13.3°C 15.4°F-9.2°C 20% Calm Calm -- 29.57 in1001.4 mb 0.00 in0.0 mm 0.00 in/hr0.0 mm/hr 0.00 in0.0 mm
08:40 PM 55.9°F13.3°C 15.4°F-9.2°C 20% Calm Calm -- 29.57 in1001.4 mb 0.00 in0.0 mm 0.00 in/hr0.0 mm/hr 0.00 in0.0 mm
08:39 PM 55.9°F13.3°C 15.4°F-9.2°C 20% 0.9 mph W1.4 kmh W 2.0 mph3.2 kmh 29.57 in1001.4 mb 0.00 in0.0 mm 0.00 in/hr0.0 mm/hr 0.00 in0.0 mm
08:38 PM 55.9°F13.3°C 15.4°F-9.2°C 20% 0.9 mph W1.4 kmh W -- 29.57 in1001.4 mb 0.00 in0.0 mm 0.00 in/hr0.0 mm/hr 0.00 in0.0 mm
08:37 PM 55.9°F13.3°C 15.4°F-9.2°C 20% 0.9 mph W1.4 kmh W 2.0 mph3.2 kmh 29.57 in1001.4 mb 0.00 in0.0 mm 0.00 in/hr0.0 mm/hr 0.00 in0.0 mm
08:36 PM 55.9°F13.3°C 15.4°F-9.2°C 20% 2.0 mph W3.2 kmh W 2.0 mph3.2 kmh 29.57 in1001.4 mb 0.00 in0.0 mm 0.00 in/hr0.0 mm/hr 0.00 in0.0 mm
08:35 PM 55.9°F13.3°C 15.4°F-9.2°C 20% 2.9 mph W4.7 kmh W 0.9 mph1.4 kmh 29.57 in1001.4 mb 0.00 in0.0 mm 0.00 in/hr0.0 mm/hr 0.00 in0.0 mm
08:34 PM 55.9°F13.3°C 15.4°F-9.2°C 20% 2.9 mph W4.7 kmh W 2.0 mph3.2 kmh 29.57 in1001.4 mb 0.00 in0.0 mm 0.00 in/hr0.0 mm/hr 0.00 in0.0 mm
08:33 PM 55.9°F13.3°C 15.4°F-9.2°C 20% 4.0 mph W6.4 kmh W 2.0 mph3.2 kmh 29.57 in1001.4 mb 0.00 in0.0 mm 0.00 in/hr0.0 mm/hr 0.00 in0.0 mm
08:32 PM 56.1°F13.4°C 15.6°F-9.1°C 20% 4.0 mph W6.4 kmh W -- 29.57 in1001.4 mb 0.00 in0.0 mm 0.00 in/hr0.0 mm/hr 0.00 in0.0 mm
08:31 PM 56.1°F13.4°C 15.6°F-9.1°C 20% 4.9 mph W7.9 kmh W 4.9 mph7.9 kmh 29.57 in1001.4 mb 0.00 in0.0 mm 0.00 in/hr0.0 mm/hr 0.00 in0.0 mm
08:30 PM 56.3°F13.5°C 16.9°F-8.4°C 21% 4.9 mph W7.9 kmh W 4.9 mph7.9 kmh 29.57 in1001.4 mb 0.00 in0.0 mm 0.00 in/hr0.0 mm/hr 0.00 in0.0 mm
08:29 PM 56.3°F13.5°C 15.8°F-9.0°C 20% 6.0 mph WNW9.7 kmh WNW 8.1 mph13.0 kmh 29.57 in1001.4 mb 0.00 in0.0 mm 0.00 in/hr0.0 mm/hr 0.00 in0.0 mm
08:28 PM 56.3°F13.5°C 16.9°F-8.4°C 21% 6.0 mph WNW9.7 kmh WNW 8.1 mph13.0 kmh 29.57 in1001.4 mb 0.00 in0.0 mm 0.00 in/hr0.0 mm/hr 0.00 in0.0 mm
08:27 PM 56.5°F13.6°C 15.8°F-9.0°C 20% 6.0 mph NW9.7 kmh NW 8.9 mph14.3 kmh 29.57 in1001.4 mb 0.00 in0.0 mm 0.00 in/hr0.0 mm/hr 0.00 in0.0 mm
08:26 PM 56.7°F13.7°C 17.2°F-8.2°C 21% 4.9 mph NW7.9 kmh NW 8.9 mph14.3 kmh 29.57 in1001.4 mb 0.00 in0.0 mm 0.00 in/hr0.0 mm/hr 0.00 in0.0 mm
08:25 PM 56.8°F13.8°C 16.2°F-8.8°C 20% 4.9 mph NW7.9 kmh NW 6.0 mph9.7 kmh 29.57 in1001.4 mb 0.00 in0.0 mm 0.00 in/hr0.0 mm/hr 0.00 in0.0 mm
08:23 PM 57.0°F13.9°C 16.3°F-8.7°C 20% 6.0 mph NW9.7 kmh NW 8.1 mph13.0 kmh 29.57 in1001.4 mb 0.00 in0.0 mm 0.00 in/hr0.0 mm/hr 0.00 in0.0 mm
08:22 PM 57.0°F13.9°C 15.1°F-9.4°C 19% 6.0 mph WNW9.7 kmh WNW 11.0 mph17.7 kmh 29.57 in1001.4 mb 0.00 in0.0 mm 0.00 in/hr0.0 mm/hr 0.00 in0.0 mm
08:21 PM 57.2°F14.0°C 15.3°F-9.3°C 19% 6.0 mph WNW9.7 kmh WNW 8.1 mph13.0 kmh 29.57 in1001.4 mb 0.00 in0.0 mm 0.00 in/hr0.0 mm/hr 0.00 in0.0 mm
08:20 PM 57.4°F14.1°C 15.4°F-9.2°C 19% 6.0 mph WNW9.7 kmh WNW 8.1 mph13.0 kmh 29.57 in1001.4 mb 0.00 in0.0 mm 0.00 in/hr0.0 mm/hr 0.00 in0.0 mm
08:19 PM 57.4°F14.1°C 14.2°F-9.9°C 18% 6.0 mph WNW9.7 kmh WNW 8.1 mph13.0 kmh 29.57 in1001.4 mb 0.00 in0.0 mm 0.00 in/hr0.0 mm/hr 0.00 in0.0 mm
08:18 PM 57.4°F14.1°C 14.2°F-9.9°C 18% 6.0 mph WNW9.7 kmh WNW 8.1 mph13.0 kmh 29.56 in1001.0 mb 0.00 in0.0 mm 0.00 in/hr0.0 mm/hr 0.00 in0.0 mm
08:17 PM 57.4°F14.1°C 15.4°F-9.2°C 19% 6.0 mph W9.7 kmh W 6.0 mph9.7 kmh 29.56 in1001.0 mb 0.00 in0.0 mm 0.00 in/hr0.0 mm/hr 0.00 in0.0 mm
08:16 PM 57.2°F14.0°C 14.0°F-10.0°C 18% 6.0 mph W9.7 kmh W 8.1 mph13.0 kmh 29.56 in1001.0 mb 0.00 in0.0 mm 0.00 in/hr0.0 mm/hr 0.00 in0.0 mm
08:15 PM 57.2°F14.0°C 15.3°F-9.3°C 19% 6.0 mph W9.7 kmh W 4.9 mph7.9 kmh 29.56 in1001.0 mb 0.00 in0.0 mm 0.00 in/hr0.0 mm/hr 0.00 in0.0 mm
08:14 PM 57.0°F13.9°C 14.0°F-10.0°C 18% 6.0 mph W9.7 kmh W 10.1 mph16.3 kmh 29.56 in1001.0 mb 0.00 in0.0 mm 0.00 in/hr0.0 mm/hr 0.00 in0.0 mm
08:13 PM 57.0°F13.9°C 15.1°F-9.4°C 19% 6.0 mph W9.7 kmh W 10.1 mph16.3 kmh 29.56 in1001.0 mb 0.00 in0.0 mm 0.00 in/hr0.0 mm/hr 0.00 in0.0 mm
08:12 PM 56.8°F13.8°C 15.1°F-9.4°C 19% 6.0 mph WNW9.7 kmh WNW 11.0 mph17.7 kmh 29.56 in1001.0 mb 0.00 in0.0 mm 0.00 in/hr0.0 mm/hr 0.00 in0.0 mm
08:11 PM 57.0°F13.9°C 15.1°F-9.4°C 19% 4.9 mph W7.9 kmh W 13.0 mph20.9 kmh 29.56 in1001.0 mb 0.00 in0.0 mm 0.00 in/hr0.0 mm/hr 0.00 in0.0 mm
08:10 PM 57.2°F14.0°C 16.5°F-8.6°C 20% 6.0 mph WNW9.7 kmh WNW 8.9 mph14.3 kmh 29.56 in1001.0 mb 0.00 in0.0 mm 0.00 in/hr0.0 mm/hr 0.00 in0.0 mm
08:09 PM 57.6°F14.2°C 19.0°F-7.2°C 22% 6.0 mph WNW9.7 kmh WNW 6.9 mph11.1 kmh 29.56 in1001.0 mb 0.00 in0.0 mm 0.00 in/hr0.0 mm/hr 0.00 in0.0 mm
08:08 PM 57.6°F14.2°C 14.4°F-9.8°C 18% 6.0 mph WNW9.7 kmh WNW 6.9 mph11.1 kmh 29.56 in1001.0 mb 0.00 in0.0 mm 0.00 in/hr0.0 mm/hr 0.00 in0.0 mm
08:07 PM 57.6°F14.2°C 14.4°F-9.8°C 18% 6.9 mph WNW11.1 kmh WNW 6.0 mph9.7 kmh 29.56 in1001.0 mb 0.00 in0.0 mm 0.00 in/hr0.0 mm/hr 0.00 in0.0 mm
08:06 PM 57.7°F14.3°C 15.8°F-9.0°C 19% 6.9 mph W11.1 kmh W 4.9 mph7.9 kmh 29.56 in1001.0 mb 0.00 in0.0 mm 0.00 in/hr0.0 mm/hr 0.00 in0.0 mm
08:05 PM 57.9°F14.4°C 14.7°F-9.6°C 18% 8.1 mph W13.0 kmh W 6.0 mph9.7 kmh 29.56 in1001.0 mb 0.00 in0.0 mm 0.00 in/hr0.0 mm/hr 0.00 in0.0 mm
08:04 PM 58.1°F14.5°C 14.7°F-9.6°C 18% 8.1 mph WNW13.0 kmh WNW 8.1 mph13.0 kmh 29.56 in1001.0 mb 0.00 in0.0 mm 0.00 in/hr0.0 mm/hr 0.00 in0.0 mm
08:03 PM 58.1°F14.5°C 14.7°F-9.6°C 18% 8.1 mph WNW13.0 kmh WNW 10.1 mph16.3 kmh 29.56 in1001.0 mb 0.00 in0.0 mm 0.00 in/hr0.0 mm/hr 0.00 in0.0 mm
08:02 PM 58.1°F14.5°C 14.7°F-9.6°C 18% 8.1 mph WNW13.0 kmh WNW 10.1 mph16.3 kmh 29.56 in1001.0 mb 0.00 in0.0 mm 0.00 in/hr0.0 mm/hr 0.00 in0.0 mm
08:01 PM 58.3°F14.6°C 14.9°F-9.5°C 18% 8.9 mph W14.3 kmh W 10.1 mph16.3 kmh 29.56 in1001.0 mb 0.00 in0.0 mm 0.00 in/hr0.0 mm/hr 0.00 in0.0 mm
08:00 PM 58.3°F14.6°C 14.9°F-9.5°C 18% 8.9 mph W14.3 kmh W 12.1 mph19.5 kmh 29.56 in1001.0 mb 0.00 in0.0 mm 0.00 in/hr0.0 mm/hr 0.00 in0.0 mm
07:59 PM 58.5°F14.7°C 16.3°F-8.7°C 19% 10.1 mph W16.3 kmh W 12.1 mph19.5 kmh 29.56 in1001.0 mb 0.00 in0.0 mm 0.00 in/hr0.0 mm/hr 0.00 in0.0 mm
07:58 PM 58.5°F14.7°C 13.8°F-10.1°C 17% 10.1 mph WNW16.3 kmh WNW 10.1 mph16.3 kmh 29.56 in1001.0 mb 0.00 in0.0 mm 0.00 in/hr0.0 mm/hr 0.00 in0.0 mm
07:57 PM 58.6°F14.8°C 14.0°F-10.0°C 17% 11.0 mph WNW17.7 kmh WNW 14.1 mph22.7 kmh 29.56 in1001.0 mb 0.00 in0.0 mm 0.00 in/hr0.0 mm/hr 0.00 in0.0 mm
07:56 PM 58.6°F14.8°C 14.0°F-10.0°C 17% 11.0 mph WNW17.7 kmh WNW 12.1 mph19.5 kmh 29.56 in1001.0 mb 0.00 in0.0 mm 0.00 in/hr0.0 mm/hr 0.00 in0.0 mm
07:55 PM 58.6°F14.8°C 14.0°F-10.0°C 17% 11.0 mph WNW17.7 kmh WNW 13.0 mph20.9 kmh 29.56 in1001.0 mb 0.00 in0.0 mm 0.00 in/hr0.0 mm/hr 0.00 in0.0 mm
07:54 PM 58.6°F14.8°C 14.0°F-10.0°C 17% 11.0 mph W17.7 kmh W 10.1 mph16.3 kmh 29.56 in1001.0 mb 0.00 in0.0 mm 0.00 in/hr0.0 mm/hr 0.00 in0.0 mm
07:53 PM 58.6°F14.8°C 14.0°F-10.0°C 17% 12.1 mph WSW19.5 kmh WSW 11.0 mph17.7 kmh 29.56 in1001.0 mb 0.00 in0.0 mm 0.00 in/hr0.0 mm/hr 0.00 in0.0 mm
07:52 PM 58.6°F14.8°C 15.3°F-9.3°C 18% 11.0 mph W17.7 kmh W 15.0 mph24.1 kmh 29.56 in1001.0 mb 0.00 in0.0 mm 0.00 in/hr0.0 mm/hr 0.00 in0.0 mm
07:51 PM 58.6°F14.8°C 15.3°F-9.3°C 18% 10.1 mph W16.3 kmh W 15.0 mph24.1 kmh 29.56 in1001.0 mb 0.00 in0.0 mm 0.00 in/hr0.0 mm/hr 0.00 in0.0 mm
07:50 PM 58.6°F14.8°C 15.3°F-9.3°C 18% 10.1 mph W16.3 kmh W 15.0 mph24.1 kmh 29.56 in1001.0 mb 0.00 in0.0 mm 0.00 in/hr0.0 mm/hr 0.00 in0.0 mm
07:49 PM 58.6°F14.8°C 14.0°F-10.0°C 17% 10.1 mph WNW16.3 kmh WNW 19.0 mph30.6 kmh 29.56 in1001.0 mb 0.00 in0.0 mm 0.00 in/hr0.0 mm/hr 0.00 in0.0 mm
07:48 PM 58.6°F14.8°C 14.0°F-10.0°C 17% 8.9 mph W14.3 kmh W 17.0 mph27.4 kmh 29.57 in1001.4 mb 0.00 in0.0 mm 0.00 in/hr0.0 mm/hr 0.00 in0.0 mm
07:47 PM 58.5°F14.7°C 13.8°F-10.1°C 17% 8.1 mph WNW13.0 kmh WNW 14.1 mph22.7 kmh 29.57 in1001.4 mb 0.00 in0.0 mm 0.00 in/hr0.0 mm/hr 0.00 in0.0 mm
07:46 PM 58.5°F14.7°C 15.1°F-9.4°C 18% 8.1 mph WNW13.0 kmh WNW 17.0 mph27.4 kmh 29.57 in1001.4 mb 0.00 in0.0 mm 0.00 in/hr0.0 mm/hr 0.00 in0.0 mm
07:45 PM 58.3°F14.6°C 13.6°F-10.2°C 17% 6.9 mph W11.1 kmh W 19.9 mph32.0 kmh 29.57 in1001.4 mb 0.00 in0.0 mm 0.00 in/hr0.0 mm/hr 0.00 in0.0 mm
07:44 PM 58.3°F14.6°C 13.6°F-10.2°C 17% 6.0 mph WNW9.7 kmh WNW 19.9 mph32.0 kmh 29.57 in1001.4 mb 0.00 in0.0 mm 0.00 in/hr0.0 mm/hr 0.00 in0.0 mm
07:43 PM 58.3°F14.6°C 14.9°F-9.5°C 18% 4.9 mph WNW7.9 kmh WNW 6.0 mph9.7 kmh 29.57 in1001.4 mb 0.00 in0.0 mm 0.00 in/hr0.0 mm/hr 0.00 in0.0 mm
07:42 PM 58.3°F14.6°C 14.9°F-9.5°C 18% 4.9 mph WNW7.9 kmh WNW 10.1 mph16.3 kmh 29.57 in1001.4 mb 0.00 in0.0 mm 0.00 in/hr0.0 mm/hr 0.00 in0.0 mm
07:41 PM 58.3°F14.6°C 14.9°F-9.5°C 18% 4.9 mph WNW7.9 kmh WNW 14.1 mph22.7 kmh 29.57 in1001.4 mb 0.00 in0.0 mm 0.00 in/hr0.0 mm/hr 0.00 in0.0 mm
07:40 PM 58.3°F14.6°C 14.9°F-9.5°C 18% 4.9 mph WNW7.9 kmh WNW 8.9 mph14.3 kmh 29.57 in1001.4 mb 0.00 in0.0 mm 0.00 in/hr0.0 mm/hr 0.00 in0.0 mm
07:39 PM 58.1°F14.5°C 14.7°F-9.6°C 18% 4.9 mph WSW7.9 kmh WSW 12.1 mph19.5 kmh 29.57 in1001.4 mb 0.00 in0.0 mm 0.00 in/hr0.0 mm/hr 0.00 in0.0 mm
07:38 PM 57.9°F14.4°C 15.8°F-9.0°C 19% 4.0 mph NW6.4 kmh NW 8.1 mph13.0 kmh 29.57 in1001.4 mb 0.00 in0.0 mm 0.00 in/hr0.0 mm/hr 0.00 in0.0 mm
07:37 PM 57.9°F14.4°C 14.7°F-9.6°C 18% 4.0 mph W6.4 kmh W 4.0 mph6.4 kmh 29.57 in1001.4 mb 0.00 in0.0 mm 0.00 in/hr0.0 mm/hr 0.00 in0.0 mm
07:36 PM 57.9°F14.4°C 14.7°F-9.6°C 18% 4.0 mph WNW6.4 kmh WNW 6.0 mph9.7 kmh 29.57 in1001.4 mb 0.00 in0.0 mm 0.00 in/hr0.0 mm/hr 0.00 in0.0 mm
07:35 PM 57.7°F14.3°C 15.8°F-9.0°C 19% 4.0 mph W6.4 kmh W 4.9 mph7.9 kmh 29.57 in1001.4 mb 0.00 in0.0 mm 0.00 in/hr0.0 mm/hr 0.00 in0.0 mm
07:34 PM 57.7°F14.3°C 15.8°F-9.0°C 19% 4.9 mph W7.9 kmh W 8.1 mph13.0 kmh 29.57 in1001.4 mb 0.00 in0.0 mm 0.00 in/hr0.0 mm/hr 0.00 in0.0 mm
07:33 PM 57.7°F14.3°C 15.8°F-9.0°C 19% 4.9 mph W7.9 kmh W 8.1 mph13.0 kmh 29.57 in1001.4 mb 0.00 in0.0 mm 0.00 in/hr0.0 mm/hr 0.00 in0.0 mm
07:32 PM 57.7°F14.3°C 15.8°F-9.0°C 19% 4.9 mph WNW7.9 kmh WNW 8.9 mph14.3 kmh 29.57 in1001.4 mb 0.00 in0.0 mm 0.00 in/hr0.0 mm/hr 0.00 in0.0 mm
07:31 PM 57.7°F14.3°C 15.8°F-9.0°C 19% 4.9 mph WNW7.9 kmh WNW 8.9 mph14.3 kmh 29.57 in1001.4 mb 0.00 in0.0 mm 0.00 in/hr0.0 mm/hr 0.00 in0.0 mm
07:30 PM 57.7°F14.3°C 15.8°F-9.0°C 19% 4.9 mph WNW7.9 kmh WNW 8.9 mph14.3 kmh 29.57 in1001.4 mb 0.00 in0.0 mm 0.00 in/hr0.0 mm/hr 0.00 in0.0 mm
07:29 PM 57.9°F14.4°C 17.1°F-8.3°C 20% 4.9 mph W7.9 kmh W 4.9 mph7.9 kmh 29.57 in1001.4 mb 0.00 in0.0 mm 0.00 in/hr0.0 mm/hr 0.00 in0.0 mm
07:28 PM 58.1°F14.5°C 17.2°F-8.2°C 20% 6.0 mph W9.7 kmh W 4.0 mph6.4 kmh 29.57 in1001.4 mb 0.00 in0.0 mm 0.00 in/hr0.0 mm/hr 0.00 in0.0 mm
07:27 PM 58.3°F14.6°C 16.2°F-8.8°C 19% 6.0 mph W9.7 kmh W 6.0 mph9.7 kmh 29.57 in1001.4 mb 0.00 in0.0 mm 0.00 in/hr0.0 mm/hr 0.00 in0.0 mm
07:26 PM 58.3°F14.6°C 16.2°F-8.8°C 19% 6.9 mph WNW11.1 kmh WNW 8.1 mph13.0 kmh 29.57 in1001.4 mb 0.00 in0.0 mm 0.00 in/hr0.0 mm/hr 0.00 in0.0 mm
07:25 PM 58.3°F14.6°C 14.9°F-9.5°C 18% 6.9 mph W11.1 kmh W 6.9 mph11.1 kmh 29.57 in1001.4 mb 0.00 in0.0 mm 0.00 in/hr0.0 mm/hr 0.00 in0.0 mm
07:24 PM 58.3°F14.6°C 16.2°F-8.8°C 19% 6.9 mph WNW11.1 kmh WNW 8.9 mph14.3 kmh 29.57 in1001.4 mb 0.00 in0.0 mm 0.00 in/hr0.0 mm/hr 0.00 in0.0 mm
07:23 PM 58.5°F14.7°C 16.3°F-8.7°C 19% 6.9 mph W11.1 kmh W 11.0 mph17.7 kmh 29.57 in1001.4 mb 0.00 in0.0 mm 0.00 in/hr0.0 mm/hr 0.00 in0.0 mm
07:22 PM 58.5°F14.7°C 16.3°F-8.7°C 19% 8.1 mph W13.0 kmh W 8.9 mph14.3 kmh 29.57 in1001.4 mb 0.00 in0.0 mm 0.00 in/hr0.0 mm/hr 0.00 in0.0 mm
07:21 PM 58.5°F14.7°C 16.3°F-8.7°C 19% 8.1 mph W13.0 kmh W 8.9 mph14.3 kmh 29.57 in1001.4 mb 0.00 in0.0 mm 0.00 in/hr0.0 mm/hr 0.00 in0.0 mm
07:20 PM 58.6°F14.8°C 16.5°F-8.6°C 19% 8.1 mph WNW13.0 kmh WNW 8.9 mph14.3 kmh 29.57 in1001.4 mb 0.00 in0.0 mm 0.00 in/hr0.0 mm/hr 0.00 in0.0 mm
07:19 PM 58.6°F14.8°C 16.5°F-8.6°C 19% 8.1 mph WNW13.0 kmh WNW 8.9 mph14.3 kmh 29.57 in1001.4 mb 0.00 in0.0 mm 0.00 in/hr0.0 mm/hr 0.00 in0.0 mm
07:18 PM 58.6°F14.8°C 16.5°F-8.6°C 19% 8.1 mph WNW13.0 kmh WNW 11.0 mph17.7 kmh 29.57 in1001.4 mb 0.00 in0.0 mm 0.00 in/hr0.0 mm/hr 0.00 in0.0 mm
07:17 PM 58.6°F14.8°C 15.3°F-9.3°C 18% 6.9 mph WNW11.1 kmh WNW 10.1 mph16.3 kmh 29.57 in1001.4 mb 0.00 in0.0 mm 0.00 in/hr0.0 mm/hr 0.00 in0.0 mm
07:16 PM 58.6°F14.8°C 16.5°F-8.6°C 19% 6.9 mph WSW11.1 kmh WSW 8.9 mph14.3 kmh 29.57 in1001.4 mb 0.00 in0.0 mm 0.00 in/hr0.0 mm/hr 0.00 in0.0 mm
07:15 PM 58.6°F14.8°C 16.5°F-8.6°C 19% 8.1 mph WNW13.0 kmh WNW 14.1 mph22.7 kmh 29.57 in1001.4 mb 0.00 in0.0 mm 0.00 in/hr0.0 mm/hr 0.00 in0.0 mm
07:14 PM 58.5°F14.7°C 15.1°F-9.4°C 18% 8.1 mph WNW13.0 kmh WNW 11.0 mph17.7 kmh 29.57 in1001.4 mb 0.00 in0.0 mm 0.00 in/hr0.0 mm/hr 0.00 in0.0 mm
07:13 PM 58.5°F14.7°C 16.3°F-8.7°C 19% 8.1 mph W13.0 kmh W 13.0 mph20.9 kmh 29.57 in1001.4 mb 0.00 in0.0 mm 0.00 in/hr0.0 mm/hr 0.00 in0.0 mm
07:12 PM 58.5°F14.7°C 17.6°F-8.0°C 20% 8.1 mph NW13.0 kmh NW 11.0 mph17.7 kmh 29.57 in1001.4 mb 0.00 in0.0 mm 0.00 in/hr0.0 mm/hr 0.00 in0.0 mm
07:11 PM 58.6°F14.8°C 18.9°F-7.3°C 21% 8.1 mph W13.0 kmh W 12.1 mph19.5 kmh 29.57 in1001.4 mb 0.00 in0.0 mm 0.00 in/hr0.0 mm/hr 0.00 in0.0 mm
07:10 PM 58.6°F14.8°C 19.9°F-6.7°C 22% 8.9 mph WNW14.3 kmh WNW 8.1 mph13.0 kmh 29.57 in1001.4 mb 0.00 in0.0 mm 0.00 in/hr0.0 mm/hr 0.00 in0.0 mm
07:09 PM 58.6°F14.8°C 17.6°F-8.0°C 20% 8.9 mph WNW14.3 kmh WNW 8.1 mph13.0 kmh 29.57 in1001.4 mb 0.00 in0.0 mm 0.00 in/hr0.0 mm/hr 0.00 in0.0 mm
07:08 PM 58.8°F14.9°C 17.8°F-7.9°C 20% 10.1 mph WNW16.3 kmh WNW 8.1 mph13.0 kmh 29.57 in1001.4 mb 0.00 in0.0 mm 0.00 in/hr0.0 mm/hr 0.00 in0.0 mm
07:07 PM 59.0°F15.0°C 18.0°F-7.8°C 20% 11.0 mph WNW17.7 kmh WNW 8.1 mph13.0 kmh 29.57 in1001.4 mb 0.00 in0.0 mm 0.00 in/hr0.0 mm/hr 0.00 in0.0 mm
07:06 PM 59.0°F15.0°C 18.0°F-7.8°C 20% 11.0 mph WNW17.7 kmh WNW 11.0 mph17.7 kmh 29.57 in1001.4 mb 0.00 in0.0 mm 0.00 in/hr0.0 mm/hr 0.00 in0.0 mm
07:05 PM 59.0°F15.0°C 16.7°F-8.5°C 19% 11.0 mph WNW17.7 kmh WNW 14.1 mph22.7 kmh 29.57 in1001.4 mb 0.00 in0.0 mm 0.00 in/hr0.0 mm/hr 0.00 in0.0 mm
07:04 PM 59.2°F15.1°C 19.2°F-7.1°C 21% 11.0 mph WNW17.7 kmh WNW 14.1 mph22.7 kmh 29.57 in1001.4 mb 0.00 in0.0 mm 0.00 in/hr0.0 mm/hr 0.00 in0.0 mm
07:03 PM 59.4°F15.2°C 18.3°F-7.6°C 20% 11.0 mph W17.7 kmh W 13.0 mph20.9 kmh 29.57 in1001.4 mb 0.00 in0.0 mm 0.00 in/hr0.0 mm/hr 0.00 in0.0 mm
07:02 PM 59.5°F15.3°C 19.6°F-6.9°C 21% 11.0 mph WNW17.7 kmh WNW 12.1 mph19.5 kmh 29.57 in1001.4 mb 0.00 in0.0 mm 0.00 in/hr0.0 mm/hr 0.00 in0.0 mm
07:01 PM 59.5°F15.3°C 18.5°F-7.5°C 20% 10.1 mph WNW16.3 kmh WNW 15.0 mph24.1 kmh 29.57 in1001.4 mb 0.00 in0.0 mm 0.00 in/hr0.0 mm/hr 0.00 in0.0 mm
07:00 PM 59.7°F15.4°C 17.4°F-8.1°C 19% 10.1 mph WNW16.3 kmh WNW 14.1 mph22.7 kmh 29.57 in1001.4 mb 0.00 in0.0 mm 0.00 in/hr0.0 mm/hr 0.00 in0.0 mm
06:59 PM 59.9°F15.5°C 17.6°F-8.0°C 19% 10.1 mph WNW16.3 kmh WNW 16.1 mph25.9 kmh 29.57 in1001.4 mb 0.00 in0.0 mm 0.00 in/hr0.0 mm/hr 0.00 in0.0 mm
06:58 PM 60.1°F15.6°C 18.9°F-7.3°C 20% 10.1 mph WNW16.3 kmh WNW 16.1 mph25.9 kmh 29.57 in1001.4 mb 0.00 in0.0 mm 0.00 in/hr0.0 mm/hr 0.00 in0.0 mm
06:57 PM 60.3°F15.7°C 15.3°F-9.3°C 17% 8.9 mph WNW14.3 kmh WNW 16.1 mph25.9 kmh 29.57 in1001.4 mb 0.00 in0.0 mm 0.00 in/hr0.0 mm/hr 0.00 in0.0 mm
06:56 PM 60.3°F15.7°C 20.1°F-6.6°C 21% 8.9 mph WNW14.3 kmh WNW 14.1 mph22.7 kmh 29.57 in1001.4 mb 0.00 in0.0 mm 0.00 in/hr0.0 mm/hr 0.00 in0.0 mm
06:55 PM 60.3°F15.7°C 17.8°F-7.9°C 19% 8.9 mph WNW14.3 kmh WNW 11.0 mph17.7 kmh 29.57 in1001.4 mb 0.00 in0.0 mm 0.00 in/hr0.0 mm/hr 0.00 in0.0 mm
06:54 PM 60.3°F15.7°C 17.8°F-7.9°C 19% 10.1 mph WNW16.3 kmh WNW 11.0 mph17.7 kmh 29.57 in1001.4 mb 0.00 in0.0 mm 0.00 in/hr0.0 mm/hr 0.00 in0.0 mm
06:53 PM 60.3°F15.7°C 19.0°F-7.2°C 20% 10.1 mph WNW16.3 kmh WNW 13.0 mph20.9 kmh 29.57 in1001.4 mb 0.00 in0.0 mm 0.00 in/hr0.0 mm/hr 0.00 in0.0 mm
06:52 PM 60.3°F15.7°C 17.8°F-7.9°C 19% 10.1 mph WNW16.3 kmh WNW 13.0 mph20.9 kmh 29.57 in1001.4 mb 0.00 in0.0 mm 0.00 in/hr0.0 mm/hr 0.00 in0.0 mm
06:51 PM 60.4°F15.8°C 20.3°F-6.5°C 21% 11.0 mph WNW17.7 kmh WNW 11.0 mph17.7 kmh 29.57 in1001.4 mb 0.00 in0.0 mm 0.00 in/hr0.0 mm/hr 0.00 in0.0 mm
06:49 PM 60.4°F15.8°C 18.0°F-7.8°C 19% 11.0 mph NW17.7 kmh NW 13.0 mph20.9 kmh 29.57 in1001.4 mb 0.00 in0.0 mm 0.00 in/hr0.0 mm/hr 0.00 in0.0 mm
06:48 PM 60.4°F15.8°C 18.0°F-7.8°C 19% 11.0 mph WNW17.7 kmh WNW 12.1 mph19.5 kmh 29.57 in1001.4 mb 0.00 in0.0 mm 0.00 in/hr0.0 mm/hr 0.00 in0.0 mm
06:47 PM 60.6°F15.9°C 19.4°F-7.0°C 20% 11.0 mph WNW17.7 kmh WNW 11.0 mph17.7 kmh 29.57 in1001.4 mb 0.00 in0.0 mm 0.00 in/hr0.0 mm/hr 0.00 in0.0 mm
06:46 PM 61.0°F16.1°C 18.5°F-7.5°C 19% 11.0 mph NW17.7 kmh NW 13.0 mph20.9 kmh 29.57 in1001.4 mb 0.00 in0.0 mm 0.00 in/hr0.0 mm/hr 0.00 in0.0 mm
06:45 PM 61.0°F16.1°C 19.6°F-6.9°C 20% 11.0 mph NW17.7 kmh NW 11.0 mph17.7 kmh 29.57 in1001.4 mb 0.00 in0.0 mm 0.00 in/hr0.0 mm/hr 0.00 in0.0 mm
06:44 PM 61.2°F16.2°C 17.2°F-8.2°C 18% 11.0 mph W17.7 kmh W 14.1 mph22.7 kmh 29.57 in1001.4 mb 0.00 in0.0 mm 0.00 in/hr0.0 mm/hr 0.00 in0.0 mm
06:43 PM 61.3°F16.3°C 18.7°F-7.4°C 19% 11.0 mph WNW17.7 kmh WNW 16.1 mph25.9 kmh 29.57 in1001.4 mb 0.00 in0.0 mm 0.00 in/hr0.0 mm/hr 0.00 in0.0 mm
06:42 PM 61.5°F16.4°C 17.6°F-8.0°C 18% 11.0 mph WNW17.7 kmh WNW 14.1 mph22.7 kmh 29.57 in1001.4 mb 0.00 in0.0 mm 0.00 in/hr0.0 mm/hr 0.00 in0.0 mm
06:41 PM 61.5°F16.4°C 17.6°F-8.0°C 18% 11.0 mph W17.7 kmh W 19.0 mph30.6 kmh 29.57 in1001.4 mb 0.00 in0.0 mm 0.00 in/hr0.0 mm/hr 0.00 in0.0 mm
06:40 PM 61.5°F16.4°C 16.3°F-8.7°C 17% 11.0 mph NW17.7 kmh NW 19.0 mph30.6 kmh 29.57 in1001.4 mb 0.00 in0.0 mm 0.00 in/hr0.0 mm/hr 0.00 in0.0 mm
06:39 PM 61.9°F16.6°C 18.0°F-7.8°C 18% 11.0 mph NW17.7 kmh NW 14.1 mph22.7 kmh 29.57 in1001.4 mb 0.00 in0.0 mm 0.00 in/hr0.0 mm/hr 0.00 in0.0 mm
06:38 PM 61.9°F16.6°C 16.5°F-8.6°C 17% 11.0 mph W17.7 kmh W 16.1 mph25.9 kmh 29.57 in1001.4 mb 0.00 in0.0 mm 0.00 in/hr0.0 mm/hr 0.00 in0.0 mm
06:37 PM 61.9°F16.6°C 20.3°F-6.5°C 20% 11.0 mph NW17.7 kmh NW 14.1 mph22.7 kmh 29.57 in1001.4 mb 0.00 in0.0 mm 0.00 in/hr0.0 mm/hr 0.00 in0.0 mm
06:36 PM 61.9°F16.6°C 15.3°F-9.3°C 16% 11.0 mph NW17.7 kmh NW 14.1 mph22.7 kmh 29.57 in1001.4 mb 0.00 in0.0 mm 0.00 in/hr0.0 mm/hr 0.00 in0.0 mm
06:35 PM 61.9°F16.6°C 15.3°F-9.3°C 16% 10.1 mph WNW16.3 kmh WNW 14.1 mph22.7 kmh 29.57 in1001.4 mb 0.00 in0.0 mm 0.00 in/hr0.0 mm/hr 0.00 in0.0 mm
06:34 PM 61.9°F16.6°C 18.0°F-7.8°C 18% 10.1 mph WSW16.3 kmh WSW 12.1 mph19.5 kmh 29.57 in1001.4 mb 0.00 in0.0 mm 0.00 in/hr0.0 mm/hr 0.00 in0.0 mm
06:33 PM 61.9°F16.6°C 18.0°F-7.8°C 18% 10.1 mph W16.3 kmh W 17.0 mph27.4 kmh 29.59 in1002.0 mb 0.00 in0.0 mm 0.00 in/hr0.0 mm/hr 0.00 in0.0 mm
06:32 PM 61.9°F16.6°C 18.0°F-7.8°C 18% 10.1 mph WNW16.3 kmh WNW 17.0 mph27.4 kmh 29.59 in1002.0 mb 0.00 in0.0 mm 0.00 in/hr0.0 mm/hr 0.00 in0.0 mm
06:31 PM 61.9°F16.6°C 20.3°F-6.5°C 20% 10.1 mph WNW16.3 kmh WNW 15.0 mph24.1 kmh 29.59 in1002.0 mb 0.00 in0.0 mm 0.00 in/hr0.0 mm/hr 0.00 in0.0 mm
06:30 PM 61.9°F16.6°C 19.2°F-7.1°C 19% 10.1 mph NW16.3 kmh NW 14.1 mph22.7 kmh 29.59 in1002.0 mb 0.00 in0.0 mm 0.00 in/hr0.0 mm/hr 0.00 in0.0 mm
06:29 PM 62.1°F16.7°C 19.2°F-7.1°C 19% 8.9 mph NW14.3 kmh NW 13.0 mph20.9 kmh 29.59 in1002.0 mb 0.00 in0.0 mm 0.00 in/hr0.0 mm/hr 0.00 in0.0 mm
06:28 PM 62.1°F16.7°C 22.8°F-5.1°C 22% 8.9 mph NW14.3 kmh NW 11.0 mph17.7 kmh 29.59 in1002.0 mb 0.00 in0.0 mm 0.00 in/hr0.0 mm/hr 0.00 in0.0 mm
06:27 PM 62.1°F16.7°C 19.2°F-7.1°C 19% 8.9 mph WNW14.3 kmh WNW 10.1 mph16.3 kmh 29.59 in1002.0 mb 0.00 in0.0 mm 0.00 in/hr0.0 mm/hr 0.00 in0.0 mm
06:26 PM 62.1°F16.7°C 19.2°F-7.1°C 19% 8.9 mph WNW14.3 kmh WNW 12.1 mph19.5 kmh 29.59 in1002.0 mb 0.00 in0.0 mm 0.00 in/hr0.0 mm/hr 0.00 in0.0 mm
06:25 PM 61.9°F16.6°C 19.2°F-7.1°C 19% 10.1 mph W16.3 kmh W 12.1 mph19.5 kmh 29.59 in1002.0 mb 0.00 in0.0 mm 0.00 in/hr0.0 mm/hr 0.00 in0.0 mm
06:24 PM 61.9°F16.6°C 19.2°F-7.1°C 19% 8.9 mph W14.3 kmh W 14.1 mph22.7 kmh 29.59 in1002.0 mb 0.00 in0.0 mm 0.00 in/hr0.0 mm/hr 0.00 in0.0 mm
06:23 PM 61.9°F16.6°C 20.3°F-6.5°C 20% 8.9 mph NW14.3 kmh NW 14.1 mph22.7 kmh 29.59 in1002.0 mb 0.00 in0.0 mm 0.00 in/hr0.0 mm/hr 0.00 in0.0 mm
06:22 PM 61.9°F16.6°C 18.0°F-7.8°C 18% 8.9 mph NW14.3 kmh NW 14.1 mph22.7 kmh 29.59 in1002.0 mb 0.00 in0.0 mm 0.00 in/hr0.0 mm/hr 0.00 in0.0 mm
06:21 PM 61.9°F16.6°C 22.6°F-5.2°C 22% 8.9 mph NW14.3 kmh NW 12.1 mph19.5 kmh 29.59 in1002.0 mb 0.00 in0.0 mm 0.00 in/hr0.0 mm/hr 0.00 in0.0 mm
06:20 PM 61.9°F16.6°C 19.2°F-7.1°C 19% 8.9 mph WNW14.3 kmh WNW 10.1 mph16.3 kmh 29.59 in1002.0 mb 0.00 in0.0 mm 0.00 in/hr0.0 mm/hr 0.00 in0.0 mm
06:19 PM 61.9°F16.6°C 20.3°F-6.5°C 20% 8.9 mph NW14.3 kmh NW 11.0 mph17.7 kmh 29.59 in1002.0 mb 0.00 in0.0 mm 0.00 in/hr0.0 mm/hr 0.00 in0.0 mm
06:18 PM 61.5°F16.4°C 17.6°F-8.0°C 18% 8.9 mph NW14.3 kmh NW 10.1 mph16.3 kmh 29.59 in1002.0 mb 0.00 in0.0 mm 0.00 in/hr0.0 mm/hr 0.00 in0.0 mm
06:17 PM 61.5°F16.4°C 20.1°F-6.6°C 20% 8.9 mph W14.3 kmh W 12.1 mph19.5 kmh 29.59 in1002.0 mb 0.00 in0.0 mm 0.00 in/hr0.0 mm/hr 0.00 in0.0 mm
06:16 PM 61.5°F16.4°C 20.1°F-6.6°C 20% 8.1 mph WNW13.0 kmh WNW 14.1 mph22.7 kmh 29.59 in1002.0 mb 0.00 in0.0 mm 0.00 in/hr0.0 mm/hr 0.00 in0.0 mm
06:15 PM 61.5°F16.4°C 18.9°F-7.3°C 19% 8.1 mph NW13.0 kmh NW 13.0 mph20.9 kmh 29.59 in1002.0 mb 0.00 in0.0 mm 0.00 in/hr0.0 mm/hr 0.00 in0.0 mm
06:14 PM 61.5°F16.4°C 20.1°F-6.6°C 20% 6.9 mph NW11.1 kmh NW 13.0 mph20.9 kmh 29.59 in1002.0 mb 0.00 in0.0 mm 0.00 in/hr0.0 mm/hr 0.00 in0.0 mm
06:13 PM 61.3°F16.3°C 18.7°F-7.4°C 19% 6.9 mph WNW11.1 kmh WNW 13.0 mph20.9 kmh 29.59 in1002.0 mb 0.00 in0.0 mm 0.00 in/hr0.0 mm/hr 0.00 in0.0 mm
06:12 PM 61.2°F16.2°C 16.0°F-8.9°C 17% 6.0 mph WNW9.7 kmh WNW 13.0 mph20.9 kmh 29.59 in1002.0 mb 0.00 in0.0 mm 0.00 in/hr0.0 mm/hr 0.00 in0.0 mm
06:11 PM 61.0°F16.1°C 20.8°F-6.2°C 21% 6.0 mph WNW9.7 kmh WNW 8.1 mph13.0 kmh 29.59 in1002.0 mb 0.00 in0.0 mm 0.00 in/hr0.0 mm/hr 0.00 in0.0 mm
06:10 PM 61.0°F16.1°C 18.5°F-7.5°C 19% 4.9 mph WNW7.9 kmh WNW 10.1 mph16.3 kmh 29.59 in1002.0 mb 0.00 in0.0 mm 0.00 in/hr0.0 mm/hr 0.00 in0.0 mm
06:09 PM 61.0°F16.1°C 17.2°F-8.2°C 18% 4.9 mph NW7.9 kmh NW 8.9 mph14.3 kmh 29.59 in1002.0 mb 0.00 in0.0 mm 0.00 in/hr0.0 mm/hr 0.00 in0.0 mm
06:08 PM 61.2°F16.2°C 20.8°F-6.2°C 21% 4.9 mph NW7.9 kmh NW 8.9 mph14.3 kmh 29.59 in1002.0 mb 0.00 in0.0 mm 0.00 in/hr0.0 mm/hr 0.00 in0.0 mm
06:07 PM 61.2°F16.2°C 17.2°F-8.2°C 18% 4.9 mph WNW7.9 kmh WNW 8.9 mph14.3 kmh 29.59 in1002.0 mb 0.00 in0.0 mm 0.00 in/hr0.0 mm/hr 0.00 in0.0 mm
06:06 PM 61.3°F16.3°C 16.2°F-8.8°C 17% 4.9 mph W7.9 kmh W 8.1 mph13.0 kmh 29.59 in1002.0 mb 0.00 in0.0 mm 0.00 in/hr0.0 mm/hr 0.00 in0.0 mm
06:05 PM 61.3°F16.3°C 18.7°F-7.4°C 19% 4.9 mph W7.9 kmh W 6.9 mph11.1 kmh 29.59 in1002.0 mb 0.00 in0.0 mm 0.00 in/hr0.0 mm/hr 0.00 in0.0 mm
06:04 PM 61.5°F16.4°C 17.6°F-8.0°C 18% 6.0 mph W9.7 kmh W 6.0 mph9.7 kmh 29.59 in1002.0 mb 0.00 in0.0 mm 0.00 in/hr0.0 mm/hr 0.00 in0.0 mm
06:03 PM 61.9°F16.6°C 19.2°F-7.1°C 19% 6.0 mph WNW9.7 kmh WNW 6.0 mph9.7 kmh 29.60 in1002.4 mb 0.00 in0.0 mm 0.00 in/hr0.0 mm/hr 0.00 in0.0 mm
06:02 PM 62.1°F16.7°C 21.7°F-5.7°C 21% 6.0 mph W9.7 kmh W 6.9 mph11.1 kmh 29.60 in1002.4 mb 0.00 in0.0 mm 0.00 in/hr0.0 mm/hr 0.00 in0.0 mm
06:01 PM 62.1°F16.7°C 18.0°F-7.8°C 18% 6.0 mph WNW9.7 kmh WNW 6.0 mph9.7 kmh 29.60 in1002.4 mb 0.00 in0.0 mm 0.00 in/hr0.0 mm/hr 0.00 in0.0 mm
06:00 PM 62.2°F16.8°C 18.1°F-7.7°C 18% 6.0 mph WNW9.7 kmh WNW 8.9 mph14.3 kmh 29.60 in1002.4 mb 0.00 in0.0 mm 0.00 in/hr0.0 mm/hr 0.00 in0.0 mm
05:59 PM 62.4°F16.9°C 18.3°F-7.6°C 18% 6.0 mph W9.7 kmh W 6.9 mph11.1 kmh 29.60 in1002.4 mb 0.00 in0.0 mm 0.00 in/hr0.0 mm/hr 0.00 in0.0 mm
05:58 PM 62.6°F17.0°C 19.8°F-6.8°C 19% 6.9 mph WNW11.1 kmh WNW 8.9 mph14.3 kmh 29.60 in1002.4 mb 0.00 in0.0 mm 0.00 in/hr0.0 mm/hr 0.00 in0.0 mm
05:57 PM 63.0°F17.2°C 17.4°F-8.1°C 17% 6.9 mph WNW11.1 kmh WNW 10.1 mph16.3 kmh 29.60 in1002.4 mb 0.00 in0.0 mm 0.00 in/hr0.0 mm/hr 0.00 in0.0 mm
05:56 PM 63.1°F17.3°C 16.2°F-8.8°C 16% 6.9 mph WNW11.1 kmh WNW 11.0 mph17.7 kmh 29.60 in1002.4 mb 0.00 in0.0 mm 0.00 in/hr0.0 mm/hr 0.00 in0.0 mm
05:55 PM 63.1°F17.3°C 17.6°F-8.0°C 17% 6.9 mph W11.1 kmh W 13.0 mph20.9 kmh 29.60 in1002.4 mb 0.00 in0.0 mm 0.00 in/hr0.0 mm/hr 0.00 in0.0 mm
05:54 PM 63.1°F17.3°C 16.2°F-8.8°C 16% 6.9 mph WNW11.1 kmh WNW 10.1 mph16.3 kmh 29.60 in1002.4 mb 0.00 in0.0 mm 0.00 in/hr0.0 mm/hr 0.00 in0.0 mm
05:53 PM 63.1°F17.3°C 18.9°F-7.3°C 18% 6.9 mph SW11.1 kmh SW 8.1 mph13.0 kmh 29.60 in1002.4 mb 0.00 in0.0 mm 0.00 in/hr0.0 mm/hr 0.00 in0.0 mm
05:52 PM 63.0°F17.2°C 16.0°F-8.9°C 16% 6.9 mph W11.1 kmh W 6.9 mph11.1 kmh 29.60 in1002.4 mb 0.00 in0.0 mm 0.00 in/hr0.0 mm/hr 0.00 in0.0 mm
05:51 PM 62.8°F17.1°C 16.0°F-8.9°C 16% 6.9 mph WNW11.1 kmh WNW 8.9 mph14.3 kmh 29.60 in1002.4 mb 0.00 in0.0 mm 0.00 in/hr0.0 mm/hr 0.00 in0.0 mm
05:50 PM 62.8°F17.1°C 18.7°F-7.4°C 18% 8.1 mph WSW13.0 kmh WSW 13.0 mph20.9 kmh 29.60 in1002.4 mb 0.00 in0.0 mm 0.00 in/hr0.0 mm/hr 0.00 in0.0 mm
05:49 PM 62.6°F17.0°C 18.5°F-7.5°C 18% 8.1 mph W13.0 kmh W 15.0 mph24.1 kmh 29.60 in1002.4 mb 0.00 in0.0 mm 0.00 in/hr0.0 mm/hr 0.00 in0.0 mm
05:48 PM 62.6°F17.0°C 18.5°F-7.5°C 18% 8.1 mph WNW13.0 kmh WNW 8.1 mph13.0 kmh 29.60 in1002.4 mb 0.00 in0.0 mm 0.00 in/hr0.0 mm/hr 0.00 in0.0 mm
05:47 PM 62.4°F16.9°C 18.3°F-7.6°C 18% 8.1 mph WSW13.0 kmh WSW 11.0 mph17.7 kmh 29.60 in1002.4 mb 0.00 in0.0 mm 0.00 in/hr0.0 mm/hr 0.00 in0.0 mm
05:46 PM 62.2°F16.8°C 18.1°F-7.7°C 18% 8.1 mph WNW13.0 kmh WNW 12.1 mph19.5 kmh 29.60 in1002.4 mb 0.00 in0.0 mm 0.00 in/hr0.0 mm/hr 0.00 in0.0 mm
05:45 PM 62.2°F16.8°C 16.9°F-8.4°C 17% 8.1 mph NW13.0 kmh NW 12.1 mph19.5 kmh 29.60 in1002.4 mb 0.00 in0.0 mm 0.00 in/hr0.0 mm/hr 0.00 in0.0 mm
05:44 PM 62.1°F16.7°C 20.5°F-6.4°C 20% 8.1 mph WSW13.0 kmh WSW 8.9 mph14.3 kmh 29.60 in1002.4 mb 0.00 in0.0 mm 0.00 in/hr0.0 mm/hr 0.00 in0.0 mm
05:43 PM 62.1°F16.7°C 19.2°F-7.1°C 19% 6.9 mph WNW11.1 kmh WNW 8.9 mph14.3 kmh 29.60 in1002.4 mb 0.00 in0.0 mm 0.00 in/hr0.0 mm/hr 0.00 in0.0 mm
05:42 PM 62.1°F16.7°C 15.3°F-9.3°C 16% 6.9 mph W11.1 kmh W 10.1 mph16.3 kmh 29.60 in1002.4 mb 0.00 in0.0 mm 0.00 in/hr0.0 mm/hr 0.00 in0.0 mm
05:41 PM 62.2°F16.8°C 16.9°F-8.4°C 17% 6.9 mph WNW11.1 kmh WNW 12.1 mph19.5 kmh 29.60 in1002.4 mb 0.00 in0.0 mm 0.00 in/hr0.0 mm/hr 0.00 in0.0 mm
05:40 PM 62.2°F16.8°C 16.9°F-8.4°C 17% 6.9 mph W11.1 kmh W 11.0 mph17.7 kmh 29.60 in1002.4 mb 0.00 in0.0 mm 0.00 in/hr0.0 mm/hr 0.00 in0.0 mm
05:39 PM 62.4°F16.9°C 17.1°F-8.3°C 17% 6.0 mph WNW9.7 kmh WNW 11.0 mph17.7 kmh 29.60 in1002.4 mb 0.00 in0.0 mm 0.00 in/hr0.0 mm/hr 0.00 in0.0 mm
05:38 PM 62.4°F16.9°C 17.1°F-8.3°C 17% 6.0 mph NW9.7 kmh NW 11.0 mph17.7 kmh 29.60 in1002.4 mb 0.00 in0.0 mm 0.00 in/hr0.0 mm/hr 0.00 in0.0 mm
05:37 PM 62.6°F17.0°C 17.2°F-8.2°C 17% 6.0 mph WSW9.7 kmh WSW 12.1 mph19.5 kmh 29.60 in1002.4 mb 0.00 in0.0 mm 0.00 in/hr0.0 mm/hr 0.00 in0.0 mm
05:36 PM 63.0°F17.2°C 20.1°F-6.6°C 19% 6.0 mph WNW9.7 kmh WNW 12.1 mph19.5 kmh 29.60 in1002.4 mb 0.00 in0.0 mm 0.00 in/hr0.0 mm/hr 0.00 in0.0 mm
05:35 PM 63.1°F17.3°C 18.9°F-7.3°C 18% 6.0 mph WNW9.7 kmh WNW 8.9 mph14.3 kmh 29.60 in1002.4 mb 0.00 in0.0 mm 0.00 in/hr0.0 mm/hr 0.00 in0.0 mm
05:34 PM 63.1°F17.3°C 18.9°F-7.3°C 18% 6.9 mph W11.1 kmh W 10.1 mph16.3 kmh 29.61 in1002.7 mb 0.00 in0.0 mm 0.00 in/hr0.0 mm/hr 0.00 in0.0 mm
05:33 PM 63.1°F17.3°C 16.2°F-8.8°C 16% 6.9 mph W11.1 kmh W 10.1 mph16.3 kmh 29.61 in1002.7 mb 0.00 in0.0 mm 0.00 in/hr0.0 mm/hr 0.00 in0.0 mm
05:32 PM 63.1°F17.3°C 16.2°F-8.8°C 16% 6.9 mph WSW11.1 kmh WSW 11.0 mph17.7 kmh 29.61 in1002.7 mb 0.00 in0.0 mm 0.00 in/hr0.0 mm/hr 0.00 in0.0 mm
05:31 PM 63.3°F17.4°C 16.3°F-8.7°C 16% 8.1 mph WSW13.0 kmh WSW 10.1 mph16.3 kmh 29.61 in1002.7 mb 0.00 in0.0 mm 0.00 in/hr0.0 mm/hr 0.00 in0.0 mm
05:30 PM 63.3°F17.4°C 21.6°F-5.8°C 20% 8.1 mph WSW13.0 kmh WSW 8.1 mph13.0 kmh 29.61 in1002.7 mb 0.00 in0.0 mm 0.00 in/hr0.0 mm/hr 0.00 in0.0 mm
05:29 PM 63.3°F17.4°C 20.3°F-6.5°C 19% 8.1 mph WNW13.0 kmh WNW 6.0 mph9.7 kmh 29.61 in1002.7 mb 0.00 in0.0 mm 0.00 in/hr0.0 mm/hr 0.00 in0.0 mm
05:28 PM 63.3°F17.4°C 20.3°F-6.5°C 19% 8.1 mph NW13.0 kmh NW 10.1 mph16.3 kmh 29.61 in1002.7 mb 0.00 in0.0 mm 0.00 in/hr0.0 mm/hr 0.00 in0.0 mm
05:26 PM 63.3°F17.4°C 19.0°F-7.2°C 18% 8.1 mph NW13.0 kmh NW 11.0 mph17.7 kmh 29.61 in1002.7 mb 0.00 in0.0 mm 0.00 in/hr0.0 mm/hr 0.00 in0.0 mm
05:25 PM 63.5°F17.5°C 20.5°F-6.4°C 19% 8.1 mph NW13.0 kmh NW 11.0 mph17.7 kmh 29.61 in1002.7 mb 0.00 in0.0 mm 0.00 in/hr0.0 mm/hr 0.00 in0.0 mm
05:24 PM 63.5°F17.5°C 20.5°F-6.4°C 19% 8.1 mph WNW13.0 kmh WNW 11.0 mph17.7 kmh 29.61 in1002.7 mb 0.00 in0.0 mm 0.00 in/hr0.0 mm/hr 0.00 in0.0 mm
05:23 PM 63.7°F17.6°C 19.4°F-7.0°C 18% 6.9 mph WNW11.1 kmh WNW 11.0 mph17.7 kmh 29.61 in1002.7 mb 0.00 in0.0 mm 0.00 in/hr0.0 mm/hr 0.00 in0.0 mm
05:22 PM 63.7°F17.6°C 16.7°F-8.5°C 16% 6.9 mph WNW11.1 kmh WNW 11.0 mph17.7 kmh 29.61 in1002.7 mb 0.00 in0.0 mm 0.00 in/hr0.0 mm/hr 0.00 in0.0 mm
05:21 PM 63.7°F17.6°C 18.0°F-7.8°C 17% 6.9 mph WSW11.1 kmh WSW 14.1 mph22.7 kmh 29.61 in1002.7 mb 0.00 in0.0 mm 0.00 in/hr0.0 mm/hr 0.00 in0.0 mm
05:20 PM 63.9°F17.7°C 16.7°F-8.5°C 16% 6.9 mph W11.1 kmh W 17.0 mph27.4 kmh 29.61 in1002.7 mb 0.00 in0.0 mm 0.00 in/hr0.0 mm/hr 0.00 in0.0 mm
05:19 PM 63.9°F17.7°C 18.1°F-7.7°C 17% 6.0 mph WNW9.7 kmh WNW 17.0 mph27.4 kmh 29.61 in1002.7 mb 0.00 in0.0 mm 0.00 in/hr0.0 mm/hr 0.00 in0.0 mm
05:18 PM 63.9°F17.7°C 18.1°F-7.7°C 17% 6.0 mph W9.7 kmh W 8.1 mph13.0 kmh 29.61 in1002.7 mb 0.00 in0.0 mm 0.00 in/hr0.0 mm/hr 0.00 in0.0 mm
05:17 PM 63.7°F17.6°C 20.7°F-6.3°C 19% 6.0 mph W9.7 kmh W 6.9 mph11.1 kmh 29.61 in1002.7 mb 0.00 in0.0 mm 0.00 in/hr0.0 mm/hr 0.00 in0.0 mm
05:16 PM 63.7°F17.6°C 23.0°F-5.0°C 21% 6.0 mph W9.7 kmh W 8.1 mph13.0 kmh 29.61 in1002.7 mb 0.00 in0.0 mm 0.00 in/hr0.0 mm/hr 0.00 in0.0 mm
05:15 PM 63.7°F17.6°C 25.2°F-3.8°C 23% 6.0 mph WNW9.7 kmh WNW 8.1 mph13.0 kmh 29.61 in1002.7 mb 0.00 in0.0 mm 0.00 in/hr0.0 mm/hr 0.00 in0.0 mm
05:14 PM 63.7°F17.6°C 21.9°F-5.6°C 20% 6.0 mph NW9.7 kmh NW 6.9 mph11.1 kmh 29.61 in1002.7 mb 0.00 in0.0 mm 0.00 in/hr0.0 mm/hr 0.00 in0.0 mm
05:13 PM 63.7°F17.6°C 18.0°F-7.8°C 17% 6.0 mph NW9.7 kmh NW 10.1 mph16.3 kmh 29.61 in1002.7 mb 0.00 in0.0 mm 0.00 in/hr0.0 mm/hr 0.00 in0.0 mm
05:12 PM 63.9°F17.7°C 18.1°F-7.7°C 17% 4.9 mph NW7.9 kmh NW 8.1 mph13.0 kmh 29.61 in1002.7 mb 0.00 in0.0 mm 0.00 in/hr0.0 mm/hr 0.00 in0.0 mm
05:11 PM 63.9°F17.7°C 20.8°F-6.2°C 19% 4.9 mph NW7.9 kmh NW 8.9 mph14.3 kmh 29.61 in1002.7 mb 0.00 in0.0 mm 0.00 in/hr0.0 mm/hr 0.00 in0.0 mm
05:10 PM 64.0°F17.8°C 21.0°F-6.1°C 19% 4.9 mph NW7.9 kmh NW 10.1 mph16.3 kmh 29.61 in1002.7 mb 0.00 in0.0 mm 0.00 in/hr0.0 mm/hr 0.00 in0.0 mm
05:09 PM 64.0°F17.8°C 22.1°F-5.5°C 20% 4.9 mph NW7.9 kmh NW 8.9 mph14.3 kmh 29.61 in1002.7 mb 0.00 in0.0 mm 0.00 in/hr0.0 mm/hr 0.00 in0.0 mm
05:08 PM 64.0°F17.8°C 24.4°F-4.2°C 22% 6.0 mph WNW9.7 kmh WNW 8.9 mph14.3 kmh 29.61 in1002.7 mb 0.00 in0.0 mm 0.00 in/hr0.0 mm/hr 0.00 in0.0 mm
05:07 PM 63.9°F17.7°C 20.8°F-6.2°C 19% 6.0 mph WSW9.7 kmh WSW 8.9 mph14.3 kmh 29.61 in1002.7 mb 0.00 in0.0 mm 0.00 in/hr0.0 mm/hr 0.00 in0.0 mm
05:06 PM 63.7°F17.6°C 20.7°F-6.3°C 19% 6.0 mph WSW9.7 kmh WSW 6.9 mph11.1 kmh 29.61 in1002.7 mb 0.00 in0.0 mm 0.00 in/hr0.0 mm/hr 0.00 in0.0 mm
05:05 PM 63.5°F17.5°C 19.2°F-7.1°C 18% 6.9 mph WSW11.1 kmh WSW 4.9 mph7.9 kmh 29.61 in1002.7 mb 0.00 in0.0 mm 0.00 in/hr0.0 mm/hr 0.00 in0.0 mm
05:04 PM 63.5°F17.5°C 16.5°F-8.6°C 16% 6.9 mph WSW11.1 kmh WSW 6.9 mph11.1 kmh 29.61 in1002.7 mb 0.00 in0.0 mm 0.00 in/hr0.0 mm/hr 0.00 in0.0 mm
05:03 PM 63.5°F17.5°C 16.5°F-8.6°C 16% 8.1 mph WSW13.0 kmh WSW 6.0 mph9.7 kmh 29.62 in1003.0 mb 0.00 in0.0 mm 0.00 in/hr0.0 mm/hr 0.00 in0.0 mm
05:02 PM 63.3°F17.4°C 19.0°F-7.2°C 18% 8.1 mph WSW13.0 kmh WSW 8.9 mph14.3 kmh 29.62 in1003.0 mb 0.00 in0.0 mm 0.00 in/hr0.0 mm/hr 0.00 in0.0 mm
05:01 PM 63.3°F17.4°C 16.3°F-8.7°C 16% 8.1 mph SW13.0 kmh SW 12.1 mph19.5 kmh 29.62 in1003.0 mb 0.00 in0.0 mm 0.00 in/hr0.0 mm/hr 0.00 in0.0 mm
05:00 PM 63.3°F17.4°C 19.0°F-7.2°C 18% 8.1 mph W13.0 kmh W 12.1 mph19.5 kmh 29.62 in1003.0 mb 0.00 in0.0 mm 0.00 in/hr0.0 mm/hr 0.00 in0.0 mm
04:59 PM 63.3°F17.4°C 20.3°F-6.5°C 19% 8.1 mph W13.0 kmh W 10.1 mph16.3 kmh 29.62 in1003.0 mb 0.00 in0.0 mm 0.00 in/hr0.0 mm/hr 0.00 in0.0 mm
04:58 PM 63.3°F17.4°C 17.8°F-7.9°C 17% 8.1 mph WSW13.0 kmh WSW 12.1 mph19.5 kmh 29.62 in1003.0 mb 0.00 in0.0 mm 0.00 in/hr0.0 mm/hr 0.00 in0.0 mm
04:57 PM 63.3°F17.4°C 20.3°F-6.5°C 19% 6.9 mph WSW11.1 kmh WSW 14.1 mph22.7 kmh 29.62 in1003.0 mb 0.00 in0.0 mm 0.00 in/hr0.0 mm/hr 0.00 in0.0 mm
04:56 PM 63.5°F17.5°C 20.5°F-6.4°C 19% 6.9 mph WNW11.1 kmh WNW 13.0 mph20.9 kmh 29.62 in1003.0 mb 0.00 in0.0 mm 0.00 in/hr0.0 mm/hr 0.00 in0.0 mm
04:55 PM 63.5°F17.5°C 21.7°F-5.7°C 20% 6.9 mph WNW11.1 kmh WNW 10.1 mph16.3 kmh 29.62 in1003.0 mb 0.00 in0.0 mm 0.00 in/hr0.0 mm/hr 0.00 in0.0 mm
04:54 PM 63.5°F17.5°C 22.8°F-5.1°C 21% 6.9 mph NW11.1 kmh NW 8.9 mph14.3 kmh 29.62 in1003.0 mb 0.00 in0.0 mm 0.00 in/hr0.0 mm/hr 0.00 in0.0 mm
04:53 PM 63.7°F17.6°C 18.0°F-7.8°C 17% 6.9 mph NW11.1 kmh NW 10.1 mph16.3 kmh 29.62 in1003.0 mb 0.00 in0.0 mm 0.00 in/hr0.0 mm/hr 0.00 in0.0 mm
04:52 PM 63.7°F17.6°C 19.4°F-7.0°C 18% 6.0 mph NW9.7 kmh NW 10.1 mph16.3 kmh 29.62 in1003.0 mb 0.00 in0.0 mm 0.00 in/hr0.0 mm/hr 0.00 in0.0 mm
04:51 PM 63.9°F17.7°C 19.6°F-6.9°C 18% 6.9 mph NW11.1 kmh NW 11.0 mph17.7 kmh 29.62 in1003.0 mb 0.00 in0.0 mm 0.00 in/hr0.0 mm/hr 0.00 in0.0 mm
04:50 PM 63.9°F17.7°C 18.1°F-7.7°C 17% 6.9 mph W11.1 kmh W 8.1 mph13.0 kmh 29.62 in1003.0 mb 0.00 in0.0 mm 0.00 in/hr0.0 mm/hr 0.00 in0.0 mm
04:49 PM 63.9°F17.7°C 19.6°F-6.9°C 18% 6.9 mph WSW11.1 kmh WSW 8.1 mph13.0 kmh 29.62 in1003.0 mb 0.00 in0.0 mm 0.00 in/hr0.0 mm/hr 0.00 in0.0 mm
04:48 PM 63.9°F17.7°C 20.8°F-6.2°C 19% 6.0 mph W9.7 kmh W 8.9 mph14.3 kmh 29.63 in1003.4 mb 0.00 in0.0 mm 0.00 in/hr0.0 mm/hr 0.00 in0.0 mm
04:47 PM 63.9°F17.7°C 18.1°F-7.7°C 17% 6.0 mph SW9.7 kmh SW 8.9 mph14.3 kmh 29.63 in1003.4 mb 0.00 in0.0 mm 0.00 in/hr0.0 mm/hr 0.00 in0.0 mm
04:46 PM 63.9°F17.7°C 23.2°F-4.9°C 21% 6.0 mph W9.7 kmh W 8.1 mph13.0 kmh 29.63 in1003.4 mb 0.00 in0.0 mm 0.00 in/hr0.0 mm/hr 0.00 in0.0 mm
04:45 PM 63.9°F17.7°C 18.1°F-7.7°C 17% 6.0 mph WNW9.7 kmh WNW 8.1 mph13.0 kmh 29.63 in1003.4 mb 0.00 in0.0 mm 0.00 in/hr0.0 mm/hr 0.00 in0.0 mm
04:44 PM 63.9°F17.7°C 19.6°F-6.9°C 18% 4.9 mph W7.9 kmh W 10.1 mph16.3 kmh 29.63 in1003.4 mb 0.00 in0.0 mm 0.00 in/hr0.0 mm/hr 0.00 in0.0 mm
04:43 PM 64.0°F17.8°C 16.9°F-8.4°C 16% 4.9 mph NW7.9 kmh NW 8.9 mph14.3 kmh 29.63 in1003.4 mb 0.00 in0.0 mm 0.00 in/hr0.0 mm/hr 0.00 in0.0 mm
04:42 PM 64.0°F17.8°C 18.3°F-7.6°C 17% 6.0 mph NW9.7 kmh NW 10.1 mph16.3 kmh 29.63 in1003.4 mb 0.00 in0.0 mm 0.00 in/hr0.0 mm/hr 0.00 in0.0 mm
04:41 PM 64.0°F17.8°C 21.0°F-6.1°C 19% 6.0 mph WNW9.7 kmh WNW 10.1 mph16.3 kmh 29.63 in1003.4 mb 0.00 in0.0 mm 0.00 in/hr0.0 mm/hr 0.00 in0.0 mm
04:40 PM 64.0°F17.8°C 22.1°F-5.5°C 20% 6.0 mph WNW9.7 kmh WNW 8.1 mph13.0 kmh 29.63 in1003.4 mb 0.00 in0.0 mm 0.00 in/hr0.0 mm/hr 0.00 in0.0 mm
04:39 PM 63.9°F17.7°C 19.6°F-6.9°C 18% 6.9 mph WSW11.1 kmh WSW 4.9 mph7.9 kmh 29.63 in1003.4 mb 0.00 in0.0 mm 0.00 in/hr0.0 mm/hr 0.00 in0.0 mm
04:37 PM 63.7°F17.6°C 21.9°F-5.6°C 20% 6.9 mph SW11.1 kmh SW 6.0 mph9.7 kmh 29.63 in1003.4 mb 0.00 in0.0 mm 0.00 in/hr0.0 mm/hr 0.00 in0.0 mm
04:36 PM 63.7°F17.6°C 19.4°F-7.0°C 18% 8.1 mph WSW13.0 kmh WSW 6.9 mph11.1 kmh 29.63 in1003.4 mb 0.00 in0.0 mm 0.00 in/hr0.0 mm/hr 0.00 in0.0 mm
04:35 PM 63.7°F17.6°C 18.0°F-7.8°C 17% 8.9 mph SSW14.3 kmh SSW 8.9 mph14.3 kmh 29.63 in1003.4 mb 0.00 in0.0 mm 0.00 in/hr0.0 mm/hr 0.00 in0.0 mm
04:34 PM 63.7°F17.6°C 19.4°F-7.0°C 18% 8.9 mph SW14.3 kmh SW 8.9 mph14.3 kmh 29.63 in1003.4 mb 0.00 in0.0 mm 0.00 in/hr0.0 mm/hr 0.00 in0.0 mm
04:33 PM 63.7°F17.6°C 19.4°F-7.0°C 18% 10.1 mph WSW16.3 kmh WSW 12.1 mph19.5 kmh 29.64 in1003.7 mb 0.00 in0.0 mm 0.00 in/hr0.0 mm/hr 0.00 in0.0 mm
04:32 PM 63.5°F17.5°C 21.7°F-5.7°C 20% 8.9 mph SW14.3 kmh SW 13.0 mph20.9 kmh 29.64 in1003.7 mb 0.00 in0.0 mm 0.00 in/hr0.0 mm/hr 0.00 in0.0 mm
04:31 PM 63.5°F17.5°C 18.0°F-7.8°C 17% 8.9 mph SW14.3 kmh SW 14.1 mph22.7 kmh 29.64 in1003.7 mb 0.00 in0.0 mm 0.00 in/hr0.0 mm/hr 0.00 in0.0 mm
04:30 PM 63.5°F17.5°C 18.0°F-7.8°C 17% 8.9 mph W14.3 kmh W 15.0 mph24.1 kmh 29.64 in1003.7 mb 0.00 in0.0 mm 0.00 in/hr0.0 mm/hr 0.00 in0.0 mm
04:29 PM 63.5°F17.5°C 16.5°F-8.6°C 16% 8.9 mph SSW14.3 kmh SSW 12.1 mph19.5 kmh 29.64 in1003.7 mb 0.00 in0.0 mm 0.00 in/hr0.0 mm/hr 0.00 in0.0 mm
04:28 PM 63.7°F17.6°C 20.7°F-6.3°C 19% 8.1 mph SW13.0 kmh SW 15.0 mph24.1 kmh 29.64 in1003.7 mb 0.00 in0.0 mm 0.00 in/hr0.0 mm/hr 0.00 in0.0 mm
04:27 PM 63.7°F17.6°C 19.4°F-7.0°C 18% 8.1 mph SW13.0 kmh SW 14.1 mph22.7 kmh 29.64 in1003.7 mb 0.00 in0.0 mm 0.00 in/hr0.0 mm/hr 0.00 in0.0 mm
04:26 PM 63.9°F17.7°C 20.8°F-6.2°C 19% 6.9 mph SW11.1 kmh SW 16.1 mph25.9 kmh 29.64 in1003.7 mb 0.00 in0.0 mm 0.00 in/hr0.0 mm/hr 0.00 in0.0 mm
04:25 PM 64.2°F17.9°C 18.5°F-7.5°C 17% 6.9 mph SSW11.1 kmh SSW 15.0 mph24.1 kmh 29.64 in1003.7 mb 0.00 in0.0 mm 0.00 in/hr0.0 mm/hr 0.00 in0.0 mm
04:24 PM 64.2°F17.9°C 19.8°F-6.8°C 18% 6.9 mph SW11.1 kmh SW 15.0 mph24.1 kmh 29.64 in1003.7 mb 0.00 in0.0 mm 0.00 in/hr0.0 mm/hr 0.00 in0.0 mm
04:23 PM 64.2°F17.9°C 18.5°F-7.5°C 17% 6.9 mph SSW11.1 kmh SSW 12.1 mph19.5 kmh 29.64 in1003.7 mb 0.00 in0.0 mm 0.00 in/hr0.0 mm/hr 0.00 in0.0 mm
04:22 PM 64.2°F17.9°C 17.1°F-8.3°C 16% 6.9 mph WSW11.1 kmh WSW 12.1 mph19.5 kmh 29.64 in1003.7 mb 0.00 in0.0 mm 0.00 in/hr0.0 mm/hr 0.00 in0.0 mm
04:21 PM 64.2°F17.9°C 19.8°F-6.8°C 18% 6.0 mph WNW9.7 kmh WNW 8.9 mph14.3 kmh 29.64 in1003.7 mb 0.00 in0.0 mm 0.00 in/hr0.0 mm/hr 0.00 in0.0 mm
04:20 PM 64.2°F17.9°C 19.8°F-6.8°C 18% 6.0 mph WSW9.7 kmh WSW 8.9 mph14.3 kmh 29.64 in1003.7 mb 0.00 in0.0 mm 0.00 in/hr0.0 mm/hr 0.00 in0.0 mm
04:19 PM 64.2°F17.9°C 24.6°F-4.1°C 22% 6.0 mph SW9.7 kmh SW 6.9 mph11.1 kmh 29.64 in1003.7 mb 0.00 in0.0 mm 0.00 in/hr0.0 mm/hr 0.00 in0.0 mm
04:18 PM 64.2°F17.9°C 21.0°F-6.1°C 19% 6.0 mph WNW9.7 kmh WNW 11.0 mph17.7 kmh 29.65 in1004.1 mb 0.00 in0.0 mm 0.00 in/hr0.0 mm/hr 0.00 in0.0 mm
04:17 PM 64.2°F17.9°C 22.3°F-5.4°C 20% 6.0 mph WNW9.7 kmh WNW 11.0 mph17.7 kmh 29.65 in1004.1 mb 0.00 in0.0 mm 0.00 in/hr0.0 mm/hr 0.00 in0.0 mm
04:16 PM 64.2°F17.9°C 17.1°F-8.3°C 16% 6.0 mph W9.7 kmh W 6.9 mph11.1 kmh 29.65 in1004.1 mb 0.00 in0.0 mm 0.00 in/hr0.0 mm/hr 0.00 in0.0 mm
04:15 PM 64.2°F17.9°C 17.1°F-8.3°C 16% 6.0 mph W9.7 kmh W 11.0 mph17.7 kmh 29.65 in1004.1 mb 0.00 in0.0 mm 0.00 in/hr0.0 mm/hr 0.00 in0.0 mm
04:14 PM 64.2°F17.9°C 21.0°F-6.1°C 19% 6.0 mph WSW9.7 kmh WSW 13.0 mph20.9 kmh 29.65 in1004.1 mb 0.00 in0.0 mm 0.00 in/hr0.0 mm/hr 0.00 in0.0 mm
04:13 PM 64.2°F17.9°C 19.8°F-6.8°C 18% 6.0 mph WNW9.7 kmh WNW 15.0 mph24.1 kmh 29.65 in1004.1 mb 0.00 in0.0 mm 0.00 in/hr0.0 mm/hr 0.00 in0.0 mm
04:12 PM 64.2°F17.9°C 22.3°F-5.4°C 20% 6.0 mph W9.7 kmh W 12.1 mph19.5 kmh 29.65 in1004.1 mb 0.00 in0.0 mm 0.00 in/hr0.0 mm/hr 0.00 in0.0 mm
04:11 PM 64.2°F17.9°C 19.8°F-6.8°C 18% 6.0 mph NW9.7 kmh NW 6.9 mph11.1 kmh 29.65 in1004.1 mb 0.00 in0.0 mm 0.00 in/hr0.0 mm/hr 0.00 in0.0 mm
04:10 PM 64.2°F17.9°C 24.6°F-4.1°C 22% 6.0 mph WNW9.7 kmh WNW 6.9 mph11.1 kmh 29.65 in1004.1 mb 0.00 in0.0 mm 0.00 in/hr0.0 mm/hr 0.00 in0.0 mm
04:09 PM 64.2°F17.9°C 21.0°F-6.1°C 19% 6.0 mph SSW9.7 kmh SSW 8.9 mph14.3 kmh 29.65 in1004.1 mb 0.00 in0.0 mm 0.00 in/hr0.0 mm/hr 0.00 in0.0 mm
04:08 PM 64.2°F17.9°C 21.0°F-6.1°C 19% 6.0 mph SSW9.7 kmh SSW 12.1 mph19.5 kmh 29.65 in1004.1 mb 0.00 in0.0 mm 0.00 in/hr0.0 mm/hr 0.00 in0.0 mm
04:07 PM 64.2°F17.9°C 19.8°F-6.8°C 18% 6.0 mph SSW9.7 kmh SSW 10.1 mph16.3 kmh 29.65 in1004.1 mb 0.00 in0.0 mm 0.00 in/hr0.0 mm/hr 0.00 in0.0 mm
04:06 PM 64.2°F17.9°C 19.8°F-6.8°C 18% 6.0 mph WSW9.7 kmh WSW 6.9 mph11.1 kmh 29.65 in1004.1 mb 0.00 in0.0 mm 0.00 in/hr0.0 mm/hr 0.00 in0.0 mm
04:05 PM 64.0°F17.8°C 18.3°F-7.6°C 17% 6.9 mph WSW11.1 kmh WSW 8.9 mph14.3 kmh 29.65 in1004.1 mb 0.00 in0.0 mm 0.00 in/hr0.0 mm/hr 0.00 in0.0 mm
04:04 PM 64.2°F17.9°C 18.5°F-7.5°C 17% 8.1 mph WSW13.0 kmh WSW 8.9 mph14.3 kmh 29.65 in1004.1 mb 0.00 in0.0 mm 0.00 in/hr0.0 mm/hr 0.00 in0.0 mm
04:03 PM 64.2°F17.9°C 15.6°F-9.1°C 15% 8.1 mph WSW13.0 kmh WSW 14.1 mph22.7 kmh 29.66 in1004.4 mb 0.00 in0.0 mm 0.00 in/hr0.0 mm/hr 0.00 in0.0 mm
04:02 PM 64.2°F17.9°C 17.1°F-8.3°C 16% 8.9 mph WSW14.3 kmh WSW 8.1 mph13.0 kmh 29.66 in1004.4 mb 0.00 in0.0 mm 0.00 in/hr0.0 mm/hr 0.00 in0.0 mm
04:01 PM 64.2°F17.9°C 17.1°F-8.3°C 16% 8.9 mph WNW14.3 kmh WNW 11.0 mph17.7 kmh 29.66 in1004.4 mb 0.00 in0.0 mm 0.00 in/hr0.0 mm/hr 0.00 in0.0 mm
04:00 PM 64.2°F17.9°C 17.1°F-8.3°C 16% 8.9 mph WNW14.3 kmh WNW 11.0 mph17.7 kmh 29.66 in1004.4 mb 0.00 in0.0 mm 0.00 in/hr0.0 mm/hr 0.00 in0.0 mm
03:59 PM 64.2°F17.9°C 18.5°F-7.5°C 17% 8.9 mph WSW14.3 kmh WSW 10.1 mph16.3 kmh 29.66 in1004.4 mb 0.00 in0.0 mm 0.00 in/hr0.0 mm/hr 0.00 in0.0 mm
03:58 PM 64.2°F17.9°C 17.1°F-8.3°C 16% 8.9 mph WNW14.3 kmh WNW 10.1 mph16.3 kmh 29.66 in1004.4 mb 0.00 in0.0 mm 0.00 in/hr0.0 mm/hr 0.00 in0.0 mm
03:57 PM 64.2°F17.9°C 18.5°F-7.5°C 17% 8.9 mph W14.3 kmh W 10.1 mph16.3 kmh 29.66 in1004.4 mb 0.00 in0.0 mm 0.00 in/hr0.0 mm/hr 0.00 in0.0 mm
03:56 PM 64.2°F17.9°C 18.5°F-7.5°C 17% 8.9 mph WNW14.3 kmh WNW 19.0 mph30.6 kmh 29.66 in1004.4 mb 0.00 in0.0 mm 0.00 in/hr0.0 mm/hr 0.00 in0.0 mm
03:55 PM 64.2°F17.9°C 18.5°F-7.5°C 17% 8.9 mph SSW14.3 kmh SSW 17.9 mph28.8 kmh 29.66 in1004.4 mb 0.00 in0.0 mm 0.00 in/hr0.0 mm/hr 0.00 in0.0 mm
03:54 PM 64.2°F17.9°C 21.0°F-6.1°C 19% 8.9 mph SSW14.3 kmh SSW 16.1 mph25.9 kmh 29.66 in1004.4 mb 0.00 in0.0 mm 0.00 in/hr0.0 mm/hr 0.00 in0.0 mm
03:53 PM 64.2°F17.9°C 19.8°F-6.8°C 18% 8.1 mph SSW13.0 kmh SSW 11.0 mph17.7 kmh 29.66 in1004.4 mb 0.00 in0.0 mm 0.00 in/hr0.0 mm/hr 0.00 in0.0 mm
03:52 PM 64.6°F18.1°C 18.9°F-7.3°C 17% 8.1 mph W13.0 kmh W 8.9 mph14.3 kmh 29.66 in1004.4 mb 0.00 in0.0 mm 0.00 in/hr0.0 mm/hr 0.00 in0.0 mm
03:51 PM 64.6°F18.1°C 21.4°F-5.9°C 19% 8.1 mph W13.0 kmh W 13.0 mph20.9 kmh 29.66 in1004.4 mb 0.00 in0.0 mm 0.00 in/hr0.0 mm/hr 0.00 in0.0 mm
03:50 PM 64.6°F18.1°C 21.4°F-5.9°C 19% 8.1 mph SW13.0 kmh SW 15.0 mph24.1 kmh 29.66 in1004.4 mb 0.00 in0.0 mm 0.00 in/hr0.0 mm/hr 0.00 in0.0 mm
03:49 PM 64.6°F18.1°C 17.4°F-8.1°C 16% 8.1 mph S13.0 kmh S 8.9 mph14.3 kmh 29.66 in1004.4 mb 0.00 in0.0 mm 0.00 in/hr0.0 mm/hr 0.00 in0.0 mm
03:48 PM 64.6°F18.1°C 18.9°F-7.3°C 17% 8.1 mph WSW13.0 kmh WSW 11.0 mph17.7 kmh 29.67 in1004.7 mb 0.00 in0.0 mm 0.00 in/hr0.0 mm/hr 0.00 in0.0 mm
03:47 PM 64.6°F18.1°C 17.4°F-8.1°C 16% 8.9 mph WSW14.3 kmh WSW 11.0 mph17.7 kmh 29.67 in1004.7 mb 0.00 in0.0 mm 0.00 in/hr0.0 mm/hr 0.00 in0.0 mm
03:46 PM 64.6°F18.1°C 18.9°F-7.3°C 17% 8.9 mph W14.3 kmh W 11.0 mph17.7 kmh 29.67 in1004.7 mb 0.00 in0.0 mm 0.00 in/hr0.0 mm/hr 0.00 in0.0 mm
03:45 PM 64.6°F18.1°C 18.9°F-7.3°C 17% 8.9 mph WSW14.3 kmh WSW 15.0 mph24.1 kmh 29.67 in1004.7 mb 0.00 in0.0 mm 0.00 in/hr0.0 mm/hr 0.00 in0.0 mm
03:44 PM 64.6°F18.1°C 21.4°F-5.9°C 19% 8.9 mph WSW14.3 kmh WSW 15.0 mph24.1 kmh 29.67 in1004.7 mb 0.00 in0.0 mm 0.00 in/hr0.0 mm/hr 0.00 in0.0 mm
03:43 PM 64.2°F17.9°C 21.0°F-6.1°C 19% 8.9 mph W14.3 kmh W 11.0 mph17.7 kmh 29.67 in1004.7 mb 0.00 in0.0 mm 0.00 in/hr0.0 mm/hr 0.00 in0.0 mm
03:42 PM 64.2°F17.9°C 22.3°F-5.4°C 20% 8.9 mph WSW14.3 kmh WSW 6.9 mph11.1 kmh 29.67 in1004.7 mb 0.00 in0.0 mm 0.00 in/hr0.0 mm/hr 0.00 in0.0 mm
03:41 PM 64.0°F17.8°C 18.3°F-7.6°C 17% 10.1 mph WSW16.3 kmh WSW 10.1 mph16.3 kmh 29.67 in1004.7 mb 0.00 in0.0 mm 0.00 in/hr0.0 mm/hr 0.00 in0.0 mm
03:40 PM 64.0°F17.8°C 21.0°F-6.1°C 19% 10.1 mph WSW16.3 kmh WSW 13.0 mph20.9 kmh 29.67 in1004.7 mb 0.00 in0.0 mm 0.00 in/hr0.0 mm/hr 0.00 in0.0 mm
03:39 PM 64.0°F17.8°C 19.6°F-6.9°C 18% 11.0 mph WSW17.7 kmh WSW 13.0 mph20.9 kmh 29.67 in1004.7 mb 0.00 in0.0 mm 0.00 in/hr0.0 mm/hr 0.00 in0.0 mm
03:38 PM 63.9°F17.7°C 19.6°F-6.9°C 18% 11.0 mph SSW17.7 kmh SSW 21.0 mph33.8 kmh 29.67 in1004.7 mb 0.00 in0.0 mm 0.00 in/hr0.0 mm/hr 0.00 in0.0 mm
03:37 PM 63.9°F17.7°C 19.6°F-6.9°C 18% 10.1 mph SW16.3 kmh SW 13.0 mph20.9 kmh 29.67 in1004.7 mb 0.00 in0.0 mm 0.00 in/hr0.0 mm/hr 0.00 in0.0 mm
03:36 PM 63.7°F17.6°C 18.0°F-7.8°C 17% 10.1 mph SW16.3 kmh SW 13.0 mph20.9 kmh 29.67 in1004.7 mb 0.00 in0.0 mm 0.00 in/hr0.0 mm/hr 0.00 in0.0 mm
03:35 PM 63.7°F17.6°C 16.7°F-8.5°C 16% 10.1 mph W16.3 kmh W 13.0 mph20.9 kmh 29.67 in1004.7 mb 0.00 in0.0 mm 0.00 in/hr0.0 mm/hr 0.00 in0.0 mm
03:34 PM 63.7°F17.6°C 18.0°F-7.8°C 17% 10.1 mph SW16.3 kmh SW 13.0 mph20.9 kmh 29.67 in1004.7 mb 0.00 in0.0 mm 0.00 in/hr0.0 mm/hr 0.00 in0.0 mm
03:33 PM 63.5°F17.5°C 18.0°F-7.8°C 17% 10.1 mph SW16.3 kmh SW 17.9 mph28.8 kmh 29.68 in1005.1 mb 0.00 in0.0 mm 0.00 in/hr0.0 mm/hr 0.00 in0.0 mm
03:32 PM 63.5°F17.5°C 20.5°F-6.4°C 19% 8.9 mph WNW14.3 kmh WNW 17.9 mph28.8 kmh 29.68 in1005.1 mb 0.00 in0.0 mm 0.00 in/hr0.0 mm/hr 0.00 in0.0 mm
03:31 PM 63.3°F17.4°C 22.6°F-5.2°C 21% 8.9 mph W14.3 kmh W 15.0 mph24.1 kmh 29.68 in1005.1 mb 0.00 in0.0 mm 0.00 in/hr0.0 mm/hr 0.00 in0.0 mm
03:30 PM 63.1°F17.3°C 22.6°F-5.2°C 21% 8.9 mph NW14.3 kmh NW 13.0 mph20.9 kmh 29.68 in1005.1 mb 0.00 in0.0 mm 0.00 in/hr0.0 mm/hr 0.00 in0.0 mm
03:29 PM 63.1°F17.3°C 20.1°F-6.6°C 19% 8.9 mph NW14.3 kmh NW 11.0 mph17.7 kmh 29.68 in1005.1 mb 0.00 in0.0 mm 0.00 in/hr0.0 mm/hr 0.00 in0.0 mm
03:28 PM 63.1°F17.3°C 21.4°F-5.9°C 20% 8.1 mph WNW13.0 kmh WNW 12.1 mph19.5 kmh 29.68 in1005.1 mb 0.00 in0.0 mm 0.00 in/hr0.0 mm/hr 0.00 in0.0 mm
03:27 PM 63.1°F17.3°C 18.9°F-7.3°C 18% 8.1 mph W13.0 kmh W 14.1 mph22.7 kmh 29.68 in1005.1 mb 0.00 in0.0 mm 0.00 in/hr0.0 mm/hr 0.00 in0.0 mm
03:26 PM 63.1°F17.3°C 20.1°F-6.6°C 19% 8.1 mph WNW13.0 kmh WNW 14.1 mph22.7 kmh 29.68 in1005.1 mb 0.00 in0.0 mm 0.00 in/hr0.0 mm/hr 0.00 in0.0 mm
03:25 PM 63.1°F17.3°C 17.6°F-8.0°C 17% 6.9 mph WNW11.1 kmh WNW 14.1 mph22.7 kmh 29.68 in1005.1 mb 0.00 in0.0 mm 0.00 in/hr0.0 mm/hr 0.00 in0.0 mm
03:24 PM 63.1°F17.3°C 17.6°F-8.0°C 17% 6.9 mph WSW11.1 kmh WSW 11.0 mph17.7 kmh 29.68 in1005.1 mb 0.00 in0.0 mm 0.00 in/hr0.0 mm/hr 0.00 in0.0 mm
03:23 PM 63.1°F17.3°C 20.1°F-6.6°C 19% 6.9 mph WSW11.1 kmh WSW 10.1 mph16.3 kmh 29.68 in1005.1 mb 0.00 in0.0 mm 0.00 in/hr0.0 mm/hr 0.00 in0.0 mm
03:22 PM 63.1°F17.3°C 22.6°F-5.2°C 21% 6.9 mph WSW11.1 kmh WSW 16.1 mph25.9 kmh 29.68 in1005.1 mb 0.00 in0.0 mm 0.00 in/hr0.0 mm/hr 0.00 in0.0 mm
03:21 PM 63.0°F17.2°C 22.5°F-5.3°C 21% 6.9 mph NW11.1 kmh NW 14.1 mph22.7 kmh 29.68 in1005.1 mb 0.00 in0.0 mm 0.00 in/hr0.0 mm/hr 0.00 in0.0 mm
03:20 PM 63.0°F17.2°C 18.9°F-7.3°C 18% 6.0 mph W9.7 kmh W 13.0 mph20.9 kmh 29.68 in1005.1 mb 0.00 in0.0 mm 0.00 in/hr0.0 mm/hr 0.00 in0.0 mm
03:19 PM 62.8°F17.1°C 21.0°F-6.1°C 20% 6.0 mph WNW9.7 kmh WNW 8.9 mph14.3 kmh 29.69 in1005.4 mb 0.00 in0.0 mm 0.00 in/hr0.0 mm/hr 0.00 in0.0 mm
03:18 PM 62.6°F17.0°C 21.0°F-6.1°C 20% 6.9 mph WNW11.1 kmh WNW 12.1 mph19.5 kmh 29.69 in1005.4 mb 0.00 in0.0 mm 0.00 in/hr0.0 mm/hr 0.00 in0.0 mm
03:17 PM 62.6°F17.0°C 23.2°F-4.9°C 22% 6.9 mph W11.1 kmh W 13.0 mph20.9 kmh 29.69 in1005.4 mb 0.00 in0.0 mm 0.00 in/hr0.0 mm/hr 0.00 in0.0 mm
03:15 PM 62.2°F16.8°C 18.1°F-7.7°C 18% 6.9 mph WSW11.1 kmh WSW 10.1 mph16.3 kmh 29.69 in1005.4 mb 0.00 in0.0 mm 0.00 in/hr0.0 mm/hr 0.00 in0.0 mm
03:14 PM 62.1°F16.7°C 18.0°F-7.8°C 18% 6.9 mph WSW11.1 kmh WSW 10.1 mph16.3 kmh 29.69 in1005.4 mb 0.00 in0.0 mm 0.00 in/hr0.0 mm/hr 0.00 in0.0 mm
03:13 PM 61.5°F16.4°C 18.9°F-7.3°C 19% 6.9 mph WSW11.1 kmh WSW 6.9 mph11.1 kmh 29.69 in1005.4 mb 0.00 in0.0 mm 0.00 in/hr0.0 mm/hr 0.00 in0.0 mm
03:12 PM 61.3°F16.3°C 21.0°F-6.1°C 21% 6.9 mph W11.1 kmh W 8.9 mph14.3 kmh 29.69 in1005.4 mb 0.00 in0.0 mm 0.00 in/hr0.0 mm/hr 0.00 in0.0 mm
03:11 PM 61.2°F16.2°C 19.8°F-6.8°C 20% 6.9 mph WSW11.1 kmh WSW 8.9 mph14.3 kmh 29.69 in1005.4 mb 0.00 in0.0 mm 0.00 in/hr0.0 mm/hr 0.00 in0.0 mm
03:10 PM 61.0°F16.1°C 18.5°F-7.5°C 19% 6.9 mph NW11.1 kmh NW 8.9 mph14.3 kmh 29.69 in1005.4 mb 0.00 in0.0 mm 0.00 in/hr0.0 mm/hr 0.00 in0.0 mm
03:09 PM 61.0°F16.1°C 15.8°F-9.0°C 17% 6.9 mph SW11.1 kmh SW 11.0 mph17.7 kmh 29.69 in1005.4 mb 0.00 in0.0 mm 0.00 in/hr0.0 mm/hr 0.00 in0.0 mm
03:08 PM 61.0°F16.1°C 17.2°F-8.2°C 18% 6.9 mph WSW11.1 kmh WSW 11.0 mph17.7 kmh 29.69 in1005.4 mb 0.00 in0.0 mm 0.00 in/hr0.0 mm/hr 0.00 in0.0 mm
03:07 PM 61.0°F16.1°C 17.2°F-8.2°C 18% 6.9 mph WSW11.1 kmh WSW 11.0 mph17.7 kmh 29.69 in1005.4 mb 0.00 in0.0 mm 0.00 in/hr0.0 mm/hr 0.00 in0.0 mm
03:06 PM 61.0°F16.1°C 20.8°F-6.2°C 21% 6.9 mph SW11.1 kmh SW 11.0 mph17.7 kmh 29.69 in1005.4 mb 0.00 in0.0 mm 0.00 in/hr0.0 mm/hr 0.00 in0.0 mm
03:05 PM 60.6°F15.9°C 16.9°F-8.4°C 18% 6.9 mph SW11.1 kmh SW 11.0 mph17.7 kmh 29.69 in1005.4 mb 0.00 in0.0 mm 0.00 in/hr0.0 mm/hr 0.00 in0.0 mm
03:04 PM 60.4°F15.8°C 15.4°F-9.2°C 17% 6.0 mph WSW9.7 kmh WSW 6.9 mph11.1 kmh 29.69 in1005.4 mb 0.00 in0.0 mm 0.00 in/hr0.0 mm/hr 0.00 in0.0 mm
03:03 PM 60.4°F15.8°C 15.4°F-9.2°C 17% 6.0 mph SW9.7 kmh SW 11.0 mph17.7 kmh 29.71 in1006.1 mb 0.00 in0.0 mm 0.00 in/hr0.0 mm/hr 0.00 in0.0 mm
03:02 PM 60.6°F15.9°C 15.6°F-9.1°C 17% 6.0 mph SW9.7 kmh SW 8.1 mph13.0 kmh 29.71 in1006.1 mb 0.00 in0.0 mm 0.00 in/hr0.0 mm/hr 0.00 in0.0 mm
03:01 PM 61.0°F16.1°C 19.6°F-6.9°C 20% 6.0 mph SSW9.7 kmh SSW 12.1 mph19.5 kmh 29.71 in1006.1 mb 0.00 in0.0 mm 0.00 in/hr0.0 mm/hr 0.00 in0.0 mm
03:00 PM 61.2°F16.2°C 18.5°F-7.5°C 19% 6.0 mph SSW9.7 kmh SSW 13.0 mph20.9 kmh 29.71 in1006.1 mb 0.00 in0.0 mm 0.00 in/hr0.0 mm/hr 0.00 in0.0 mm
02:59 PM 61.3°F16.3°C 16.2°F-8.8°C 17% 6.0 mph SW9.7 kmh SW 10.1 mph16.3 kmh 29.71 in1006.1 mb 0.00 in0.0 mm 0.00 in/hr0.0 mm/hr 0.00 in0.0 mm
02:58 PM 61.5°F16.4°C 22.3°F-5.4°C 22% 6.0 mph WSW9.7 kmh WSW 8.1 mph13.0 kmh 29.71 in1006.1 mb 0.00 in0.0 mm 0.00 in/hr0.0 mm/hr 0.00 in0.0 mm
02:57 PM 61.9°F16.6°C 22.6°F-5.2°C 22% 6.0 mph W9.7 kmh W 11.0 mph17.7 kmh 29.71 in1006.1 mb 0.00 in0.0 mm 0.00 in/hr0.0 mm/hr 0.00 in0.0 mm
02:56 PM 62.1°F16.7°C 19.2°F-7.1°C 19% 6.0 mph SW9.7 kmh SW 8.1 mph13.0 kmh 29.71 in1006.1 mb 0.00 in0.0 mm 0.00 in/hr0.0 mm/hr 0.00 in0.0 mm
02:55 PM 62.2°F16.8°C 16.9°F-8.4°C 17% 6.9 mph WSW11.1 kmh WSW 4.9 mph7.9 kmh 29.71 in1006.1 mb 0.00 in0.0 mm 0.00 in/hr0.0 mm/hr 0.00 in0.0 mm
02:54 PM 62.6°F17.0°C 17.2°F-8.2°C 17% 6.9 mph WSW11.1 kmh WSW 8.9 mph14.3 kmh 29.71 in1006.1 mb 0.00 in0.0 mm 0.00 in/hr0.0 mm/hr 0.00 in0.0 mm
02:53 PM 63.0°F17.2°C 18.9°F-7.3°C 18% 6.9 mph WSW11.1 kmh WSW 8.9 mph14.3 kmh 29.71 in1006.1 mb 0.00 in0.0 mm 0.00 in/hr0.0 mm/hr 0.00 in0.0 mm
02:52 PM 63.1°F17.3°C 17.6°F-8.0°C 17% 8.1 mph SW13.0 kmh SW 6.9 mph11.1 kmh 29.71 in1006.1 mb 0.00 in0.0 mm 0.00 in/hr0.0 mm/hr 0.00 in0.0 mm
02:51 PM 63.3°F17.4°C 19.0°F-7.2°C 18% 8.1 mph SW13.0 kmh SW 8.9 mph14.3 kmh 29.71 in1006.1 mb 0.00 in0.0 mm 0.00 in/hr0.0 mm/hr 0.00 in0.0 mm
02:50 PM 63.3°F17.4°C 21.6°F-5.8°C 20% 6.9 mph WSW11.1 kmh WSW 13.0 mph20.9 kmh 29.71 in1006.1 mb 0.00 in0.0 mm 0.00 in/hr0.0 mm/hr 0.00 in0.0 mm
02:49 PM 63.5°F17.5°C 22.8°F-5.1°C 21% 6.9 mph W11.1 kmh W 13.0 mph20.9 kmh 29.71 in1006.1 mb 0.00 in0.0 mm 0.00 in/hr0.0 mm/hr 0.00 in0.0 mm
02:48 PM 63.3°F17.4°C 21.6°F-5.8°C 20% 6.9 mph WSW11.1 kmh WSW 11.0 mph17.7 kmh 29.72 in1006.4 mb 0.00 in0.0 mm 0.00 in/hr0.0 mm/hr 0.00 in0.0 mm
02:46 PM 63.1°F17.3°C 20.1°F-6.6°C 19% 6.0 mph WSW9.7 kmh WSW 14.1 mph22.7 kmh 29.72 in1006.4 mb 0.00 in0.0 mm 0.00 in/hr0.0 mm/hr 0.00 in0.0 mm
02:45 PM 62.8°F17.1°C 18.7°F-7.4°C 18% 4.9 mph WSW7.9 kmh WSW 11.0 mph17.7 kmh 29.72 in1006.4 mb 0.00 in0.0 mm 0.00 in/hr0.0 mm/hr 0.00 in0.0 mm
02:44 PM 62.6°F17.0°C 18.5°F-7.5°C 18% 4.9 mph WSW7.9 kmh WSW 8.1 mph13.0 kmh 29.72 in1006.4 mb 0.00 in0.0 mm 0.00 in/hr0.0 mm/hr 0.00 in0.0 mm
02:43 PM 62.4°F16.9°C 21.9°F-5.6°C 21% 4.9 mph WSW7.9 kmh WSW 12.1 mph19.5 kmh 29.72 in1006.4 mb 0.00 in0.0 mm 0.00 in/hr0.0 mm/hr 0.00 in0.0 mm
02:42 PM 62.2°F16.8°C 25.0°F-3.9°C 24% 4.0 mph NW6.4 kmh NW 11.0 mph17.7 kmh 29.72 in1006.4 mb 0.00 in0.0 mm 0.00 in/hr0.0 mm/hr 0.00 in0.0 mm
02:41 PM 62.1°F16.7°C 24.8°F-4.0°C 24% 4.0 mph NW6.4 kmh NW 6.9 mph11.1 kmh 29.72 in1006.4 mb 0.00 in0.0 mm 0.00 in/hr0.0 mm/hr 0.00 in0.0 mm
02:40 PM 62.1°F16.7°C 24.8°F-4.0°C 24% 4.0 mph WNW6.4 kmh WNW 6.9 mph11.1 kmh 29.72 in1006.4 mb 0.00 in0.0 mm 0.00 in/hr0.0 mm/hr 0.00 in0.0 mm
02:39 PM 62.1°F16.7°C 24.8°F-4.0°C 24% 4.0 mph W6.4 kmh W 6.9 mph11.1 kmh 29.72 in1006.4 mb 0.00 in0.0 mm 0.00 in/hr0.0 mm/hr 0.00 in0.0 mm
02:38 PM 61.9°F16.6°C 22.6°F-5.2°C 22% 4.9 mph WNW7.9 kmh WNW 8.1 mph13.0 kmh 29.72 in1006.4 mb 0.00 in0.0 mm 0.00 in/hr0.0 mm/hr 0.00 in0.0 mm
02:37 PM 61.9°F16.6°C 21.6°F-5.8°C 21% 4.9 mph WNW7.9 kmh WNW 6.9 mph11.1 kmh 29.72 in1006.4 mb 0.00 in0.0 mm 0.00 in/hr0.0 mm/hr 0.00 in0.0 mm
02:36 PM 61.9°F16.6°C 22.6°F-5.2°C 22% 4.9 mph NW7.9 kmh NW 6.9 mph11.1 kmh 29.72 in1006.4 mb 0.00 in0.0 mm 0.00 in/hr0.0 mm/hr 0.00 in0.0 mm
02:35 PM 62.1°F16.7°C 19.2°F-7.1°C 19% 4.9 mph WSW7.9 kmh WSW 6.0 mph9.7 kmh 29.72 in1006.4 mb 0.00 in0.0 mm 0.00 in/hr0.0 mm/hr 0.00 in0.0 mm
02:34 PM 62.1°F16.7°C 19.2°F-7.1°C 19% 4.9 mph W7.9 kmh W 8.9 mph14.3 kmh 29.72 in1006.4 mb 0.00 in0.0 mm 0.00 in/hr0.0 mm/hr 0.00 in0.0 mm
02:33 PM 62.1°F16.7°C 21.7°F-5.7°C 21% 4.9 mph W7.9 kmh W 8.9 mph14.3 kmh 29.73 in1006.8 mb 0.00 in0.0 mm 0.00 in/hr0.0 mm/hr 0.00 in0.0 mm
02:32 PM 62.1°F16.7°C 20.5°F-6.4°C 20% 4.9 mph W7.9 kmh W 6.0 mph9.7 kmh 29.73 in1006.8 mb 0.00 in0.0 mm 0.00 in/hr0.0 mm/hr 0.00 in0.0 mm
02:31 PM 62.1°F16.7°C 22.8°F-5.1°C 22% 4.9 mph WSW7.9 kmh WSW 8.1 mph13.0 kmh 29.73 in1006.8 mb 0.00 in0.0 mm 0.00 in/hr0.0 mm/hr 0.00 in0.0 mm
02:30 PM 62.4°F16.9°C 24.1°F-4.4°C 23% 4.9 mph SW7.9 kmh SW 8.9 mph14.3 kmh 29.73 in1006.8 mb 0.00 in0.0 mm 0.00 in/hr0.0 mm/hr 0.00 in0.0 mm
02:29 PM 62.6°F17.0°C 24.3°F-4.3°C 23% 4.0 mph SSW6.4 kmh SSW 12.1 mph19.5 kmh 29.73 in1006.8 mb 0.00 in0.0 mm 0.00 in/hr0.0 mm/hr 0.00 in0.0 mm
02:28 PM 62.8°F17.1°C 19.9°F-6.7°C 19% 4.0 mph SSW6.4 kmh SSW 8.9 mph14.3 kmh 29.73 in1006.8 mb 0.00 in0.0 mm 0.00 in/hr0.0 mm/hr 0.00 in0.0 mm
02:27 PM 62.8°F17.1°C 19.9°F-6.7°C 19% 2.9 mph SSW4.7 kmh SSW 4.0 mph6.4 kmh 29.73 in1006.8 mb 0.00 in0.0 mm 0.00 in/hr0.0 mm/hr 0.00 in0.0 mm
02:26 PM 62.8°F17.1°C 23.4°F-4.8°C 22% 4.0 mph SSW6.4 kmh SSW 4.0 mph6.4 kmh 29.73 in1006.8 mb 0.00 in0.0 mm 0.00 in/hr0.0 mm/hr 0.00 in0.0 mm
02:25 PM 63.0°F17.2°C 22.5°F-5.3°C 21% 4.0 mph SSW6.4 kmh SSW 8.1 mph13.0 kmh 29.73 in1006.8 mb 0.00 in0.0 mm 0.00 in/hr0.0 mm/hr 0.00 in0.0 mm
02:24 PM 63.1°F17.3°C 23.7°F-4.6°C 22% 4.0 mph SW6.4 kmh SW 8.1 mph13.0 kmh 29.73 in1006.8 mb 0.00 in0.0 mm 0.00 in/hr0.0 mm/hr 0.00 in0.0 mm
02:23 PM 63.0°F17.2°C 26.6°F-3.0°C 25% 4.0 mph SW6.4 kmh SW 8.1 mph13.0 kmh 29.73 in1006.8 mb 0.00 in0.0 mm 0.00 in/hr0.0 mm/hr 0.00 in0.0 mm
02:22 PM 63.0°F17.2°C 23.5°F-4.7°C 22% 4.0 mph WSW6.4 kmh WSW 6.0 mph9.7 kmh 29.73 in1006.8 mb 0.00 in0.0 mm 0.00 in/hr0.0 mm/hr 0.00 in0.0 mm
02:21 PM 63.0°F17.2°C 21.2°F-6.0°C 20% 4.0 mph WSW6.4 kmh WSW 4.0 mph6.4 kmh 29.73 in1006.8 mb 0.00 in0.0 mm 0.00 in/hr0.0 mm/hr 0.00 in0.0 mm
02:20 PM 63.0°F17.2°C 22.5°F-5.3°C 21% 4.0 mph W6.4 kmh W 6.0 mph9.7 kmh 29.73 in1006.8 mb 0.00 in0.0 mm 0.00 in/hr0.0 mm/hr 0.00 in0.0 mm
02:19 PM 63.0°F17.2°C 23.5°F-4.7°C 22% 4.0 mph WSW6.4 kmh WSW 4.9 mph7.9 kmh 29.73 in1006.8 mb 0.00 in0.0 mm 0.00 in/hr0.0 mm/hr 0.00 in0.0 mm
02:18 PM 63.0°F17.2°C 23.5°F-4.7°C 22% 4.0 mph WSW6.4 kmh WSW 6.9 mph11.1 kmh 29.75 in1007.5 mb 0.00 in0.0 mm 0.00 in/hr0.0 mm/hr 0.00 in0.0 mm
02:17 PM 63.0°F17.2°C 23.5°F-4.7°C 22% 4.0 mph WSW6.4 kmh WSW 8.1 mph13.0 kmh 29.75 in1007.5 mb 0.00 in0.0 mm 0.00 in/hr0.0 mm/hr 0.00 in0.0 mm
02:16 PM 63.0°F17.2°C 23.5°F-4.7°C 22% 4.0 mph WSW6.4 kmh WSW 10.1 mph16.3 kmh 29.75 in1007.5 mb 0.00 in0.0 mm 0.00 in/hr0.0 mm/hr 0.00 in0.0 mm
02:15 PM 63.0°F17.2°C 27.5°F-2.5°C 26% 4.0 mph W6.4 kmh W 12.1 mph19.5 kmh 29.75 in1007.5 mb 0.00 in0.0 mm 0.00 in/hr0.0 mm/hr 0.00 in0.0 mm
02:14 PM 63.0°F17.2°C 26.6°F-3.0°C 25% 4.0 mph W6.4 kmh W 12.1 mph19.5 kmh 29.75 in1007.5 mb 0.00 in0.0 mm 0.00 in/hr0.0 mm/hr 0.00 in0.0 mm
02:13 PM 62.8°F17.1°C 22.3°F-5.4°C 21% 4.0 mph WNW6.4 kmh WNW 4.0 mph6.4 kmh 29.75 in1007.5 mb 0.00 in0.0 mm 0.00 in/hr0.0 mm/hr 0.00 in0.0 mm
02:12 PM 62.8°F17.1°C 19.9°F-6.7°C 19% 2.9 mph WNW4.7 kmh WNW 4.0 mph6.4 kmh 29.75 in1007.5 mb 0.00 in0.0 mm 0.00 in/hr0.0 mm/hr 0.00 in0.0 mm
02:11 PM 62.8°F17.1°C 19.9°F-6.7°C 19% 2.9 mph NW4.7 kmh NW 4.9 mph7.9 kmh 29.75 in1007.5 mb 0.00 in0.0 mm 0.00 in/hr0.0 mm/hr 0.00 in0.0 mm
02:09 PM 62.8°F17.1°C 22.3°F-5.4°C 21% 4.0 mph N6.4 kmh N 6.0 mph9.7 kmh 29.75 in1007.5 mb 0.00 in0.0 mm 0.00 in/hr0.0 mm/hr 0.00 in0.0 mm
02:08 PM 62.8°F17.1°C 21.0°F-6.1°C 20% 2.9 mph N4.7 kmh N 4.9 mph7.9 kmh 29.75 in1007.5 mb 0.00 in0.0 mm 0.00 in/hr0.0 mm/hr 0.00 in0.0 mm
02:07 PM 62.8°F17.1°C 21.0°F-6.1°C 20% 4.0 mph NW6.4 kmh NW 6.9 mph11.1 kmh 29.75 in1007.5 mb 0.00 in0.0 mm 0.00 in/hr0.0 mm/hr 0.00 in0.0 mm
02:06 PM 63.0°F17.2°C 22.5°F-5.3°C 21% 2.9 mph NNW4.7 kmh NNW 8.1 mph13.0 kmh 29.75 in1007.5 mb 0.00 in0.0 mm 0.00 in/hr0.0 mm/hr 0.00 in0.0 mm
02:05 PM 63.0°F17.2°C 24.6°F-4.1°C 23% 2.9 mph W4.7 kmh W 8.9 mph14.3 kmh 29.75 in1007.5 mb 0.00 in0.0 mm 0.00 in/hr0.0 mm/hr 0.00 in0.0 mm
02:04 PM 63.0°F17.2°C 22.5°F-5.3°C 21% 2.9 mph WNW4.7 kmh WNW 8.9 mph14.3 kmh 29.75 in1007.5 mb 0.00 in0.0 mm 0.00 in/hr0.0 mm/hr 0.00 in0.0 mm
02:03 PM 62.8°F17.1°C 19.9°F-6.7°C 19% 2.9 mph WNW4.7 kmh WNW 2.9 mph4.7 kmh 29.75 in1007.5 mb 0.00 in0.0 mm 0.00 in/hr0.0 mm/hr 0.00 in0.0 mm
02:02 PM 62.8°F17.1°C 22.3°F-5.4°C 21% 2.9 mph WNW4.7 kmh WNW 4.0 mph6.4 kmh 29.75 in1007.5 mb 0.00 in0.0 mm 0.00 in/hr0.0 mm/hr 0.00 in0.0 mm
02:01 PM 62.8°F17.1°C 22.3°F-5.4°C 21% 2.9 mph WNW4.7 kmh WNW 6.9 mph11.1 kmh 29.75 in1007.5 mb 0.00 in0.0 mm 0.00 in/hr0.0 mm/hr 0.00 in0.0 mm
02:00 PM 62.6°F17.0°C 22.1°F-5.5°C 21% 2.9 mph WNW4.7 kmh WNW 8.9 mph14.3 kmh 29.75 in1007.5 mb 0.00 in0.0 mm 0.00 in/hr0.0 mm/hr 0.00 in0.0 mm
01:59 PM 62.6°F17.0°C 24.3°F-4.3°C 23% 2.9 mph NNW4.7 kmh NNW 6.0 mph9.7 kmh 29.75 in1007.5 mb 0.00 in0.0 mm 0.00 in/hr0.0 mm/hr 0.00 in0.0 mm
01:58 PM 62.6°F17.0°C 19.8°F-6.8°C 19% 2.9 mph NW4.7 kmh NW 8.9 mph14.3 kmh 29.75 in1007.5 mb 0.00 in0.0 mm 0.00 in/hr0.0 mm/hr 0.00 in0.0 mm
01:57 PM 62.6°F17.0°C 23.2°F-4.9°C 22% 2.9 mph NW4.7 kmh NW 2.9 mph4.7 kmh 29.75 in1007.5 mb 0.00 in0.0 mm 0.00 in/hr0.0 mm/hr 0.00 in0.0 mm
01:55 PM 62.6°F17.0°C 22.1°F-5.5°C 21% 2.9 mph NW4.7 kmh NW 4.0 mph6.4 kmh 29.75 in1007.5 mb 0.00 in0.0 mm 0.00 in/hr0.0 mm/hr 0.00 in0.0 mm
01:54 PM 62.4°F16.9°C 25.2°F-3.8°C 24% 2.9 mph NW4.7 kmh NW 4.9 mph7.9 kmh 29.75 in1007.5 mb 0.00 in0.0 mm 0.00 in/hr0.0 mm/hr 0.00 in0.0 mm
01:53 PM 62.4°F16.9°C 21.9°F-5.6°C 21% 2.9 mph WNW4.7 kmh WNW 4.0 mph6.4 kmh 29.75 in1007.5 mb 0.00 in0.0 mm 0.00 in/hr0.0 mm/hr 0.00 in0.0 mm
01:52 PM 62.4°F16.9°C 23.0°F-5.0°C 22% 2.9 mph WNW4.7 kmh WNW 6.0 mph9.7 kmh 29.75 in1007.5 mb 0.00 in0.0 mm 0.00 in/hr0.0 mm/hr 0.00 in0.0 mm
01:51 PM 62.4°F16.9°C 23.0°F-5.0°C 22% 2.9 mph W4.7 kmh W 6.0 mph9.7 kmh 29.75 in1007.5 mb 0.00 in0.0 mm 0.00 in/hr0.0 mm/hr 0.00 in0.0 mm
01:50 PM 62.2°F16.8°C 26.1°F-3.3°C 25% 2.9 mph W4.7 kmh W 4.0 mph6.4 kmh 29.75 in1007.5 mb 0.00 in0.0 mm 0.00 in/hr0.0 mm/hr 0.00 in0.0 mm
01:49 PM 62.2°F16.8°C 26.1°F-3.3°C 25% 2.9 mph W4.7 kmh W 4.9 mph7.9 kmh 29.75 in1007.5 mb 0.00 in0.0 mm 0.00 in/hr0.0 mm/hr 0.00 in0.0 mm
01:48 PM 62.1°F16.7°C 25.9°F-3.4°C 25% 2.9 mph W4.7 kmh W 4.9 mph7.9 kmh 29.77 in1008.1 mb 0.00 in0.0 mm 0.00 in/hr0.0 mm/hr 0.00 in0.0 mm
01:47 PM 62.1°F16.7°C 25.9°F-3.4°C 25% 2.9 mph W4.7 kmh W 4.9 mph7.9 kmh 29.77 in1008.1 mb 0.00 in0.0 mm 0.00 in/hr0.0 mm/hr 0.00 in0.0 mm
01:46 PM 62.1°F16.7°C 23.9°F-4.5°C 23% 2.9 mph W4.7 kmh W 4.0 mph6.4 kmh 29.77 in1008.1 mb 0.00 in0.0 mm 0.00 in/hr0.0 mm/hr 0.00 in0.0 mm
01:45 PM 62.1°F16.7°C 21.7°F-5.7°C 21% 2.9 mph W4.7 kmh W 4.0 mph6.4 kmh 29.77 in1008.1 mb 0.00 in0.0 mm 0.00 in/hr0.0 mm/hr 0.00 in0.0 mm
01:44 PM 62.1°F16.7°C 21.7°F-5.7°C 21% 2.9 mph W4.7 kmh W 6.0 mph9.7 kmh 29.77 in1008.1 mb 0.00 in0.0 mm 0.00 in/hr0.0 mm/hr 0.00 in0.0 mm
01:43 PM 62.1°F16.7°C 25.9°F-3.4°C 25% 2.9 mph WSW4.7 kmh WSW 6.0 mph9.7 kmh 29.77 in1008.1 mb 0.00 in0.0 mm 0.00 in/hr0.0 mm/hr 0.00 in0.0 mm
01:42 PM 62.1°F16.7°C 22.8°F-5.1°C 22% 2.9 mph W4.7 kmh W 6.0 mph9.7 kmh 29.77 in1008.1 mb 0.00 in0.0 mm 0.00 in/hr0.0 mm/hr 0.00 in0.0 mm
01:41 PM 62.1°F16.7°C 23.9°F-4.5°C 23% 2.9 mph W4.7 kmh W 6.0 mph9.7 kmh 29.77 in1008.1 mb 0.00 in0.0 mm 0.00 in/hr0.0 mm/hr 0.00 in0.0 mm
01:40 PM 62.1°F16.7°C 21.7°F-5.7°C 21% 2.9 mph WNW4.7 kmh WNW 4.9 mph7.9 kmh 29.77 in1008.1 mb 0.00 in0.0 mm 0.00 in/hr0.0 mm/hr 0.00 in0.0 mm
01:39 PM 62.1°F16.7°C 22.8°F-5.1°C 22% 4.0 mph SW6.4 kmh SW 4.0 mph6.4 kmh 29.77 in1008.1 mb 0.00 in0.0 mm 0.00 in/hr0.0 mm/hr 0.00 in0.0 mm
01:38 PM 62.1°F16.7°C 24.8°F-4.0°C 24% 4.0 mph SW6.4 kmh SW 4.0 mph6.4 kmh 29.77 in1008.1 mb 0.00 in0.0 mm 0.00 in/hr0.0 mm/hr 0.00 in0.0 mm
01:36 PM 62.2°F16.8°C 21.7°F-5.7°C 21% 4.0 mph SW6.4 kmh SW 8.1 mph13.0 kmh 29.77 in1008.1 mb 0.00 in0.0 mm 0.00 in/hr0.0 mm/hr 0.00 in0.0 mm
01:35 PM 62.2°F16.8°C 23.0°F-5.0°C 22% 2.9 mph SW4.7 kmh SW 6.9 mph11.1 kmh 29.77 in1008.1 mb 0.00 in0.0 mm 0.00 in/hr0.0 mm/hr 0.00 in0.0 mm
01:34 PM 62.4°F16.9°C 25.2°F-3.8°C 24% 2.9 mph SW4.7 kmh SW 6.9 mph11.1 kmh 29.77 in1008.1 mb 0.00 in0.0 mm 0.00 in/hr0.0 mm/hr 0.00 in0.0 mm
01:33 PM 62.4°F16.9°C 23.0°F-5.0°C 22% 2.9 mph NW4.7 kmh NW 6.9 mph11.1 kmh 29.78 in1008.5 mb 0.00 in0.0 mm 0.00 in/hr0.0 mm/hr 0.00 in0.0 mm
01:32 PM 62.4°F16.9°C 23.0°F-5.0°C 22% 2.9 mph S4.7 kmh S 4.0 mph6.4 kmh 29.78 in1008.5 mb 0.00 in0.0 mm 0.00 in/hr0.0 mm/hr 0.00 in0.0 mm
01:31 PM 62.4°F16.9°C 24.1°F-4.4°C 23% 2.0 mph S3.2 kmh S 2.9 mph4.7 kmh 29.78 in1008.5 mb 0.00 in0.0 mm 0.00 in/hr0.0 mm/hr 0.00 in0.0 mm
01:30 PM 62.4°F16.9°C 21.9°F-5.6°C 21% 2.9 mph S4.7 kmh S 2.0 mph3.2 kmh 29.78 in1008.5 mb 0.00 in0.0 mm 0.00 in/hr0.0 mm/hr 0.00 in0.0 mm
01:29 PM 62.6°F17.0°C 22.1°F-5.5°C 21% 2.9 mph S4.7 kmh S 13.0 mph20.9 kmh 29.78 in1008.5 mb 0.00 in0.0 mm 0.00 in/hr0.0 mm/hr 0.00 in0.0 mm
01:28 PM 63.0°F17.2°C 23.5°F-4.7°C 22% 2.0 mph WSW3.2 kmh WSW 13.0 mph20.9 kmh 29.78 in1008.5 mb 0.00 in0.0 mm 0.00 in/hr0.0 mm/hr 0.00 in0.0 mm
01:27 PM 63.1°F17.3°C 22.6°F-5.2°C 21% 2.0 mph NNW3.2 kmh NNW 6.0 mph9.7 kmh 29.78 in1008.5 mb 0.00 in0.0 mm 0.00 in/hr0.0 mm/hr 0.00 in0.0 mm
01:26 PM 63.1°F17.3°C 20.1°F-6.6°C 19% 2.0 mph NW3.2 kmh NW 4.0 mph6.4 kmh 29.78 in1008.5 mb 0.00 in0.0 mm 0.00 in/hr0.0 mm/hr 0.00 in0.0 mm
01:25 PM 63.1°F17.3°C 21.4°F-5.9°C 20% 2.0 mph WNW3.2 kmh WNW 4.0 mph6.4 kmh 29.78 in1008.5 mb 0.00 in0.0 mm 0.00 in/hr0.0 mm/hr 0.00 in0.0 mm
01:24 PM 63.3°F17.4°C 28.8°F-1.8°C 27% 2.0 mph WNW3.2 kmh WNW 4.9 mph7.9 kmh 29.78 in1008.5 mb 0.00 in0.0 mm 0.00 in/hr0.0 mm/hr 0.00 in0.0 mm
01:23 PM 63.5°F17.5°C 28.9°F-1.7°C 27% 2.0 mph SW3.2 kmh SW 4.0 mph6.4 kmh 29.78 in1008.5 mb 0.00 in0.0 mm 0.00 in/hr0.0 mm/hr 0.00 in0.0 mm
01:22 PM 63.5°F17.5°C 27.0°F-2.8°C 25% 2.0 mph SW3.2 kmh SW 2.9 mph4.7 kmh 29.78 in1008.5 mb 0.00 in0.0 mm 0.00 in/hr0.0 mm/hr 0.00 in0.0 mm
01:21 PM 63.5°F17.5°C 23.9°F-4.5°C 22% 2.0 mph SW3.2 kmh SW 4.9 mph7.9 kmh 29.78 in1008.5 mb 0.00 in0.0 mm 0.00 in/hr0.0 mm/hr 0.00 in0.0 mm
01:20 PM 63.7°F17.6°C 23.0°F-5.0°C 21% 2.0 mph SW3.2 kmh SW 4.9 mph7.9 kmh 29.78 in1008.5 mb 0.00 in0.0 mm 0.00 in/hr0.0 mm/hr 0.00 in0.0 mm
01:19 PM 63.7°F17.6°C 24.1°F-4.4°C 22% 2.0 mph SSW3.2 kmh SSW 4.9 mph7.9 kmh 29.78 in1008.5 mb 0.00 in0.0 mm 0.00 in/hr0.0 mm/hr 0.00 in0.0 mm
01:18 PM 63.7°F17.6°C 27.1°F-2.7°C 25% 2.0 mph E3.2 kmh E 2.9 mph4.7 kmh 29.80 in1009.1 mb 0.00 in0.0 mm 0.00 in/hr0.0 mm/hr 0.00 in0.0 mm
01:17 PM 63.5°F17.5°C 28.0°F-2.2°C 26% 2.0 mph E3.2 kmh E 2.9 mph4.7 kmh 29.80 in1009.1 mb 0.00 in0.0 mm 0.00 in/hr0.0 mm/hr 0.00 in0.0 mm
01:16 PM 63.5°F17.5°C 23.9°F-4.5°C 22% 2.0 mph ESE3.2 kmh ESE 4.0 mph6.4 kmh 29.80 in1009.1 mb 0.00 in0.0 mm 0.00 in/hr0.0 mm/hr 0.00 in0.0 mm
01:15 PM 63.5°F17.5°C 28.0°F-2.2°C 26% 2.0 mph ESE3.2 kmh ESE 4.0 mph6.4 kmh 29.80 in1009.1 mb 0.00 in0.0 mm 0.00 in/hr0.0 mm/hr 0.00 in0.0 mm
01:14 PM 63.3°F17.4°C 22.6°F-5.2°C 21% 2.0 mph SE3.2 kmh SE 4.9 mph7.9 kmh 29.80 in1009.1 mb 0.00 in0.0 mm 0.00 in/hr0.0 mm/hr 0.00 in0.0 mm
01:13 PM 63.3°F17.4°C 22.6°F-5.2°C 21% 2.0 mph E3.2 kmh E 2.9 mph4.7 kmh 29.80 in1009.1 mb 0.00 in0.0 mm 0.00 in/hr0.0 mm/hr 0.00 in0.0 mm
01:12 PM 63.3°F17.4°C 23.9°F-4.5°C 22% 0.9 mph E1.4 kmh E 2.9 mph4.7 kmh 29.80 in1009.1 mb 0.00 in0.0 mm 0.00 in/hr0.0 mm/hr 0.00 in0.0 mm
01:11 PM 63.3°F17.4°C 23.9°F-4.5°C 22% 0.9 mph E1.4 kmh E 4.9 mph7.9 kmh 29.80 in1009.1 mb 0.00 in0.0 mm 0.00 in/hr0.0 mm/hr 0.00 in0.0 mm
01:10 PM 63.5°F17.5°C 25.0°F-3.9°C 23% 0.9 mph E1.4 kmh E 4.9 mph7.9 kmh 29.80 in1009.1 mb 0.00 in0.0 mm 0.00 in/hr0.0 mm/hr 0.00 in0.0 mm
01:09 PM 63.3°F17.4°C 27.9°F-2.3°C 26% 0.9 mph E1.4 kmh E 4.0 mph6.4 kmh 29.80 in1009.1 mb 0.00 in0.0 mm 0.00 in/hr0.0 mm/hr 0.00 in0.0 mm
01:08 PM 63.1°F17.3°C 27.7°F-2.4°C 26% 0.9 mph E1.4 kmh E 2.9 mph4.7 kmh 29.80 in1009.1 mb 0.00 in0.0 mm 0.00 in/hr0.0 mm/hr 0.00 in0.0 mm
01:07 PM 63.0°F17.2°C 24.6°F-4.1°C 23% 0.9 mph E1.4 kmh E 2.0 mph3.2 kmh 29.80 in1009.1 mb 0.00 in0.0 mm 0.00 in/hr0.0 mm/hr 0.00 in0.0 mm
01:06 PM 62.8°F17.1°C 24.4°F-4.2°C 23% 2.0 mph E3.2 kmh E 2.9 mph4.7 kmh 29.80 in1009.1 mb 0.00 in0.0 mm 0.00 in/hr0.0 mm/hr 0.00 in0.0 mm
01:05 PM 62.6°F17.0°C 25.3°F-3.7°C 24% 2.0 mph E3.2 kmh E 2.0 mph3.2 kmh 29.80 in1009.1 mb 0.00 in0.0 mm 0.00 in/hr0.0 mm/hr 0.00 in0.0 mm
01:04 PM 62.4°F16.9°C 25.2°F-3.8°C 24% 2.0 mph E3.2 kmh E 2.9 mph4.7 kmh 29.80 in1009.1 mb 0.00 in0.0 mm 0.00 in/hr0.0 mm/hr 0.00 in0.0 mm
01:03 PM 62.4°F16.9°C 28.0°F-2.2°C 27% 2.0 mph E3.2 kmh E 4.0 mph6.4 kmh 29.80 in1009.1 mb 0.00 in0.0 mm 0.00 in/hr0.0 mm/hr 0.00 in0.0 mm
01:02 PM 62.1°F16.7°C 27.7°F-2.4°C 27% 2.0 mph SE3.2 kmh SE 2.9 mph4.7 kmh 29.80 in1009.1 mb 0.00 in0.0 mm 0.00 in/hr0.0 mm/hr 0.00 in0.0 mm
01:01 PM 62.1°F16.7°C 29.5°F-1.4°C 29% 2.0 mph SE3.2 kmh SE 2.9 mph4.7 kmh 29.80 in1009.1 mb 0.00 in0.0 mm 0.00 in/hr0.0 mm/hr 0.00 in0.0 mm
01:00 PM 61.9°F16.6°C 24.6°F-4.1°C 24% 2.0 mph ENE3.2 kmh ENE 6.0 mph9.7 kmh 29.80 in1009.1 mb 0.00 in0.0 mm 0.00 in/hr0.0 mm/hr 0.00 in0.0 mm
12:59 PM 61.9°F16.6°C 26.6°F-3.0°C 26% 2.0 mph ENE3.2 kmh ENE 6.0 mph9.7 kmh 29.80 in1009.1 mb 0.00 in0.0 mm 0.00 in/hr0.0 mm/hr 0.00 in0.0 mm
12:58 PM 61.5°F16.4°C 22.3°F-5.4°C 22% 2.0 mph E3.2 kmh E 6.9 mph11.1 kmh 29.80 in1009.1 mb 0.00 in0.0 mm 0.00 in/hr0.0 mm/hr 0.00 in0.0 mm
12:57 PM 61.5°F16.4°C 25.3°F-3.7°C 25% 2.0 mph ENE3.2 kmh ENE 6.9 mph11.1 kmh 29.80 in1009.1 mb 0.00 in0.0 mm 0.00 in/hr0.0 mm/hr 0.00 in0.0 mm
12:55 PM 61.5°F16.4°C 23.4°F-4.8°C 23% 2.0 mph ENE3.2 kmh ENE 4.9 mph7.9 kmh 29.80 in1009.1 mb 0.00 in0.0 mm 0.00 in/hr0.0 mm/hr 0.00 in0.0 mm
12:54 PM 61.5°F16.4°C 26.2°F-3.2°C 26% 2.0 mph E3.2 kmh E 4.9 mph7.9 kmh 29.80 in1009.1 mb 0.00 in0.0 mm 0.00 in/hr0.0 mm/hr 0.00 in0.0 mm
12:53 PM 61.2°F16.2°C 26.1°F-3.3°C 26% 2.0 mph ENE3.2 kmh ENE 2.9 mph4.7 kmh 29.80 in1009.1 mb 0.00 in0.0 mm 0.00 in/hr0.0 mm/hr 0.00 in0.0 mm
12:52 PM 61.0°F16.1°C 27.7°F-2.4°C 28% 0.9 mph E1.4 kmh E 2.9 mph4.7 kmh 29.80 in1009.1 mb 0.00 in0.0 mm 0.00 in/hr0.0 mm/hr 0.00 in0.0 mm
12:51 PM 61.0°F16.1°C 26.8°F-2.9°C 27% 0.9 mph E1.4 kmh E 0.9 mph1.4 kmh 29.80 in1009.1 mb 0.00 in0.0 mm 0.00 in/hr0.0 mm/hr 0.00 in0.0 mm
12:50 PM 60.6°F15.9°C 25.5°F-3.6°C 26% 2.0 mph E3.2 kmh E -- 29.80 in1009.1 mb 0.00 in0.0 mm 0.00 in/hr0.0 mm/hr 0.00 in0.0 mm
12:49 PM 60.6°F15.9°C 26.4°F-3.1°C 27% 2.0 mph E3.2 kmh E 2.0 mph3.2 kmh 29.80 in1009.1 mb 0.00 in0.0 mm 0.00 in/hr0.0 mm/hr 0.00 in0.0 mm
12:48 PM 60.6°F15.9°C 25.5°F-3.6°C 26% 2.0 mph E3.2 kmh E 6.0 mph9.7 kmh 29.82 in1009.8 mb 0.00 in0.0 mm 0.00 in/hr0.0 mm/hr 0.00 in0.0 mm
12:47 PM 60.6°F15.9°C 26.4°F-3.1°C 27% 2.0 mph SE3.2 kmh SE 6.0 mph9.7 kmh 29.82 in1009.8 mb 0.00 in0.0 mm 0.00 in/hr0.0 mm/hr 0.00 in0.0 mm
12:46 PM 60.6°F15.9°C 26.4°F-3.1°C 27% 2.0 mph S3.2 kmh S 4.9 mph7.9 kmh 29.82 in1009.8 mb 0.00 in0.0 mm 0.00 in/hr0.0 mm/hr 0.00 in0.0 mm
12:45 PM 61.0°F16.1°C 26.8°F-2.9°C 27% 0.9 mph SE1.4 kmh SE 4.0 mph6.4 kmh 29.82 in1009.8 mb 0.00 in0.0 mm 0.00 in/hr0.0 mm/hr 0.00 in0.0 mm
12:44 PM 61.0°F16.1°C 28.6°F-1.9°C 29% 0.9 mph SE1.4 kmh SE 2.9 mph4.7 kmh 29.82 in1009.8 mb 0.00 in0.0 mm 0.00 in/hr0.0 mm/hr 0.00 in0.0 mm
12:43 PM 60.6°F15.9°C 28.2°F-2.1°C 29% 0.9 mph SSE1.4 kmh SSE 2.9 mph4.7 kmh 29.82 in1009.8 mb 0.00 in0.0 mm 0.00 in/hr0.0 mm/hr 0.00 in0.0 mm
12:42 PM 60.6°F15.9°C 27.3°F-2.6°C 28% 0.9 mph S1.4 kmh S 2.9 mph4.7 kmh 29.82 in1009.8 mb 0.00 in0.0 mm 0.00 in/hr0.0 mm/hr 0.00 in0.0 mm
12:41 PM 61.0°F16.1°C 26.8°F-2.9°C 27% 2.0 mph S3.2 kmh S 6.0 mph9.7 kmh 29.82 in1009.8 mb 0.00 in0.0 mm 0.00 in/hr0.0 mm/hr 0.00 in0.0 mm
12:40 PM 61.0°F16.1°C 25.9°F-3.4°C 26% 0.9 mph SSE1.4 kmh SSE 2.0 mph3.2 kmh 29.82 in1009.8 mb 0.00 in0.0 mm 0.00 in/hr0.0 mm/hr 0.00 in0.0 mm
12:39 PM 61.0°F16.1°C 30.9°F-0.6°C 32% 0.9 mph SSE1.4 kmh SSE 4.0 mph6.4 kmh 29.82 in1009.8 mb 0.00 in0.0 mm 0.00 in/hr0.0 mm/hr 0.00 in0.0 mm
12:38 PM 60.6°F15.9°C 30.6°F-0.8°C 32% 0.9 mph SSE1.4 kmh SSE 4.9 mph7.9 kmh 29.82 in1009.8 mb 0.00 in0.0 mm 0.00 in/hr0.0 mm/hr 0.00 in0.0 mm
12:37 PM 60.4°F15.8°C 28.0°F-2.2°C 29% 0.9 mph E1.4 kmh E 4.9 mph7.9 kmh 29.82 in1009.8 mb 0.00 in0.0 mm 0.00 in/hr0.0 mm/hr 0.00 in0.0 mm
12:36 PM 60.3°F15.7°C 30.2°F-1.0°C 32% 0.9 mph SE1.4 kmh SE 2.9 mph4.7 kmh 29.82 in1009.8 mb 0.00 in0.0 mm 0.00 in/hr0.0 mm/hr 0.00 in0.0 mm
12:35 PM 59.9°F15.5°C 30.0°F-1.1°C 32% 0.9 mph SE1.4 kmh SE 2.9 mph4.7 kmh 29.82 in1009.8 mb 0.00 in0.0 mm 0.00 in/hr0.0 mm/hr 0.00 in0.0 mm
12:34 PM 59.5°F15.3°C 30.4°F-0.9°C 33% 0.9 mph SSE1.4 kmh SSE 4.0 mph6.4 kmh 29.82 in1009.8 mb 0.00 in0.0 mm 0.00 in/hr0.0 mm/hr 0.00 in0.0 mm
12:33 PM 59.2°F15.1°C 27.7°F-2.4°C 30% 2.0 mph SSE3.2 kmh SSE 4.9 mph7.9 kmh 29.83 in1010.2 mb 0.00 in0.0 mm 0.00 in/hr0.0 mm/hr 0.00 in0.0 mm
12:32 PM 59.0°F15.0°C 30.7°F-0.7°C 34% 2.0 mph SSE3.2 kmh SSE 4.9 mph7.9 kmh 29.83 in1010.2 mb 0.00 in0.0 mm 0.00 in/hr0.0 mm/hr 0.00 in0.0 mm
12:31 PM 58.8°F14.9°C 28.9°F-1.7°C 32% 2.0 mph SE3.2 kmh SE 2.0 mph3.2 kmh 29.83 in1010.2 mb 0.00 in0.0 mm 0.00 in/hr0.0 mm/hr 0.00 in0.0 mm
12:30 PM 58.6°F14.8°C 27.3°F-2.6°C 30% 2.0 mph SE3.2 kmh SE 4.0 mph6.4 kmh 29.83 in1010.2 mb 0.00 in0.0 mm 0.00 in/hr0.0 mm/hr 0.00 in0.0 mm
12:29 PM 58.6°F14.8°C 27.3°F-2.6°C 30% 2.0 mph SE3.2 kmh SE 4.0 mph6.4 kmh 29.83 in1010.2 mb 0.00 in0.0 mm 0.00 in/hr0.0 mm/hr 0.00 in0.0 mm
12:28 PM 58.5°F14.7°C 30.2°F-1.0°C 34% 2.0 mph SE3.2 kmh SE 2.9 mph4.7 kmh 29.83 in1010.2 mb 0.00 in0.0 mm 0.00 in/hr0.0 mm/hr 0.00 in0.0 mm
12:27 PM 58.1°F14.5°C 28.4°F-2.0°C 32% 2.0 mph SE3.2 kmh SE 2.9 mph4.7 kmh 29.83 in1010.2 mb 0.00 in0.0 mm 0.00 in/hr0.0 mm/hr 0.00 in0.0 mm
12:26 PM 57.7°F14.3°C 28.0°F-2.2°C 32% 2.0 mph SE3.2 kmh SE 4.0 mph6.4 kmh 29.83 in1010.2 mb 0.00 in0.0 mm 0.00 in/hr0.0 mm/hr 0.00 in0.0 mm
12:25 PM 57.6°F14.2°C 27.1°F-2.7°C 31% 2.0 mph S3.2 kmh S 4.0 mph6.4 kmh 29.83 in1010.2 mb 0.00 in0.0 mm 0.00 in/hr0.0 mm/hr 0.00 in0.0 mm
12:24 PM 57.6°F14.2°C 28.6°F-1.9°C 33% 2.0 mph SSE3.2 kmh SSE 4.0 mph6.4 kmh 29.83 in1010.2 mb 0.00 in0.0 mm 0.00 in/hr0.0 mm/hr 0.00 in0.0 mm
12:23 PM 57.6°F14.2°C 29.5°F-1.4°C 34% 2.0 mph ESE3.2 kmh ESE 6.9 mph11.1 kmh 29.83 in1010.2 mb 0.00 in0.0 mm 0.00 in/hr0.0 mm/hr 0.00 in0.0 mm
12:22 PM 57.4°F14.1°C 30.0°F-1.1°C 35% 2.0 mph SE3.2 kmh SE 4.0 mph6.4 kmh 29.83 in1010.2 mb 0.00 in0.0 mm 0.00 in/hr0.0 mm/hr 0.00 in0.0 mm
12:21 PM 57.0°F13.9°C 30.4°F-0.9°C 36% 2.0 mph SE3.2 kmh SE 4.9 mph7.9 kmh 29.83 in1010.2 mb 0.00 in0.0 mm 0.00 in/hr0.0 mm/hr 0.00 in0.0 mm
12:20 PM 56.8°F13.8°C 28.8°F-1.8°C 34% 2.0 mph SE3.2 kmh SE 4.9 mph7.9 kmh 29.83 in1010.2 mb 0.00 in0.0 mm 0.00 in/hr0.0 mm/hr 0.00 in0.0 mm
12:19 PM 56.7°F13.7°C 30.0°F-1.1°C 36% 0.9 mph ESE1.4 kmh ESE 4.0 mph6.4 kmh 29.84 in1010.5 mb 0.00 in0.0 mm 0.00 in/hr0.0 mm/hr 0.00 in0.0 mm
12:17 PM 56.7°F13.7°C 31.3°F-0.4°C 38% 0.9 mph SE1.4 kmh SE 4.9 mph7.9 kmh 29.84 in1010.5 mb 0.00 in0.0 mm 0.00 in/hr0.0 mm/hr 0.00 in0.0 mm
12:16 PM 56.3°F13.5°C 31.6°F-0.2°C 39% 2.0 mph SSE3.2 kmh SSE 2.9 mph4.7 kmh 29.84 in1010.5 mb 0.00 in0.0 mm 0.00 in/hr0.0 mm/hr 0.00 in0.0 mm
12:15 PM 55.9°F13.3°C 32.5°F0.3°C 41% 2.0 mph SSE3.2 kmh SSE 2.9 mph4.7 kmh 29.84 in1010.5 mb 0.00 in0.0 mm 0.00 in/hr0.0 mm/hr 0.00 in0.0 mm
12:14 PM 55.6°F13.1°C 31.1°F-0.5°C 39% 2.0 mph S3.2 kmh S 6.0 mph9.7 kmh 29.84 in1010.5 mb 0.00 in0.0 mm 0.00 in/hr0.0 mm/hr 0.00 in0.0 mm
12:13 PM 55.2°F12.9°C 30.0°F-1.1°C 38% 2.0 mph ESE3.2 kmh ESE 2.9 mph4.7 kmh 29.84 in1010.5 mb 0.00 in0.0 mm 0.00 in/hr0.0 mm/hr 0.00 in0.0 mm
12:12 PM 55.0°F12.8°C 29.8°F-1.2°C 38% 2.0 mph ESE3.2 kmh ESE 2.9 mph4.7 kmh 29.84 in1010.5 mb 0.00 in0.0 mm 0.00 in/hr0.0 mm/hr 0.00 in0.0 mm
12:11 PM 54.9°F12.7°C 31.6°F-0.2°C 41% 2.0 mph SE3.2 kmh SE 2.9 mph4.7 kmh 29.84 in1010.5 mb 0.00 in0.0 mm 0.00 in/hr0.0 mm/hr 0.00 in0.0 mm
12:10 PM 54.7°F12.6°C 30.2°F-1.0°C 39% 2.0 mph S3.2 kmh S 4.0 mph6.4 kmh 29.84 in1010.5 mb 0.00 in0.0 mm 0.00 in/hr0.0 mm/hr 0.00 in0.0 mm
12:09 PM 54.5°F12.5°C 30.0°F-1.1°C 39% 0.9 mph SE1.4 kmh SE -- 29.84 in1010.5 mb 0.00 in0.0 mm 0.00 in/hr0.0 mm/hr 0.00 in0.0 mm
12:08 PM 54.3°F12.4°C 29.3°F-1.5°C 38% 2.0 mph SE3.2 kmh SE 6.0 mph9.7 kmh 29.84 in1010.5 mb 0.00 in0.0 mm 0.00 in/hr0.0 mm/hr 0.00 in0.0 mm
12:07 PM 54.3°F12.4°C 30.6°F-0.8°C 40% 0.9 mph SE1.4 kmh SE 4.9 mph7.9 kmh 29.84 in1010.5 mb 0.00 in0.0 mm 0.00 in/hr0.0 mm/hr 0.00 in0.0 mm
12:06 PM 54.1°F12.3°C 31.5°F-0.3°C 42% 0.9 mph SE1.4 kmh SE 4.0 mph6.4 kmh 29.84 in1010.5 mb 0.00 in0.0 mm 0.00 in/hr0.0 mm/hr 0.00 in0.0 mm
12:05 PM 54.0°F12.2°C 31.5°F-0.3°C 42% 0.9 mph SE1.4 kmh SE 2.0 mph3.2 kmh 29.84 in1010.5 mb 0.00 in0.0 mm 0.00 in/hr0.0 mm/hr 0.00 in0.0 mm
12:04 PM 53.8°F12.1°C 31.3°F-0.4°C 42% 0.9 mph SE1.4 kmh SE 4.0 mph6.4 kmh 29.84 in1010.5 mb 0.00 in0.0 mm 0.00 in/hr0.0 mm/hr 0.00 in0.0 mm
12:03 PM 53.4°F11.9°C 29.7°F-1.3°C 40% 0.9 mph SE1.4 kmh SE 4.9 mph7.9 kmh 29.85 in1010.8 mb 0.00 in0.0 mm 0.00 in/hr0.0 mm/hr 0.00 in0.0 mm
12:02 PM 53.2°F11.8°C 30.2°F-1.0°C 41% 0.9 mph SE1.4 kmh SE 2.9 mph4.7 kmh 29.85 in1010.8 mb 0.00 in0.0 mm 0.00 in/hr0.0 mm/hr 0.00 in0.0 mm
12:01 PM 53.2°F11.8°C 30.7°F-0.7°C 42% 0.9 mph SE1.4 kmh SE 2.9 mph4.7 kmh 29.85 in1010.8 mb 0.00 in0.0 mm 0.00 in/hr0.0 mm/hr 0.00 in0.0 mm
12:00 PM 53.2°F11.8°C 30.2°F-1.0°C 41% 0.9 mph SE1.4 kmh SE 2.0 mph3.2 kmh 29.85 in1010.8 mb 0.00 in0.0 mm 0.00 in/hr0.0 mm/hr 0.00 in0.0 mm
11:59 AM 53.1°F11.7°C 28.8°F-1.8°C 39% 0.9 mph SE1.4 kmh SE 4.0 mph6.4 kmh 29.85 in1010.8 mb 0.00 in0.0 mm 0.00 in/hr0.0 mm/hr 0.00 in0.0 mm
11:58 AM 53.1°F11.7°C 30.0°F-1.1°C 41% 0.9 mph SE1.4 kmh SE 4.0 mph6.4 kmh 29.85 in1010.8 mb 0.00 in0.0 mm 0.00 in/hr0.0 mm/hr 0.00 in0.0 mm
11:57 AM 53.1°F11.7°C 30.0°F-1.1°C 41% 0.9 mph SE1.4 kmh SE 2.9 mph4.7 kmh 29.85 in1010.8 mb 0.00 in0.0 mm 0.00 in/hr0.0 mm/hr 0.00 in0.0 mm
11:56 AM 52.9°F11.6°C 31.6°F-0.2°C 44% Calm Calm 4.0 mph6.4 kmh 29.85 in1010.8 mb 0.00 in0.0 mm 0.00 in/hr0.0 mm/hr 0.00 in0.0 mm
11:55 AM 52.9°F11.6°C 30.4°F-0.9°C 42% Calm Calm 2.9 mph4.7 kmh 29.85 in1010.8 mb 0.00 in0.0 mm 0.00 in/hr0.0 mm/hr 0.00 in0.0 mm
11:54 AM 52.5°F11.4°C 30.0°F-1.1°C 42% Calm Calm 2.0 mph3.2 kmh 29.85 in1010.8 mb 0.00 in0.0 mm 0.00 in/hr0.0 mm/hr 0.00 in0.0 mm
11:53 AM 52.5°F11.4°C 30.0°F-1.1°C 42% Calm Calm 2.0 mph3.2 kmh 29.85 in1010.8 mb 0.00 in0.0 mm 0.00 in/hr0.0 mm/hr 0.00 in0.0 mm
11:51 AM 52.3°F11.3°C 29.8°F-1.2°C 42% Calm Calm 2.0 mph3.2 kmh 29.85 in1010.8 mb 0.00 in0.0 mm 0.00 in/hr0.0 mm/hr 0.00 in0.0 mm
11:50 AM 52.3°F11.3°C 29.3°F-1.5°C 41% Calm Calm 2.9 mph4.7 kmh 29.85 in1010.8 mb 0.00 in0.0 mm 0.00 in/hr0.0 mm/hr 0.00 in0.0 mm
11:49 AM 52.2°F11.2°C 30.4°F-0.9°C 43% 0.9 mph SE1.4 kmh SE 2.9 mph4.7 kmh 29.85 in1010.8 mb 0.00 in0.0 mm 0.00 in/hr0.0 mm/hr 0.00 in0.0 mm
11:48 AM 52.2°F11.2°C 30.4°F-0.9°C 43% 0.9 mph SE1.4 kmh SE 2.0 mph3.2 kmh 29.86 in1011.2 mb 0.00 in0.0 mm 0.00 in/hr0.0 mm/hr 0.00 in0.0 mm
11:47 AM 52.2°F11.2°C 29.8°F-1.2°C 42% 0.9 mph SE1.4 kmh SE 2.9 mph4.7 kmh 29.86 in1011.2 mb 0.00 in0.0 mm 0.00 in/hr0.0 mm/hr 0.00 in0.0 mm
11:46 AM 52.2°F11.2°C 30.4°F-0.9°C 43% 0.9 mph E1.4 kmh E 2.0 mph3.2 kmh 29.86 in1011.2 mb 0.00 in0.0 mm 0.00 in/hr0.0 mm/hr 0.00 in0.0 mm
11:45 AM 52.2°F11.2°C 30.4°F-0.9°C 43% 0.9 mph E1.4 kmh E 2.9 mph4.7 kmh 29.86 in1011.2 mb 0.00 in0.0 mm 0.00 in/hr0.0 mm/hr 0.00 in0.0 mm
11:44 AM 52.2°F11.2°C 29.8°F-1.2°C 42% 0.9 mph E1.4 kmh E 2.0 mph3.2 kmh 29.86 in1011.2 mb 0.00 in0.0 mm 0.00 in/hr0.0 mm/hr 0.00 in0.0 mm
11:43 AM 52.2°F11.2°C 29.8°F-1.2°C 42% 0.9 mph SE1.4 kmh SE 2.9 mph4.7 kmh 29.86 in1011.2 mb 0.00 in0.0 mm 0.00 in/hr0.0 mm/hr 0.00 in0.0 mm
11:42 AM 52.2°F11.2°C 29.8°F-1.2°C 42% 0.9 mph SE1.4 kmh SE 0.9 mph1.4 kmh 29.86 in1011.2 mb 0.00 in0.0 mm 0.00 in/hr0.0 mm/hr 0.00 in0.0 mm
11:41 AM 52.2°F11.2°C 29.8°F-1.2°C 42% 0.9 mph SE1.4 kmh SE 2.9 mph4.7 kmh 29.86 in1011.2 mb 0.00 in0.0 mm 0.00 in/hr0.0 mm/hr 0.00 in0.0 mm
11:40 AM 52.3°F11.3°C 29.8°F-1.2°C 42% 0.9 mph SE1.4 kmh SE 4.9 mph7.9 kmh 29.86 in1011.2 mb 0.00 in0.0 mm 0.00 in/hr0.0 mm/hr 0.00 in0.0 mm
11:39 AM 52.3°F11.3°C 30.6°F-0.8°C 43% 0.9 mph SE1.4 kmh SE 2.9 mph4.7 kmh 29.86 in1011.2 mb 0.00 in0.0 mm 0.00 in/hr0.0 mm/hr 0.00 in0.0 mm
11:38 AM 52.2°F11.2°C 30.9°F-0.6°C 44% 0.9 mph SE1.4 kmh SE 4.0 mph6.4 kmh 29.86 in1011.2 mb 0.00 in0.0 mm 0.00 in/hr0.0 mm/hr 0.00 in0.0 mm
11:37 AM 52.0°F11.1°C 30.7°F-0.7°C 44% Calm Calm 2.9 mph4.7 kmh 29.86 in1011.2 mb 0.00 in0.0 mm 0.00 in/hr0.0 mm/hr 0.00 in0.0 mm
11:36 AM 52.0°F11.1°C 31.8°F-0.1°C 46% Calm Calm 2.9 mph4.7 kmh 29.86 in1011.2 mb 0.00 in0.0 mm 0.00 in/hr0.0 mm/hr 0.00 in0.0 mm
11:35 AM 52.0°F11.1°C 31.8°F-0.1°C 46% Calm Calm 0.9 mph1.4 kmh 29.86 in1011.2 mb 0.00 in0.0 mm 0.00 in/hr0.0 mm/hr 0.00 in0.0 mm
11:34 AM 51.6°F10.9°C 31.5°F-0.3°C 46% 0.9 mph SE1.4 kmh SE 2.0 mph3.2 kmh 29.86 in1011.2 mb 0.00 in0.0 mm 0.00 in/hr0.0 mm/hr 0.00 in0.0 mm
11:32 AM 51.6°F10.9°C 33.1°F0.6°C 49% 0.9 mph SE1.4 kmh SE 2.9 mph4.7 kmh 29.86 in1011.2 mb 0.00 in0.0 mm 0.00 in/hr0.0 mm/hr 0.00 in0.0 mm
11:31 AM 51.6°F10.9°C 33.1°F0.6°C 49% 0.9 mph SE1.4 kmh SE 4.0 mph6.4 kmh 29.86 in1011.2 mb 0.00 in0.0 mm 0.00 in/hr0.0 mm/hr 0.00 in0.0 mm
11:30 AM 51.3°F10.7°C 34.2°F1.2°C 52% 0.9 mph E1.4 kmh E 2.0 mph3.2 kmh 29.86 in1011.2 mb 0.00 in0.0 mm 0.00 in/hr0.0 mm/hr 0.00 in0.0 mm
11:29 AM 51.1°F10.6°C 34.0°F1.1°C 52% 0.9 mph E1.4 kmh E 2.0 mph3.2 kmh 29.86 in1011.2 mb 0.00 in0.0 mm 0.00 in/hr0.0 mm/hr 0.00 in0.0 mm
11:28 AM 50.7°F10.4°C 33.3°F0.7°C 51% 0.9 mph SE1.4 kmh SE 0.9 mph1.4 kmh 29.86 in1011.2 mb 0.00 in0.0 mm 0.00 in/hr0.0 mm/hr 0.00 in0.0 mm
11:27 AM 50.5°F10.3°C 34.0°F1.1°C 53% 0.9 mph SSE1.4 kmh SSE -- 29.86 in1011.2 mb 0.00 in0.0 mm 0.00 in/hr0.0 mm/hr 0.00 in0.0 mm
11:26 AM 50.2°F10.1°C 32.7°F0.4°C 51% 0.9 mph SSE1.4 kmh SSE 0.9 mph1.4 kmh 29.86 in1011.2 mb 0.00 in0.0 mm 0.00 in/hr0.0 mm/hr 0.00 in0.0 mm
11:25 AM 50.2°F10.1°C 32.2°F0.1°C 50% 0.9 mph SSE1.4 kmh SSE 4.0 mph6.4 kmh 29.86 in1011.2 mb 0.00 in0.0 mm 0.00 in/hr0.0 mm/hr 0.00 in0.0 mm
11:24 AM 50.2°F10.1°C 32.2°F0.1°C 50% 0.9 mph SSE1.4 kmh SSE 4.0 mph6.4 kmh 29.86 in1011.2 mb 0.00 in0.0 mm 0.00 in/hr0.0 mm/hr 0.00 in0.0 mm
11:23 AM 50.2°F10.1°C 32.7°F0.4°C 51% 0.9 mph SSE1.4 kmh SSE 2.9 mph4.7 kmh 29.86 in1011.2 mb 0.00 in0.0 mm 0.00 in/hr0.0 mm/hr 0.00 in0.0 mm
11:22 AM 50.2°F10.1°C 33.3°F0.7°C 52% 0.9 mph SE1.4 kmh SE 4.0 mph6.4 kmh 29.86 in1011.2 mb 0.00 in0.0 mm 0.00 in/hr0.0 mm/hr 0.00 in0.0 mm
11:21 AM 49.8°F9.9°C 34.3°F1.3°C 55% 0.9 mph S1.4 kmh S 0.9 mph1.4 kmh 29.86 in1011.2 mb 0.00 in0.0 mm 0.00 in/hr0.0 mm/hr 0.00 in0.0 mm
11:19 AM 49.6°F9.8°C 34.2°F1.2°C 55% 0.9 mph SE1.4 kmh SE 0.9 mph1.4 kmh 29.86 in1011.2 mb 0.00 in0.0 mm 0.00 in/hr0.0 mm/hr 0.00 in0.0 mm
11:18 AM 49.5°F9.7°C 34.0°F1.1°C 55% 0.9 mph SE1.4 kmh SE 4.9 mph7.9 kmh 29.87 in1011.5 mb 0.00 in0.0 mm 0.00 in/hr0.0 mm/hr 0.00 in0.0 mm
11:17 AM 49.1°F9.5°C 33.6°F0.9°C 55% 0.9 mph SE1.4 kmh SE 2.9 mph4.7 kmh 29.87 in1011.5 mb 0.00 in0.0 mm 0.00 in/hr0.0 mm/hr 0.00 in0.0 mm
11:16 AM 48.9°F9.4°C 33.1°F0.6°C 54% 0.9 mph SE1.4 kmh SE 4.9 mph7.9 kmh 29.87 in1011.5 mb 0.00 in0.0 mm 0.00 in/hr0.0 mm/hr 0.00 in0.0 mm
11:15 AM 48.9°F9.4°C 34.3°F1.3°C 57% 0.9 mph SSE1.4 kmh SSE 2.0 mph3.2 kmh 29.87 in1011.5 mb 0.00 in0.0 mm 0.00 in/hr0.0 mm/hr 0.00 in0.0 mm
11:14 AM 48.6°F9.2°C 33.6°F0.9°C 56% 0.9 mph SE1.4 kmh SE 2.9 mph4.7 kmh 29.87 in1011.5 mb 0.00 in0.0 mm 0.00 in/hr0.0 mm/hr 0.00 in0.0 mm
11:13 AM 48.6°F9.2°C 33.6°F0.9°C 56% 0.9 mph E1.4 kmh E 2.0 mph3.2 kmh 29.87 in1011.5 mb 0.00 in0.0 mm 0.00 in/hr0.0 mm/hr 0.00 in0.0 mm
11:12 AM 48.4°F9.1°C 33.4°F0.8°C 56% 0.9 mph ENE1.4 kmh ENE 0.9 mph1.4 kmh 29.87 in1011.5 mb 0.00 in0.0 mm 0.00 in/hr0.0 mm/hr 0.00 in0.0 mm
11:11 AM 48.2°F9.0°C 33.6°F0.9°C 57% 0.9 mph ENE1.4 kmh ENE 0.9 mph1.4 kmh 29.87 in1011.5 mb 0.00 in0.0 mm 0.00 in/hr0.0 mm/hr 0.00 in0.0 mm
11:10 AM 48.0°F8.9°C 33.4°F0.8°C 57% 0.9 mph ENE1.4 kmh ENE 0.9 mph1.4 kmh 29.87 in1011.5 mb 0.00 in0.0 mm 0.00 in/hr0.0 mm/hr 0.00 in0.0 mm
11:09 AM 47.8°F8.8°C 32.9°F0.5°C 56% 0.9 mph ENE1.4 kmh ENE 2.9 mph4.7 kmh 29.87 in1011.5 mb 0.00 in0.0 mm 0.00 in/hr0.0 mm/hr 0.00 in0.0 mm
11:08 AM 47.7°F8.7°C 32.7°F0.4°C 56% 0.9 mph ENE1.4 kmh ENE 2.9 mph4.7 kmh 29.87 in1011.5 mb 0.00 in0.0 mm 0.00 in/hr0.0 mm/hr 0.00 in0.0 mm
11:07 AM 47.7°F8.7°C 32.4°F0.2°C 55% 0.9 mph ENE1.4 kmh ENE 2.9 mph4.7 kmh 29.87 in1011.5 mb 0.00 in0.0 mm 0.00 in/hr0.0 mm/hr 0.00 in0.0 mm
11:06 AM 47.8°F8.8°C 32.9°F0.5°C 56% 0.9 mph ENE1.4 kmh ENE 4.0 mph6.4 kmh 29.87 in1011.5 mb 0.00 in0.0 mm 0.00 in/hr0.0 mm/hr 0.00 in0.0 mm
11:05 AM 47.8°F8.8°C 32.9°F0.5°C 56% 0.9 mph E1.4 kmh E 8.1 mph13.0 kmh 29.87 in1011.5 mb 0.00 in0.0 mm 0.00 in/hr0.0 mm/hr 0.00 in0.0 mm
11:04 AM 48.0°F8.9°C 33.4°F0.8°C 57% Calm Calm 6.0 mph9.7 kmh 29.87 in1011.5 mb 0.00 in0.0 mm 0.00 in/hr0.0 mm/hr 0.00 in0.0 mm
11:03 AM 47.8°F8.8°C 32.9°F0.5°C 56% Calm Calm 0.9 mph1.4 kmh 29.88 in1011.9 mb 0.00 in0.0 mm 0.00 in/hr0.0 mm/hr 0.00 in0.0 mm
11:02 AM 47.7°F8.7°C 32.7°F0.4°C 56% Calm Calm 2.0 mph3.2 kmh 29.88 in1011.9 mb 0.00 in0.0 mm 0.00 in/hr0.0 mm/hr 0.00 in0.0 mm
11:01 AM 47.5°F8.6°C 32.5°F0.3°C 56% Calm Calm 2.9 mph4.7 kmh 29.88 in1011.9 mb 0.00 in0.0 mm 0.00 in/hr0.0 mm/hr 0.00 in0.0 mm
11:00 AM 47.3°F8.5°C 32.4°F0.2°C 56% Calm Calm 0.9 mph1.4 kmh 29.88 in1011.9 mb 0.00 in0.0 mm 0.00 in/hr0.0 mm/hr 0.00 in0.0 mm
10:58 AM 47.3°F8.5°C 32.4°F0.2°C 56% Calm Calm -- 29.88 in1011.9 mb 0.00 in0.0 mm 0.00 in/hr0.0 mm/hr 0.00 in0.0 mm
10:57 AM 47.1°F8.4°C 32.7°F0.4°C 57% Calm Calm -- 29.88 in1011.9 mb 0.00 in0.0 mm 0.00 in/hr0.0 mm/hr 0.00 in0.0 mm
10:56 AM 46.9°F8.3°C 32.5°F0.3°C 57% Calm Calm 2.0 mph3.2 kmh 29.88 in1011.9 mb 0.00 in0.0 mm 0.00 in/hr0.0 mm/hr 0.00 in0.0 mm
10:55 AM 46.8°F8.2°C 32.7°F0.4°C 58% Calm Calm 2.0 mph3.2 kmh 29.88 in1011.9 mb 0.00 in0.0 mm 0.00 in/hr0.0 mm/hr 0.00 in0.0 mm
10:54 AM 46.6°F8.1°C 32.5°F0.3°C 58% Calm Calm 2.0 mph3.2 kmh 29.88 in1011.9 mb 0.00 in0.0 mm 0.00 in/hr0.0 mm/hr 0.00 in0.0 mm
10:53 AM 46.2°F7.9°C 33.4°F0.8°C 61% Calm Calm 2.0 mph3.2 kmh 29.88 in1011.9 mb 0.00 in0.0 mm 0.00 in/hr0.0 mm/hr 0.00 in0.0 mm
10:52 AM 45.9°F7.7°C 33.3°F0.7°C 61% Calm Calm -- 29.88 in1011.9 mb 0.00 in0.0 mm 0.00 in/hr0.0 mm/hr 0.00 in0.0 mm
10:51 AM 45.5°F7.5°C 33.3°F0.7°C 62% Calm Calm -- 29.88 in1011.9 mb 0.00 in0.0 mm 0.00 in/hr0.0 mm/hr 0.00 in0.0 mm
10:50 AM 45.1°F7.3°C 32.9°F0.5°C 62% Calm Calm -- 29.88 in1011.9 mb 0.00 in0.0 mm 0.00 in/hr0.0 mm/hr 0.00 in0.0 mm
10:49 AM 45.1°F7.3°C 33.3°F0.7°C 63% Calm Calm -- 29.88 in1011.9 mb 0.00 in0.0 mm 0.00 in/hr0.0 mm/hr 0.00 in0.0 mm
10:48 AM 44.8°F7.1°C 33.8°F1.0°C 65% Calm Calm -- 29.90 in1012.5 mb 0.00 in0.0 mm 0.00 in/hr0.0 mm/hr 0.00 in0.0 mm
10:47 AM 44.4°F6.9°C 33.4°F0.8°C 65% Calm Calm -- 29.90 in1012.5 mb 0.00 in0.0 mm 0.00 in/hr0.0 mm/hr 0.00 in0.0 mm
10:46 AM 44.2°F6.8°C 33.6°F0.9°C 66% Calm Calm -- 29.90 in1012.5 mb 0.00 in0.0 mm 0.00 in/hr0.0 mm/hr 0.00 in0.0 mm
10:45 AM 43.9°F6.6°C 32.9°F0.5°C 65% Calm Calm 0.9 mph1.4 kmh 29.90 in1012.5 mb 0.00 in0.0 mm 0.00 in/hr0.0 mm/hr 0.00 in0.0 mm
10:44 AM 43.5°F6.4°C 32.5°F0.3°C 65% Calm Calm -- 29.90 in1012.5 mb 0.00 in0.0 mm 0.00 in/hr0.0 mm/hr 0.00 in0.0 mm
10:43 AM 43.2°F6.2°C 32.2°F0.1°C 65% Calm Calm -- 29.90 in1012.5 mb 0.00 in0.0 mm 0.00 in/hr0.0 mm/hr 0.00 in0.0 mm
10:42 AM 42.8°F6.0°C 31.8°F-0.1°C 65% Calm Calm -- 29.90 in1012.5 mb 0.00 in0.0 mm 0.00 in/hr0.0 mm/hr 0.00 in0.0 mm
10:41 AM 42.3°F5.7°C 31.6°F-0.2°C 66% Calm Calm -- 29.90 in1012.5 mb 0.00 in0.0 mm 0.00 in/hr0.0 mm/hr 0.00 in0.0 mm
10:40 AM 42.1°F5.6°C 32.0°F0.0°C 67% Calm Calm -- 29.90 in1012.5 mb 0.00 in0.0 mm 0.00 in/hr0.0 mm/hr 0.00 in0.0 mm
10:39 AM 41.7°F5.4°C 32.0°F0.0°C 68% - N16091.8 kmh N -- 29.90 in1012.5 mb 0.00 in0.0 mm 0.00 in/hr0.0 mm/hr 0.00 in0.0 mm
10:37 AM 41.5°F5.3°C 31.5°F-0.3°C 67% - N16091.8 kmh N -- 29.90 in1012.5 mb 0.00 in0.0 mm 0.00 in/hr0.0 mm/hr 0.00 in0.0 mm
10:36 AM 41.2°F5.1°C 31.5°F-0.3°C 68% - N16091.8 kmh N -- 29.90 in1012.5 mb 0.00 in0.0 mm 0.00 in/hr0.0 mm/hr 0.00 in0.0 mm
10:35 AM 40.8°F4.9°C 31.1°F-0.5°C 68% - N16091.8 kmh N -- 29.90 in1012.5 mb 0.00 in0.0 mm 0.00 in/hr0.0 mm/hr 0.00 in0.0 mm
10:34 AM 40.6°F4.8°C 31.6°F-0.2°C 70% - N16091.8 kmh N -- 29.90 in1012.5 mb 0.00 in0.0 mm 0.00 in/hr0.0 mm/hr 0.00 in0.0 mm
10:33 AM 40.3°F4.6°C 31.3°F-0.4°C 70% - N16091.8 kmh N -- 29.90 in1012.5 mb 0.00 in0.0 mm 0.00 in/hr0.0 mm/hr 0.00 in0.0 mm
10:32 AM -5537.2°C -5537.2°C - - N16091.8 kmh N -- 29.90 in1012.5 mb 0.00 in0.0 mm 0.00 in/hr0.0 mm/hr 0.00 in0.0 mm
10:31 AM -5537.2°C -5537.2°C - - N16091.8 kmh N -- 29.90 in1012.5 mb 0.00 in0.0 mm 0.00 in/hr0.0 mm/hr 0.00 in0.0 mm
10:29 AM -5537.2°C -5537.2°C - - N16091.8 kmh N -- 29.90 in1012.5 mb 0.00 in0.0 mm 0.00 in/hr0.0 mm/hr 0.00 in0.0 mm
10:28 AM -5537.2°C -5537.2°C - - N16091.8 kmh N -- 29.90 in1012.5 mb 0.00 in0.0 mm 0.00 in/hr0.0 mm/hr 0.00 in0.0 mm
10:27 AM -5537.2°C -5537.2°C - - N16091.8 kmh N -- 29.90 in1012.5 mb 0.00 in0.0 mm 0.00 in/hr0.0 mm/hr 0.00 in0.0 mm
10:26 AM -5537.2°C -5537.2°C - - N16091.8 kmh N -- 29.90 in1012.5 mb 0.00 in0.0 mm 0.00 in/hr0.0 mm/hr 0.00 in0.0 mm
10:24 AM -5537.2°C -5537.2°C - - N16091.8 kmh N -- 29.90 in1012.5 mb 0.00 in0.0 mm 0.00 in/hr0.0 mm/hr 0.00 in0.0 mm
10:23 AM -5537.2°C -5537.2°C - - N16091.8 kmh N -- 29.90 in1012.5 mb 0.00 in0.0 mm 0.00 in/hr0.0 mm/hr 0.00 in0.0 mm
10:22 AM -5537.2°C -5537.2°C - - N16091.8 kmh N -- 29.90 in1012.5 mb 0.00 in0.0 mm 0.00 in/hr0.0 mm/hr 0.00 in0.0 mm
10:21 AM -5537.2°C -5537.2°C - - N16091.8 kmh N -- 29.90 in1012.5 mb 0.00 in0.0 mm 0.00 in/hr0.0 mm/hr 0.00 in0.0 mm
10:19 AM -5537.2°C -5537.2°C - - N16091.8 kmh N -- 29.90 in1012.5 mb 0.00 in0.0 mm 0.00 in/hr0.0 mm/hr 0.00 in0.0 mm
10:17 AM -5537.2°C -5537.2°C - - N16091.8 kmh N -- 29.91 in1012.9 mb 0.00 in0.0 mm 0.00 in/hr0.0 mm/hr 0.00 in0.0 mm
10:15 AM -5537.2°C -5537.2°C - - N16091.8 kmh N -- 29.91 in1012.9 mb 0.00 in0.0 mm 0.00 in/hr0.0 mm/hr 0.00 in0.0 mm
10:14 AM -5537.2°C -5537.2°C - - N16091.8 kmh N -- 29.91 in1012.9 mb 0.00 in0.0 mm 0.00 in/hr0.0 mm/hr 0.00 in0.0 mm
10:13 AM -5537.2°C -5537.2°C - - N16091.8 kmh N -- 29.91 in1012.9 mb 0.00 in0.0 mm 0.00 in/hr0.0 mm/hr 0.00 in0.0 mm
10:12 AM -5537.2°C -5537.2°C - - N16091.8 kmh N -- 29.91 in1012.9 mb 0.00 in0.0 mm 0.00 in/hr0.0 mm/hr 0.00 in0.0 mm
10:10 AM -5537.2°C -5537.2°C - - N16091.8 kmh N -- 29.91 in1012.9 mb 0.00 in0.0 mm 0.00 in/hr0.0 mm/hr 0.00 in0.0 mm
10:09 AM -5537.2°C -5537.2°C - - N16091.8 kmh N -- 29.91 in1012.9 mb 0.00 in0.0 mm 0.00 in/hr0.0 mm/hr 0.00 in0.0 mm
10:08 AM -5537.2°C -5537.2°C - - N16091.8 kmh N -- 29.91 in1012.9 mb 0.00 in0.0 mm 0.00 in/hr0.0 mm/hr 0.00 in0.0 mm
10:07 AM -5537.2°C -5537.2°C - - N16091.8 kmh N -- 29.91 in1012.9 mb 0.00 in0.0 mm 0.00 in/hr0.0 mm/hr 0.00 in0.0 mm
10:05 AM -5537.2°C -5537.2°C - - N16091.8 kmh N -- 29.91 in1012.9 mb 0.00 in0.0 mm 0.00 in/hr0.0 mm/hr 0.00 in0.0 mm
10:03 AM -5537.2°C -5537.2°C - - N16091.8 kmh N -- 29.91 in1012.9 mb 0.00 in0.0 mm 0.00 in/hr0.0 mm/hr 0.00 in0.0 mm
10:02 AM -5537.2°C -5537.2°C - - N16091.8 kmh N -- 29.91 in1012.9 mb 0.00 in0.0 mm 0.00 in/hr0.0 mm/hr 0.00 in0.0 mm
10:01 AM -5537.2°C -5537.2°C - - N16091.8 kmh N -- 29.91 in1012.9 mb 0.00 in0.0 mm 0.00 in/hr0.0 mm/hr 0.00 in0.0 mm
09:59 AM -5537.2°C -5537.2°C - - N16091.8 kmh N -- 29.91 in1012.9 mb 0.00 in0.0 mm 0.00 in/hr0.0 mm/hr 0.00 in0.0 mm
09:57 AM -5537.2°C -5537.2°C - - N16091.8 kmh N -- 29.91 in1012.9 mb 0.00 in0.0 mm 0.00 in/hr0.0 mm/hr 0.00 in0.0 mm
09:56 AM -5537.2°C -5537.2°C - - N16091.8 kmh N -- 29.91 in1012.9 mb 0.00 in0.0 mm 0.00 in/hr0.0 mm/hr 0.00 in0.0 mm
09:55 AM -5537.2°C -5537.2°C - - N16091.8 kmh N -- 29.91 in1012.9 mb 0.00 in0.0 mm 0.00 in/hr0.0 mm/hr 0.00 in0.0 mm
09:54 AM -5537.2°C -5537.2°C - - N16091.8 kmh N -- 29.91 in1012.9 mb 0.00 in0.0 mm 0.00 in/hr0.0 mm/hr 0.00 in0.0 mm
09:53 AM -5537.2°C -5537.2°C - - N16091.8 kmh N -- 29.91 in1012.9 mb 0.00 in0.0 mm 0.00 in/hr0.0 mm/hr 0.00 in0.0 mm
09:51 AM -5537.2°C -5537.2°C - - N16091.8 kmh N -- 29.91 in1012.9 mb 0.00 in0.0 mm 0.00 in/hr0.0 mm/hr 0.00 in0.0 mm
09:50 AM -5537.2°C -5537.2°C - - N16091.8 kmh N -- 29.91 in1012.9 mb 0.00 in0.0 mm 0.00 in/hr0.0 mm/hr 0.00 in0.0 mm
09:49 AM -5537.2°C -5537.2°C - - N16091.8 kmh N -- 29.91 in1012.9 mb 0.00 in0.0 mm 0.00 in/hr0.0 mm/hr 0.00 in0.0 mm
09:48 AM -5537.2°C -5537.2°C - - N16091.8 kmh N -- 29.91 in1012.9 mb 0.00 in0.0 mm 0.00 in/hr0.0 mm/hr 0.00 in0.0 mm
09:46 AM -5537.2°C -5537.2°C - - N16091.8 kmh N -- 29.91 in1012.9 mb 0.00 in0.0 mm 0.00 in/hr0.0 mm/hr 0.00 in0.0 mm
09:45 AM -5537.2°C -5537.2°C - - N16091.8 kmh N -- 29.91 in1012.9 mb 0.00 in0.0 mm 0.00 in/hr0.0 mm/hr 0.00 in0.0 mm
09:44 AM -5537.2°C -5537.2°C - - N16091.8 kmh N -- 29.91 in1012.9 mb 0.00 in0.0 mm 0.00 in/hr0.0 mm/hr 0.00 in0.0 mm
09:43 AM -5537.2°C -5537.2°C - - N16091.8 kmh N -- 29.91 in1012.9 mb 0.00 in0.0 mm 0.00 in/hr0.0 mm/hr 0.00 in0.0 mm
09:41 AM -5537.2°C -5537.2°C - - N16091.8 kmh N -- 29.91 in1012.9 mb 0.00 in0.0 mm 0.00 in/hr0.0 mm/hr 0.00 in0.0 mm
09:40 AM -5537.2°C -5537.2°C - - N16091.8 kmh N -- 29.91 in1012.9 mb 0.00 in0.0 mm 0.00 in/hr0.0 mm/hr 0.00 in0.0 mm
09:38 AM -5537.2°C -5537.2°C - - N16091.8 kmh N -- 29.91 in1012.9 mb 0.00 in0.0 mm 0.00 in/hr0.0 mm/hr 0.00 in0.0 mm
09:37 AM -5537.2°C -5537.2°C - - N16091.8 kmh N -- 29.91 in1012.9 mb 0.00 in0.0 mm 0.00 in/hr0.0 mm/hr 0.00 in0.0 mm
09:36 AM -5537.2°C -5537.2°C - - N16091.8 kmh N -- 29.91 in1012.9 mb 0.00 in0.0 mm 0.00 in/hr0.0 mm/hr 0.00 in0.0 mm
09:35 AM -5537.2°C -5537.2°C - - N16091.8 kmh N -- 29.91 in1012.9 mb 0.00 in0.0 mm 0.00 in/hr0.0 mm/hr 0.00 in0.0 mm
09:34 AM -5537.2°C -5537.2°C - - N16091.8 kmh N -- 29.91 in1012.9 mb 0.00 in0.0 mm 0.00 in/hr0.0 mm/hr 0.00 in0.0 mm
09:33 AM -5537.2°C -5537.2°C - - N16091.8 kmh N -- 29.91 in1012.9 mb 0.00 in0.0 mm 0.00 in/hr0.0 mm/hr 0.00 in0.0 mm
09:31 AM -5537.2°C -5537.2°C - - N16091.8 kmh N -- 29.91 in1012.9 mb 0.00 in0.0 mm 0.00 in/hr0.0 mm/hr 0.00 in0.0 mm
09:30 AM -5537.2°C -5537.2°C - - N16091.8 kmh N -- 29.91 in1012.9 mb 0.00 in0.0 mm 0.00 in/hr0.0 mm/hr 0.00 in0.0 mm
09:28 AM -5537.2°C -5537.2°C - - N16091.8 kmh N -- 29.91 in1012.9 mb 0.00 in0.0 mm 0.00 in/hr0.0 mm/hr 0.00 in0.0 mm
09:27 AM -5537.2°C -5537.2°C - - N16091.8 kmh N -- 29.91 in1012.9 mb 0.00 in0.0 mm 0.00 in/hr0.0 mm/hr 0.00 in0.0 mm
09:26 AM -5537.2°C -5537.2°C - - N16091.8 kmh N -- 29.91 in1012.9 mb 0.00 in0.0 mm 0.00 in/hr0.0 mm/hr 0.00 in0.0 mm
09:24 AM -5537.2°C -5537.2°C - - N16091.8 kmh N -- 29.91 in1012.9 mb 0.00 in0.0 mm 0.00 in/hr0.0 mm/hr 0.00 in0.0 mm
09:23 AM -5537.2°C -5537.2°C - - N16091.8 kmh N -- 29.91 in1012.9 mb 0.00 in0.0 mm 0.00 in/hr0.0 mm/hr 0.00 in0.0 mm
09:22 AM -5537.2°C -5537.2°C - - N16091.8 kmh N -- 29.91 in1012.9 mb 0.00 in0.0 mm 0.00 in/hr0.0 mm/hr 0.00 in0.0 mm
09:20 AM -5537.2°C -5537.2°C - - N16091.8 kmh N -- 29.91 in1012.9 mb 0.00 in0.0 mm 0.00 in/hr0.0 mm/hr 0.00 in0.0 mm
09:18 AM -5537.2°C -5537.2°C - - N16091.8 kmh N -- 29.92 in1013.2 mb 0.00 in0.0 mm 0.00 in/hr0.0 mm/hr 0.00 in0.0 mm
09:17 AM -5537.2°C -5537.2°C - - N16091.8 kmh N -- 29.92 in1013.2 mb 0.00 in0.0 mm 0.00 in/hr0.0 mm/hr 0.00 in0.0 mm
09:16 AM -5537.2°C -5537.2°C - - N16091.8 kmh N -- 29.92 in1013.2 mb 0.00 in0.0 mm 0.00 in/hr0.0 mm/hr 0.00 in0.0 mm
09:15 AM -5537.2°C -5537.2°C - - N16091.8 kmh N -- 29.92 in1013.2 mb 0.00 in0.0 mm 0.00 in/hr0.0 mm/hr 0.00 in0.0 mm
09:14 AM -5537.2°C -5537.2°C - - N16091.8 kmh N -- 29.92 in1013.2 mb 0.00 in0.0 mm 0.00 in/hr0.0 mm/hr 0.00 in0.0 mm
09:12 AM -5537.2°C -5537.2°C - - N16091.8 kmh N -- 29.92 in1013.2 mb 0.00 in0.0 mm 0.00 in/hr0.0 mm/hr 0.00 in0.0 mm
09:11 AM -5537.2°C -5537.2°C - - N16091.8 kmh N -- 29.92 in1013.2 mb 0.00 in0.0 mm 0.00 in/hr0.0 mm/hr 0.00 in0.0 mm
09:10 AM -5537.2°C -5537.2°C - - N16091.8 kmh N -- 29.92 in1013.2 mb 0.00 in0.0 mm 0.00 in/hr0.0 mm/hr 0.00 in0.0 mm
09:08 AM -5537.2°C -5537.2°C - - N16091.8 kmh N -- 29.92 in1013.2 mb 0.00 in0.0 mm 0.00 in/hr0.0 mm/hr 0.00 in0.0 mm
09:06 AM -5537.2°C -5537.2°C - - N16091.8 kmh N -- 29.92 in1013.2 mb 0.00 in0.0 mm 0.00 in/hr0.0 mm/hr 0.00 in0.0 mm
09:05 AM -5537.2°C -5537.2°C - - N16091.8 kmh N -- 29.92 in1013.2 mb 0.00 in0.0 mm 0.00 in/hr0.0 mm/hr 0.00 in0.0 mm
09:04 AM -5537.2°C -5537.2°C - - N16091.8 kmh N -- 29.92 in1013.2 mb 0.00 in0.0 mm 0.00 in/hr0.0 mm/hr 0.00 in0.0 mm
09:02 AM -5537.2°C -5537.2°C - - N16091.8 kmh N -- 29.94 in1013.9 mb 0.00 in0.0 mm 0.00 in/hr0.0 mm/hr 0.00 in0.0 mm
09:01 AM -5537.2°C -5537.2°C - - N16091.8 kmh N -- 29.94 in1013.9 mb 0.00 in0.0 mm 0.00 in/hr0.0 mm/hr 0.00 in0.0 mm
09:00 AM -5537.2°C -5537.2°C - - N16091.8 kmh N -- 29.94 in1013.9 mb 0.00 in0.0 mm 0.00 in/hr0.0 mm/hr 0.00 in0.0 mm
08:59 AM -5537.2°C -5537.2°C - - N16091.8 kmh N -- 29.94 in1013.9 mb 0.00 in0.0 mm 0.00 in/hr0.0 mm/hr 0.00 in0.0 mm
08:58 AM -5537.2°C -5537.2°C - - N16091.8 kmh N -- 29.94 in1013.9 mb 0.00 in0.0 mm 0.00 in/hr0.0 mm/hr 0.00 in0.0 mm
08:57 AM -5537.2°C -5537.2°C - - N16091.8 kmh N -- 29.94 in1013.9 mb 0.00 in0.0 mm 0.00 in/hr0.0 mm/hr 0.00 in0.0 mm
08:56 AM -5537.2°C -5537.2°C - - N16091.8 kmh N -- 29.94 in1013.9 mb 0.00 in0.0 mm 0.00 in/hr0.0 mm/hr 0.00 in0.0 mm
08:54 AM -5537.2°C -5537.2°C - - N16091.8 kmh N -- 29.94 in1013.9 mb 0.00 in0.0 mm 0.00 in/hr0.0 mm/hr 0.00 in0.0 mm
08:52 AM -5537.2°C -5537.2°C - - N16091.8 kmh N -- 29.94 in1013.9 mb 0.00 in0.0 mm 0.00 in/hr0.0 mm/hr 0.00 in0.0 mm
08:50 AM -5537.2°C -5537.2°C - - N16091.8 kmh N -- 29.94 in1013.9 mb 0.00 in0.0 mm 0.00 in/hr0.0 mm/hr 0.00 in0.0 mm
08:49 AM -5537.2°C -5537.2°C - - N16091.8 kmh N -- 29.94 in1013.9 mb 0.00 in0.0 mm 0.00 in/hr0.0 mm/hr 0.00 in0.0 mm
08:47 AM -5537.2°C -5537.2°C - - N16091.8 kmh N -- 29.94 in1013.9 mb 0.00 in0.0 mm 0.00 in/hr0.0 mm/hr 0.00 in0.0 mm
08:46 AM -5537.2°C -5537.2°C - - N16091.8 kmh N -- 29.94 in1013.9 mb 0.00 in0.0 mm 0.00 in/hr0.0 mm/hr 0.00 in0.0 mm
08:44 AM -5537.2°C -5537.2°C - - N16091.8 kmh N -- 29.94 in1013.9 mb 0.00 in0.0 mm 0.00 in/hr0.0 mm/hr 0.00 in0.0 mm
08:43 AM -5537.2°C -5537.2°C - - N16091.8 kmh N -- 29.94 in1013.9 mb 0.00 in0.0 mm 0.00 in/hr0.0 mm/hr 0.00 in0.0 mm
08:42 AM -5537.2°C -5537.2°C - - N16091.8 kmh N -- 29.94 in1013.9 mb 0.00 in0.0 mm 0.00 in/hr0.0 mm/hr 0.00 in0.0 mm
08:40 AM -5537.2°C -5537.2°C - - N16091.8 kmh N -- 29.94 in1013.9 mb 0.00 in0.0 mm 0.00 in/hr0.0 mm/hr 0.00 in0.0 mm
08:39 AM -5537.2°C -5537.2°C - - N16091.8 kmh N -- 29.94 in1013.9 mb 0.00 in0.0 mm 0.00 in/hr0.0 mm/hr 0.00 in0.0 mm
08:38 AM -5537.2°C -5537.2°C - - N16091.8 kmh N -- 29.94 in1013.9 mb 0.00 in0.0 mm 0.00 in/hr0.0 mm/hr 0.00 in0.0 mm
08:37 AM -5537.2°C -5537.2°C - - N16091.8 kmh N -- 29.94 in1013.9 mb 0.00 in0.0 mm 0.00 in/hr0.0 mm/hr 0.00 in0.0 mm
08:35 AM -5537.2°C -5537.2°C - - N16091.8 kmh N -- 29.94 in1013.9 mb 0.00 in0.0 mm 0.00 in/hr0.0 mm/hr 0.00 in0.0 mm
08:33 AM -5537.2°C -5537.2°C - - N16091.8 kmh N -- 29.95 in1014.2 mb 0.00 in0.0 mm 0.00 in/hr0.0 mm/hr 0.00 in0.0 mm
08:32 AM -5537.2°C -5537.2°C - - N16091.8 kmh N -- 29.95 in1014.2 mb 0.00 in0.0 mm 0.00 in/hr0.0 mm/hr 0.00 in0.0 mm
08:30 AM -5537.2°C -5537.2°C - - N16091.8 kmh N -- 29.95 in1014.2 mb 0.00 in0.0 mm 0.00 in/hr0.0 mm/hr 0.00 in0.0 mm
08:29 AM -5537.2°C -5537.2°C - - N16091.8 kmh N -- 29.95 in1014.2 mb 0.00 in0.0 mm 0.00 in/hr0.0 mm/hr 0.00 in0.0 mm
08:28 AM -5537.2°C -5537.2°C - - N16091.8 kmh N -- 29.95 in1014.2 mb 0.00 in0.0 mm 0.00 in/hr0.0 mm/hr 0.00 in0.0 mm
08:27 AM -5537.2°C -5537.2°C - - N16091.8 kmh N -- 29.95 in1014.2 mb 0.00 in0.0 mm 0.00 in/hr0.0 mm/hr 0.00 in0.0 mm
08:26 AM -5537.2°C -5537.2°C - - N16091.8 kmh N -- 29.95 in1014.2 mb 0.00 in0.0 mm 0.00 in/hr0.0 mm/hr 0.00 in0.0 mm
08:25 AM -5537.2°C -5537.2°C - - N16091.8 kmh N -- 29.95 in1014.2 mb 0.00 in0.0 mm 0.00 in/hr0.0 mm/hr 0.00 in0.0 mm
08:23 AM -5537.2°C -5537.2°C - - N16091.8 kmh N -- 29.95 in1014.2 mb 0.00 in0.0 mm 0.00 in/hr0.0 mm/hr 0.00 in0.0 mm
08:22 AM -5537.2°C -5537.2°C - - N16091.8 kmh N -- 29.95 in1014.2 mb 0.00 in0.0 mm 0.00 in/hr0.0 mm/hr 0.00 in0.0 mm
08:21 AM -5537.2°C -5537.2°C - - N16091.8 kmh N -- 29.95 in1014.2 mb 0.00 in0.0 mm 0.00 in/hr0.0 mm/hr 0.00 in0.0 mm
08:20 AM -5537.2°C -5537.2°C - - N16091.8 kmh N -- 29.95 in1014.2 mb 0.00 in0.0 mm 0.00 in/hr0.0 mm/hr 0.00 in0.0 mm
08:19 AM -5537.2°C -5537.2°C - - N16091.8 kmh N -- 29.95 in1014.2 mb 0.00 in0.0 mm 0.00 in/hr0.0 mm/hr 0.00 in0.0 mm
08:17 AM -5537.2°C -5537.2°C - - N16091.8 kmh N -- 29.94 in1013.9 mb 0.00 in0.0 mm 0.00 in/hr0.0 mm/hr 0.00 in0.0 mm
08:15 AM -5537.2°C -5537.2°C - - N16091.8 kmh N -- 29.94 in1013.9 mb 0.00 in0.0 mm 0.00 in/hr0.0 mm/hr 0.00 in0.0 mm
08:14 AM -5537.2°C -5537.2°C - - N16091.8 kmh N -- 29.94 in1013.9 mb 0.00 in0.0 mm 0.00 in/hr0.0 mm/hr 0.00 in0.0 mm
08:12 AM -5537.2°C -5537.2°C - - N16091.8 kmh N -- 29.94 in1013.9 mb 0.00 in0.0 mm 0.00 in/hr0.0 mm/hr 0.00 in0.0 mm
08:11 AM -5537.2°C -5537.2°C - - N16091.8 kmh N -- 29.94 in1013.9 mb 0.00 in0.0 mm 0.00 in/hr0.0 mm/hr 0.00 in0.0 mm
08:10 AM -5537.2°C -5537.2°C - - N16091.8 kmh N -- 29.94 in1013.9 mb 0.00 in0.0 mm 0.00 in/hr0.0 mm/hr 0.00 in0.0 mm
08:08 AM -5537.2°C -5537.2°C - - N16091.8 kmh N -- 29.94 in1013.9 mb 0.00 in0.0 mm 0.00 in/hr0.0 mm/hr 0.00 in0.0 mm
08:07 AM -5537.2°C -5537.2°C - - N16091.8 kmh N -- 29.94 in1013.9 mb 0.00 in0.0 mm 0.00 in/hr0.0 mm/hr 0.00 in0.0 mm
08:05 AM -5537.2°C -5537.2°C - - N16091.8 kmh N -- 29.94 in1013.9 mb 0.00 in0.0 mm 0.00 in/hr0.0 mm/hr 0.00 in0.0 mm
08:04 AM -5537.2°C -5537.2°C - - N16091.8 kmh N -- 29.94 in1013.9 mb 0.00 in0.0 mm 0.00 in/hr0.0 mm/hr 0.00 in0.0 mm
08:03 AM -5537.2°C -5537.2°C - - N16091.8 kmh N -- 29.95 in1014.2 mb 0.00 in0.0 mm 0.00 in/hr0.0 mm/hr 0.00 in0.0 mm
08:01 AM -5537.2°C -5537.2°C - - N16091.8 kmh N -- 29.95 in1014.2 mb 0.00 in0.0 mm 0.00 in/hr0.0 mm/hr 0.00 in0.0 mm
08:00 AM -5537.2°C -5537.2°C - - N16091.8 kmh N -- 29.95 in1014.2 mb 0.00 in0.0 mm 0.00 in/hr0.0 mm/hr 0.00 in0.0 mm
07:58 AM -5537.2°C -5537.2°C - - N16091.8 kmh N -- 29.95 in1014.2 mb 0.00 in0.0 mm 0.00 in/hr0.0 mm/hr 0.00 in0.0 mm
07:57 AM -5537.2°C -5537.2°C - - N16091.8 kmh N -- 29.95 in1014.2 mb 0.00 in0.0 mm 0.00 in/hr0.0 mm/hr 0.00 in0.0 mm
07:56 AM -5537.2°C -5537.2°C - - N16091.8 kmh N -- 29.95 in1014.2 mb 0.00 in0.0 mm 0.00 in/hr0.0 mm/hr 0.00 in0.0 mm
07:54 AM -5537.2°C -5537.2°C - - N16091.8 kmh N -- 29.95 in1014.2 mb 0.00 in0.0 mm 0.00 in/hr0.0 mm/hr 0.00 in0.0 mm
07:53 AM -5537.2°C -5537.2°C - - N16091.8 kmh N -- 29.95 in1014.2 mb 0.00 in0.0 mm 0.00 in/hr0.0 mm/hr 0.00 in0.0 mm
07:51 AM -5537.2°C -5537.2°C - - N16091.8 kmh N -- 29.95 in1014.2 mb 0.00 in0.0 mm 0.00 in/hr0.0 mm/hr 0.00 in0.0 mm
07:50 AM -5537.2°C -5537.2°C - - N16091.8 kmh N -- 29.95 in1014.2 mb 0.00 in0.0 mm 0.00 in/hr0.0 mm/hr 0.00 in0.0 mm
07:49 AM -5537.2°C -5537.2°C - - N16091.8 kmh N -- 29.95 in1014.2 mb 0.00 in0.0 mm 0.00 in/hr0.0 mm/hr 0.00 in0.0 mm
07:48 AM -5537.2°C -5537.2°C - - N16091.8 kmh N -- 29.95 in1014.2 mb 0.00 in0.0 mm 0.00 in/hr0.0 mm/hr 0.00 in0.0 mm
07:47 AM -5537.2°C -5537.2°C - - N16091.8 kmh N -- 29.95 in1014.2 mb 0.00 in0.0 mm 0.00 in/hr0.0 mm/hr 0.00 in0.0 mm
07:46 AM -5537.2°C -5537.2°C - - N16091.8 kmh N -- 29.95 in1014.2 mb 0.00 in0.0 mm 0.00 in/hr0.0 mm/hr 0.00 in0.0 mm
07:45 AM -5537.2°C -5537.2°C - - N16091.8 kmh N -- 29.95 in1014.2 mb 0.00 in0.0 mm 0.00 in/hr0.0 mm/hr 0.00 in0.0 mm
07:43 AM -5537.2°C -5537.2°C - - N16091.8 kmh N -- 29.95 in1014.2 mb 0.00 in0.0 mm 0.00 in/hr0.0 mm/hr 0.00 in0.0 mm
07:41 AM -5537.2°C -5537.2°C - - N16091.8 kmh N -- 29.95 in1014.2 mb 0.00 in0.0 mm 0.00 in/hr0.0 mm/hr 0.00 in0.0 mm
07:40 AM -5537.2°C -5537.2°C - - N16091.8 kmh N -- 29.95 in1014.2 mb 0.00 in0.0 mm 0.00 in/hr0.0 mm/hr 0.00 in0.0 mm
07:39 AM -5537.2°C -5537.2°C - - N16091.8 kmh N -- 29.95 in1014.2 mb 0.00 in0.0 mm 0.00 in/hr0.0 mm/hr 0.00 in0.0 mm
07:37 AM -5537.2°C -5537.2°C - - N16091.8 kmh N -- 29.95 in1014.2 mb 0.00 in0.0 mm 0.00 in/hr0.0 mm/hr 0.00 in0.0 mm
07:36 AM -5537.2°C -5537.2°C - - N16091.8 kmh N -- 29.95 in1014.2 mb 0.00 in0.0 mm 0.00 in/hr0.0 mm/hr 0.00 in0.0 mm
07:35 AM -5537.2°C -5537.2°C - - N16091.8 kmh N -- 29.95 in1014.2 mb 0.00 in0.0 mm 0.00 in/hr0.0 mm/hr 0.00 in0.0 mm
07:33 AM -5537.2°C -5537.2°C - - N16091.8 kmh N -- 29.96 in1014.6 mb 0.00 in0.0 mm 0.00 in/hr0.0 mm/hr 0.00 in0.0 mm
07:32 AM -5537.2°C -5537.2°C - - N16091.8 kmh N -- 29.96 in1014.6 mb 0.00 in0.0 mm 0.00 in/hr0.0 mm/hr 0.00 in0.0 mm
07:31 AM -5537.2°C -5537.2°C - - N16091.8 kmh N -- 29.96 in1014.6 mb 0.00 in0.0 mm 0.00 in/hr0.0 mm/hr 0.00 in0.0 mm
07:30 AM -5537.2°C -5537.2°C - - N16091.8 kmh N -- 29.96 in1014.6 mb 0.00 in0.0 mm 0.00 in/hr0.0 mm/hr 0.00 in0.0 mm
07:29 AM -5537.2°C -5537.2°C - - N16091.8 kmh N -- 29.96 in1014.6 mb 0.00 in0.0 mm 0.00 in/hr0.0 mm/hr 0.00 in0.0 mm
07:28 AM -5537.2°C -5537.2°C - - N16091.8 kmh N -- 29.96 in1014.6 mb 0.00 in0.0 mm 0.00 in/hr0.0 mm/hr 0.00 in0.0 mm
07:26 AM -5537.2°C -5537.2°C - - N16091.8 kmh N -- 29.96 in1014.6 mb 0.00 in0.0 mm 0.00 in/hr0.0 mm/hr 0.00 in0.0 mm
07:24 AM -5537.2°C -5537.2°C - - N16091.8 kmh N -- 29.96 in1014.6 mb 0.00 in0.0 mm 0.00 in/hr0.0 mm/hr 0.00 in0.0 mm
07:23 AM -5537.2°C -5537.2°C - - N16091.8 kmh N -- 29.96 in1014.6 mb 0.00 in0.0 mm 0.00 in/hr0.0 mm/hr 0.00 in0.0 mm
07:22 AM -5537.2°C -5537.2°C - - N16091.8 kmh N -- 29.96 in1014.6 mb 0.00 in0.0 mm 0.00 in/hr0.0 mm/hr 0.00 in0.0 mm
07:21 AM -5537.2°C -5537.2°C - - N16091.8 kmh N -- 29.96 in1014.6 mb 0.00 in0.0 mm 0.00 in/hr0.0 mm/hr 0.00 in0.0 mm
07:20 AM -5537.2°C -5537.2°C - - N16091.8 kmh N -- 29.96 in1014.6 mb 0.00 in0.0 mm 0.00 in/hr0.0 mm/hr 0.00 in0.0 mm
07:18 AM -5537.2°C -5537.2°C - - N16091.8 kmh N -- 29.97 in1014.9 mb 0.00 in0.0 mm 0.00 in/hr0.0 mm/hr 0.00 in0.0 mm
07:17 AM -5537.2°C -5537.2°C - - N16091.8 kmh N -- 29.97 in1014.9 mb 0.00 in0.0 mm 0.00 in/hr0.0 mm/hr 0.00 in0.0 mm
07:16 AM -5537.2°C -5537.2°C - - N16091.8 kmh N -- 29.97 in1014.9 mb 0.00 in0.0 mm 0.00 in/hr0.0 mm/hr 0.00 in0.0 mm
07:15 AM -5537.2°C -5537.2°C - - N16091.8 kmh N -- 29.97 in1014.9 mb 0.00 in0.0 mm 0.00 in/hr0.0 mm/hr 0.00 in0.0 mm
07:14 AM -5537.2°C -5537.2°C - - N16091.8 kmh N -- 29.97 in1014.9 mb 0.00 in0.0 mm 0.00 in/hr0.0 mm/hr 0.00 in0.0 mm
07:13 AM -5537.2°C -5537.2°C - - N16091.8 kmh N -- 29.97 in1014.9 mb 0.00 in0.0 mm 0.00 in/hr0.0 mm/hr 0.00 in0.0 mm
07:12 AM -5537.2°C -5537.2°C - - N16091.8 kmh N -- 29.97 in1014.9 mb 0.00 in0.0 mm 0.00 in/hr0.0 mm/hr 0.00 in0.0 mm
07:11 AM -5537.2°C -5537.2°C - - N16091.8 kmh N -- 29.97 in1014.9 mb 0.00 in0.0 mm 0.00 in/hr0.0 mm/hr 0.00 in0.0 mm
07:10 AM -5537.2°C -5537.2°C - - N16091.8 kmh N -- 29.97 in1014.9 mb 0.00 in0.0 mm 0.00 in/hr0.0 mm/hr 0.00 in0.0 mm
07:08 AM -5537.2°C -5537.2°C - - N16091.8 kmh N -- 29.97 in1014.9 mb 0.00 in0.0 mm 0.00 in/hr0.0 mm/hr 0.00 in0.0 mm
07:07 AM -5537.2°C -5537.2°C - - N16091.8 kmh N -- 29.97 in1014.9 mb 0.00 in0.0 mm 0.00 in/hr0.0 mm/hr 0.00 in0.0 mm
07:06 AM -5537.2°C -5537.2°C - - N16091.8 kmh N -- 29.97 in1014.9 mb 0.00 in0.0 mm 0.00 in/hr0.0 mm/hr 0.00 in0.0 mm
07:05 AM -5537.2°C -5537.2°C - - N16091.8 kmh N -- 29.97 in1014.9 mb 0.00 in0.0 mm 0.00 in/hr0.0 mm/hr 0.00 in0.0 mm
07:03 AM -5537.2°C -5537.2°C - - N16091.8 kmh N -- 29.98 in1015.2 mb 0.00 in0.0 mm 0.00 in/hr0.0 mm/hr 0.00 in0.0 mm
07:02 AM -5537.2°C -5537.2°C - - N16091.8 kmh N -- 29.98 in1015.2 mb 0.00 in0.0 mm 0.00 in/hr0.0 mm/hr 0.00 in0.0 mm
07:01 AM -5537.2°C -5537.2°C - - N16091.8 kmh N -- 29.98 in1015.2 mb 0.00 in0.0 mm 0.00 in/hr0.0 mm/hr 0.00 in0.0 mm
07:00 AM -5537.2°C -5537.2°C - - N16091.8 kmh N -- 29.98 in1015.2 mb 0.00 in0.0 mm 0.00 in/hr0.0 mm/hr 0.00 in0.0 mm
06:58 AM -5537.2°C -5537.2°C - - N16091.8 kmh N -- 29.98 in1015.2 mb 0.00 in0.0 mm 0.00 in/hr0.0 mm/hr 0.00 in0.0 mm
06:57 AM -5537.2°C -5537.2°C - - N16091.8 kmh N -- 29.98 in1015.2 mb 0.00 in0.0 mm 0.00 in/hr0.0 mm/hr 0.00 in0.0 mm
06:56 AM -5537.2°C -5537.2°C - - N16091.8 kmh N -- 29.98 in1015.2 mb 0.00 in0.0 mm 0.00 in/hr0.0 mm/hr 0.00 in0.0 mm
06:54 AM -5537.2°C -5537.2°C - - N16091.8 kmh N -- 29.98 in1015.2 mb 0.00 in0.0 mm 0.00 in/hr0.0 mm/hr 0.00 in0.0 mm
06:53 AM -5537.2°C -5537.2°C - - N16091.8 kmh N -- 29.98 in1015.2 mb 0.00 in0.0 mm 0.00 in/hr0.0 mm/hr 0.00 in0.0 mm
06:51 AM -5537.2°C -5537.2°C - - N16091.8 kmh N -- 29.98 in1015.2 mb 0.00 in0.0 mm 0.00 in/hr0.0 mm/hr 0.00 in0.0 mm
06:50 AM -5537.2°C -5537.2°C - - N16091.8 kmh N -- 29.98 in1015.2 mb 0.00 in0.0 mm 0.00 in/hr0.0 mm/hr 0.00 in0.0 mm
06:48 AM -5537.2°C -5537.2°C - - N16091.8 kmh N -- 29.98 in1015.2 mb 0.00 in0.0 mm 0.00 in/hr0.0 mm/hr 0.00 in0.0 mm
06:47 AM -5537.2°C -5537.2°C - - N16091.8 kmh N -- 29.98 in1015.2 mb 0.00 in0.0 mm 0.00 in/hr0.0 mm/hr 0.00 in0.0 mm
06:46 AM -5537.2°C -5537.2°C - - N16091.8 kmh N -- 29.98 in1015.2 mb 0.00 in0.0 mm 0.00 in/hr0.0 mm/hr 0.00 in0.0 mm
06:44 AM -5537.2°C -5537.2°C - - N16091.8 kmh N -- 29.98 in1015.2 mb 0.00 in0.0 mm 0.00 in/hr0.0 mm/hr 0.00 in0.0 mm
06:43 AM -5537.2°C -5537.2°C - - N16091.8 kmh N -- 29.98 in1015.2 mb 0.00 in0.0 mm 0.00 in/hr0.0 mm/hr 0.00 in0.0 mm
06:42 AM -5537.2°C -5537.2°C - - N16091.8 kmh N -- 29.98 in1015.2 mb 0.00 in0.0 mm 0.00 in/hr0.0 mm/hr 0.00 in0.0 mm
06:41 AM -5537.2°C -5537.2°C - - N16091.8 kmh N -- 29.98 in1015.2 mb 0.00 in0.0 mm 0.00 in/hr0.0 mm/hr 0.00 in0.0 mm
06:40 AM -5537.2°C -5537.2°C - - N16091.8 kmh N -- 29.98 in1015.2 mb 0.00 in0.0 mm 0.00 in/hr0.0 mm/hr 0.00 in0.0 mm
06:39 AM -5537.2°C -5537.2°C - - N16091.8 kmh N -- 29.98 in1015.2 mb 0.00 in0.0 mm 0.00 in/hr0.0 mm/hr 0.00 in0.0 mm
06:38 AM -5537.2°C -5537.2°C - - N16091.8 kmh N -- 29.98 in1015.2 mb 0.00 in0.0 mm 0.00 in/hr0.0 mm/hr 0.00 in0.0 mm
06:37 AM -5537.2°C -5537.2°C - - N16091.8 kmh N -- 29.98 in1015.2 mb 0.00 in0.0 mm 0.00 in/hr0.0 mm/hr 0.00 in0.0 mm
06:35 AM -5537.2°C -5537.2°C - - N16091.8 kmh N -- 29.98 in1015.2 mb 0.00 in0.0 mm 0.00 in/hr0.0 mm/hr 0.00 in0.0 mm
06:34 AM -5537.2°C -5537.2°C - - N16091.8 kmh N -- 29.98 in1015.2 mb 0.00 in0.0 mm 0.00 in/hr0.0 mm/hr 0.00 in0.0 mm
06:32 AM -5537.2°C -5537.2°C - - N16091.8 kmh N -- 29.99 in1015.6 mb 0.00 in0.0 mm 0.00 in/hr0.0 mm/hr 0.00 in0.0 mm
06:31 AM -5537.2°C -5537.2°C - - N16091.8 kmh N -- 29.99 in1015.6 mb 0.00 in0.0 mm 0.00 in/hr0.0 mm/hr 0.00 in0.0 mm
06:30 AM -5537.2°C -5537.2°C - - N16091.8 kmh N -- 29.99 in1015.6 mb 0.00 in0.0 mm 0.00 in/hr0.0 mm/hr 0.00 in0.0 mm
06:28 AM -5537.2°C -5537.2°C - - N16091.8 kmh N -- 29.99 in1015.6 mb 0.00 in0.0 mm 0.00 in/hr0.0 mm/hr 0.00 in0.0 mm
06:27 AM -5537.2°C -5537.2°C - - N16091.8 kmh N -- 29.99 in1015.6 mb 0.00 in0.0 mm 0.00 in/hr0.0 mm/hr 0.00 in0.0 mm
06:26 AM -5537.2°C -5537.2°C - - N16091.8 kmh N -- 29.99 in1015.6 mb 0.00 in0.0 mm 0.00 in/hr0.0 mm/hr 0.00 in0.0 mm
06:25 AM -5537.2°C -5537.2°C - - N16091.8 kmh N -- 29.99 in1015.6 mb 0.00 in0.0 mm 0.00 in/hr0.0 mm/hr 0.00 in0.0 mm
06:24 AM -5537.2°C -5537.2°C - - N16091.8 kmh N -- 29.99 in1015.6 mb 0.00 in0.0 mm 0.00 in/hr0.0 mm/hr 0.00 in0.0 mm
06:22 AM -5537.2°C -5537.2°C - - N16091.8 kmh N -- 29.99 in1015.6 mb 0.00 in0.0 mm 0.00 in/hr0.0 mm/hr 0.00 in0.0 mm
06:20 AM -5537.2°C -5537.2°C - - N16091.8 kmh N -- 29.99 in1015.6 mb 0.00 in0.0 mm 0.00 in/hr0.0 mm/hr 0.00 in0.0 mm
06:19 AM -5537.2°C -5537.2°C - - N16091.8 kmh N -- 29.99 in1015.6 mb 0.00 in0.0 mm 0.00 in/hr0.0 mm/hr 0.00 in0.0 mm
06:18 AM -5537.2°C -5537.2°C - - N16091.8 kmh N -- 30.00 in1015.9 mb 0.00 in0.0 mm 0.00 in/hr0.0 mm/hr 0.00 in0.0 mm
06:16 AM -5537.2°C -5537.2°C - - N16091.8 kmh N -- 30.00 in1015.9 mb 0.00 in0.0 mm 0.00 in/hr0.0 mm/hr 0.00 in0.0 mm
06:14 AM -5537.2°C -5537.2°C - - N16091.8 kmh N -- 30.00 in1015.9 mb 0.00 in0.0 mm 0.00 in/hr0.0 mm/hr 0.00 in0.0 mm
06:13 AM -5537.2°C -5537.2°C - - N16091.8 kmh N -- 30.00 in1015.9 mb 0.00 in0.0 mm 0.00 in/hr0.0 mm/hr 0.00 in0.0 mm
06:11 AM -5537.2°C -5537.2°C - - N16091.8 kmh N -- 30.00 in1015.9 mb 0.00 in0.0 mm 0.00 in/hr0.0 mm/hr 0.00 in0.0 mm
06:10 AM -5537.2°C -5537.2°C - - N16091.8 kmh N -- 30.00 in1015.9 mb 0.00 in0.0 mm 0.00 in/hr0.0 mm/hr 0.00 in0.0 mm
06:09 AM -5537.2°C -5537.2°C - - N16091.8 kmh N -- 30.00 in1015.9 mb 0.00 in0.0 mm 0.00 in/hr0.0 mm/hr 0.00 in0.0 mm
06:07 AM -5537.2°C -5537.2°C - - N16091.8 kmh N -- 30.00 in1015.9 mb 0.00 in0.0 mm 0.00 in/hr0.0 mm/hr 0.00 in0.0 mm
06:06 AM -5537.2°C -5537.2°C - - N16091.8 kmh N -- 30.00 in1015.9 mb 0.00 in0.0 mm 0.00 in/hr0.0 mm/hr 0.00 in0.0 mm
06:05 AM -5537.2°C -5537.2°C - - N16091.8 kmh N -- 30.00 in1015.9 mb 0.00 in0.0 mm 0.00 in/hr0.0 mm/hr 0.00 in0.0 mm
06:04 AM -5537.2°C -5537.2°C - - N16091.8 kmh N -- 30.00 in1015.9 mb 0.00 in0.0 mm 0.00 in/hr0.0 mm/hr 0.00 in0.0 mm
06:03 AM -5537.2°C -5537.2°C - - N16091.8 kmh N -- 30.00 in1015.9 mb 0.00 in0.0 mm 0.00 in/hr0.0 mm/hr 0.00 in0.0 mm
06:01 AM -5537.2°C -5537.2°C - - N16091.8 kmh N -- 30.00 in1015.9 mb 0.00 in0.0 mm 0.00 in/hr0.0 mm/hr 0.00 in0.0 mm
05:59 AM -5537.2°C -5537.2°C - - N16091.8 kmh N -- 30.00 in1015.9 mb 0.00 in0.0 mm 0.00 in/hr0.0 mm/hr 0.00 in0.0 mm
05:58 AM -5537.2°C -5537.2°C - - N16091.8 kmh N -- 30.00 in1015.9 mb 0.00 in0.0 mm 0.00 in/hr0.0 mm/hr 0.00 in0.0 mm
05:57 AM -5537.2°C -5537.2°C - - N16091.8 kmh N -- 30.00 in1015.9 mb 0.00 in0.0 mm 0.00 in/hr0.0 mm/hr 0.00 in0.0 mm
05:56 AM -5537.2°C -5537.2°C - - N16091.8 kmh N -- 30.00 in1015.9 mb 0.00 in0.0 mm 0.00 in/hr0.0 mm/hr 0.00 in0.0 mm
05:55 AM -5537.2°C -5537.2°C - - N16091.8 kmh N -- 30.00 in1015.9 mb 0.00 in0.0 mm 0.00 in/hr0.0 mm/hr 0.00 in0.0 mm
05:53 AM 25.2°F-3.8°C 20.1°F-6.6°C 81% - N16091.8 kmh N -- 30.00 in1015.9 mb 0.00 in0.0 mm 0.00 in/hr0.0 mm/hr 0.00 in0.0 mm
05:52 AM 25.2°F-3.8°C 20.1°F-6.6°C 81% - N16091.8 kmh N -- 30.00 in1015.9 mb 0.00 in0.0 mm 0.00 in/hr0.0 mm/hr 0.00 in0.0 mm
05:50 AM 25.2°F-3.8°C 20.1°F-6.6°C 81% - N16091.8 kmh N -- 30.00 in1015.9 mb 0.00 in0.0 mm 0.00 in/hr0.0 mm/hr 0.00 in0.0 mm
05:49 AM 25.2°F-3.8°C 20.1°F-6.6°C 81% - N16091.8 kmh N -- 30.00 in1015.9 mb 0.00 in0.0 mm 0.00 in/hr0.0 mm/hr 0.00 in0.0 mm
05:48 AM 25.2°F-3.8°C 20.1°F-6.6°C 81% Calm Calm -- 30.00 in1015.9 mb 0.00 in0.0 mm 0.00 in/hr0.0 mm/hr 0.00 in0.0 mm
05:47 AM 25.2°F-3.8°C 20.1°F-6.6°C 81% Calm Calm -- 30.00 in1015.9 mb 0.00 in0.0 mm 0.00 in/hr0.0 mm/hr 0.00 in0.0 mm
05:45 AM 25.2°F-3.8°C 20.1°F-6.6°C 81% Calm Calm -- 30.00 in1015.9 mb 0.00 in0.0 mm 0.00 in/hr0.0 mm/hr 0.00 in0.0 mm
05:44 AM 25.2°F-3.8°C 20.1°F-6.6°C 81% Calm Calm -- 30.00 in1015.9 mb 0.00 in0.0 mm 0.00 in/hr0.0 mm/hr 0.00 in0.0 mm
05:43 AM 25.2°F-3.8°C 20.1°F-6.6°C 81% Calm Calm -- 30.00 in1015.9 mb 0.00 in0.0 mm 0.00 in/hr0.0 mm/hr 0.00 in0.0 mm
05:42 AM 25.2°F-3.8°C 20.1°F-6.6°C 81% Calm Calm -- 30.00 in1015.9 mb 0.00 in0.0 mm 0.00 in/hr0.0 mm/hr 0.00 in0.0 mm
05:41 AM 25.2°F-3.8°C 20.1°F-6.6°C 81% Calm Calm -- 30.00 in1015.9 mb 0.00 in0.0 mm 0.00 in/hr0.0 mm/hr 0.00 in0.0 mm
05:40 AM 25.2°F-3.8°C 20.1°F-6.6°C 81% Calm Calm -- 30.00 in1015.9 mb 0.00 in0.0 mm 0.00 in/hr0.0 mm/hr 0.00 in0.0 mm
05:39 AM 25.2°F-3.8°C 20.1°F-6.6°C 81% Calm Calm -- 30.00 in1015.9 mb 0.00 in0.0 mm 0.00 in/hr0.0 mm/hr 0.00 in0.0 mm
05:38 AM 25.2°F-3.8°C 20.1°F-6.6°C 81% Calm Calm -- 30.00 in1015.9 mb 0.00 in0.0 mm 0.00 in/hr0.0 mm/hr 0.00 in0.0 mm
05:37 AM 25.2°F-3.8°C 20.1°F-6.6°C 81% Calm Calm -- 30.00 in1015.9 mb 0.00 in0.0 mm 0.00 in/hr0.0 mm/hr 0.00 in0.0 mm
05:36 AM 25.2°F-3.8°C 20.1°F-6.6°C 81% Calm Calm -- 30.00 in1015.9 mb 0.00 in0.0 mm 0.00 in/hr0.0 mm/hr 0.00 in0.0 mm
05:35 AM 25.2°F-3.8°C 20.1°F-6.6°C 81% Calm Calm -- 30.00 in1015.9 mb 0.00 in0.0 mm 0.00 in/hr0.0 mm/hr 0.00 in0.0 mm
05:34 AM 25.2°F-3.8°C 20.1°F-6.6°C 81% Calm Calm -- 30.02 in1016.6 mb 0.00 in0.0 mm 0.00 in/hr0.0 mm/hr 0.00 in0.0 mm
05:32 AM 25.2°F-3.8°C 19.9°F-6.7°C 80% Calm Calm -- 30.02 in1016.6 mb 0.00 in0.0 mm 0.00 in/hr0.0 mm/hr 0.00 in0.0 mm
05:31 AM 25.3°F-3.7°C 20.1°F-6.6°C 80% Calm Calm -- 30.02 in1016.6 mb 0.00 in0.0 mm 0.00 in/hr0.0 mm/hr 0.00 in0.0 mm
05:30 AM 25.3°F-3.7°C 20.3°F-6.5°C 81% Calm Calm -- 30.02 in1016.6 mb 0.00 in0.0 mm 0.00 in/hr0.0 mm/hr 0.00 in0.0 mm
05:29 AM 25.3°F-3.7°C 20.3°F-6.5°C 81% Calm Calm -- 30.02 in1016.6 mb 0.00 in0.0 mm 0.00 in/hr0.0 mm/hr 0.00 in0.0 mm
05:28 AM 25.3°F-3.7°C 20.3°F-6.5°C 81% Calm Calm -- 30.02 in1016.6 mb 0.00 in0.0 mm 0.00 in/hr0.0 mm/hr 0.00 in0.0 mm
05:27 AM 25.3°F-3.7°C 20.3°F-6.5°C 81% Calm Calm -- 30.02 in1016.6 mb 0.00 in0.0 mm 0.00 in/hr0.0 mm/hr 0.00 in0.0 mm
05:26 AM 25.3°F-3.7°C 20.3°F-6.5°C 81% Calm Calm -- 30.02 in1016.6 mb 0.00 in0.0 mm 0.00 in/hr0.0 mm/hr 0.00 in0.0 mm
05:25 AM 25.3°F-3.7°C 20.3°F-6.5°C 81% Calm Calm -- 30.02 in1016.6 mb 0.00 in0.0 mm 0.00 in/hr0.0 mm/hr 0.00 in0.0 mm
05:24 AM 25.3°F-3.7°C 20.3°F-6.5°C 81% Calm Calm -- 30.02 in1016.6 mb 0.00 in0.0 mm 0.00 in/hr0.0 mm/hr 0.00 in0.0 mm
05:23 AM 25.3°F-3.7°C 20.3°F-6.5°C 81% Calm Calm -- 30.02 in1016.6 mb 0.00 in0.0 mm 0.00 in/hr0.0 mm/hr 0.00 in0.0 mm
05:22 AM 25.3°F-3.7°C 20.3°F-6.5°C 81% Calm Calm -- 30.02 in1016.6 mb 0.00 in0.0 mm 0.00 in/hr0.0 mm/hr 0.00 in0.0 mm
05:21 AM 25.3°F-3.7°C 20.3°F-6.5°C 81% Calm Calm -- 30.02 in1016.6 mb 0.00 in0.0 mm 0.00 in/hr0.0 mm/hr 0.00 in0.0 mm
05:20 AM 25.3°F-3.7°C 20.3°F-6.5°C 81% Calm Calm -- 30.02 in1016.6 mb 0.00 in0.0 mm 0.00 in/hr0.0 mm/hr 0.00 in0.0 mm
05:19 AM 25.3°F-3.7°C 20.3°F-6.5°C 81% Calm Calm -- 30.02 in1016.6 mb 0.00 in0.0 mm 0.00 in/hr0.0 mm/hr 0.00 in0.0 mm
05:18 AM 25.3°F-3.7°C 20.1°F-6.6°C 80% Calm Calm -- 30.02 in1016.6 mb 0.00 in0.0 mm 0.00 in/hr0.0 mm/hr 0.00 in0.0 mm
05:17 AM 25.5°F-3.6°C 20.3°F-6.5°C 80% Calm Calm -- 30.02 in1016.6 mb 0.00 in0.0 mm 0.00 in/hr0.0 mm/hr 0.00 in0.0 mm
05:15 AM 25.5°F-3.6°C 20.3°F-6.5°C 80% Calm Calm -- 30.02 in1016.6 mb 0.00 in0.0 mm 0.00 in/hr0.0 mm/hr 0.00 in0.0 mm
05:14 AM 25.5°F-3.6°C 20.3°F-6.5°C 80% Calm Calm -- 30.02 in1016.6 mb 0.00 in0.0 mm 0.00 in/hr0.0 mm/hr 0.00 in0.0 mm
05:13 AM 25.7°F-3.5°C 20.5°F-6.4°C 80% Calm Calm -- 30.02 in1016.6 mb 0.00 in0.0 mm 0.00 in/hr0.0 mm/hr 0.00 in0.0 mm
05:12 AM 25.7°F-3.5°C 20.5°F-6.4°C 80% Calm Calm -- 30.02 in1016.6 mb 0.00 in0.0 mm 0.00 in/hr0.0 mm/hr 0.00 in0.0 mm
05:11 AM 25.7°F-3.5°C 20.7°F-6.3°C 81% Calm Calm -- 30.02 in1016.6 mb 0.00 in0.0 mm 0.00 in/hr0.0 mm/hr 0.00 in0.0 mm
05:10 AM 25.7°F-3.5°C 20.7°F-6.3°C 81% Calm Calm -- 30.02 in1016.6 mb 0.00 in0.0 mm 0.00 in/hr0.0 mm/hr 0.00 in0.0 mm
05:09 AM 25.7°F-3.5°C 20.7°F-6.3°C 81% Calm Calm -- 30.02 in1016.6 mb 0.00 in0.0 mm 0.00 in/hr0.0 mm/hr 0.00 in0.0 mm
05:08 AM 25.7°F-3.5°C 20.7°F-6.3°C 81% Calm Calm -- 30.02 in1016.6 mb 0.00 in0.0 mm 0.00 in/hr0.0 mm/hr 0.00 in0.0 mm
05:07 AM 25.9°F-3.4°C 20.8°F-6.2°C 81% Calm Calm -- 30.02 in1016.6 mb 0.00 in0.0 mm 0.00 in/hr0.0 mm/hr 0.00 in0.0 mm
05:06 AM 25.9°F-3.4°C 20.5°F-6.4°C 80% Calm Calm -- 30.02 in1016.6 mb 0.00 in0.0 mm 0.00 in/hr0.0 mm/hr 0.00 in0.0 mm
05:05 AM 25.9°F-3.4°C 20.5°F-6.4°C 80% Calm Calm -- 30.02 in1016.6 mb 0.00 in0.0 mm 0.00 in/hr0.0 mm/hr 0.00 in0.0 mm
05:04 AM 26.1°F-3.3°C 21.0°F-6.1°C 81% Calm Calm 0.9 mph1.4 kmh 30.02 in1016.6 mb 0.00 in0.0 mm 0.00 in/hr0.0 mm/hr 0.00 in0.0 mm
05:03 AM 26.1°F-3.3°C 21.0°F-6.1°C 81% Calm Calm 0.9 mph1.4 kmh 30.04 in1017.3 mb 0.00 in0.0 mm 0.00 in/hr0.0 mm/hr 0.00 in0.0 mm
05:02 AM 26.1°F-3.3°C 21.0°F-6.1°C 81% Calm Calm -- 30.04 in1017.3 mb 0.00 in0.0 mm 0.00 in/hr0.0 mm/hr 0.00 in0.0 mm
05:01 AM 26.1°F-3.3°C 21.0°F-6.1°C 81% Calm Calm -- 30.04 in1017.3 mb 0.00 in0.0 mm 0.00 in/hr0.0 mm/hr 0.00 in0.0 mm
05:00 AM 26.1°F-3.3°C 21.0°F-6.1°C 81% Calm Calm -- 30.04 in1017.3 mb 0.00 in0.0 mm 0.00 in/hr0.0 mm/hr 0.00 in0.0 mm
04:59 AM 25.9°F-3.4°C 20.8°F-6.2°C 81% Calm Calm -- 30.04 in1017.3 mb 0.00 in0.0 mm 0.00 in/hr0.0 mm/hr 0.00 in0.0 mm
04:58 AM 25.9°F-3.4°C 20.8°F-6.2°C 81% Calm Calm -- 30.04 in1017.3 mb 0.00 in0.0 mm 0.00 in/hr0.0 mm/hr 0.00 in0.0 mm
04:57 AM 25.7°F-3.5°C 20.7°F-6.3°C 81% Calm Calm -- 30.04 in1017.3 mb 0.00 in0.0 mm 0.00 in/hr0.0 mm/hr 0.00 in0.0 mm
04:55 AM 25.5°F-3.6°C 20.5°F-6.4°C 81% Calm Calm -- 30.04 in1017.3 mb 0.00 in0.0 mm 0.00 in/hr0.0 mm/hr 0.00 in0.0 mm
04:54 AM 25.5°F-3.6°C 20.5°F-6.4°C 81% Calm Calm -- 30.04 in1017.3 mb 0.00 in0.0 mm 0.00 in/hr0.0 mm/hr 0.00 in0.0 mm
04:53 AM 25.3°F-3.7°C 20.3°F-6.5°C 81% Calm Calm -- 30.04 in1017.3 mb 0.00 in0.0 mm 0.00 in/hr0.0 mm/hr 0.00 in0.0 mm
04:52 AM 25.3°F-3.7°C 20.3°F-6.5°C 81% Calm Calm -- 30.04 in1017.3 mb 0.00 in0.0 mm 0.00 in/hr0.0 mm/hr 0.00 in0.0 mm
04:51 AM 25.3°F-3.7°C 20.3°F-6.5°C 81% Calm Calm -- 30.04 in1017.3 mb 0.00 in0.0 mm 0.00 in/hr0.0 mm/hr 0.00 in0.0 mm
04:50 AM 25.3°F-3.7°C 20.3°F-6.5°C 81% Calm Calm -- 30.04 in1017.3 mb 0.00 in0.0 mm 0.00 in/hr0.0 mm/hr 0.00 in0.0 mm
04:49 AM 25.3°F-3.7°C 20.3°F-6.5°C 81% Calm Calm -- 30.04 in1017.3 mb 0.00 in0.0 mm 0.00 in/hr0.0 mm/hr 0.00 in0.0 mm
04:48 AM 25.3°F-3.7°C 20.1°F-6.6°C 80% Calm Calm -- 30.04 in1017.3 mb 0.00 in0.0 mm 0.00 in/hr0.0 mm/hr 0.00 in0.0 mm
04:47 AM 25.3°F-3.7°C 20.1°F-6.6°C 80% Calm Calm -- 30.04 in1017.3 mb 0.00 in0.0 mm 0.00 in/hr0.0 mm/hr 0.00 in0.0 mm
04:46 AM 25.3°F-3.7°C 20.1°F-6.6°C 80% Calm Calm -- 30.04 in1017.3 mb 0.00 in0.0 mm 0.00 in/hr0.0 mm/hr 0.00 in0.0 mm
04:45 AM 25.2°F-3.8°C 19.9°F-6.7°C 80% Calm Calm -- 30.04 in1017.3 mb 0.00 in0.0 mm 0.00 in/hr0.0 mm/hr 0.00 in0.0 mm
04:44 AM 25.2°F-3.8°C 19.9°F-6.7°C 80% Calm Calm -- 30.04 in1017.3 mb 0.00 in0.0 mm 0.00 in/hr0.0 mm/hr 0.00 in0.0 mm
04:43 AM 25.2°F-3.8°C 19.9°F-6.7°C 80% Calm Calm -- 30.04 in1017.3 mb 0.00 in0.0 mm 0.00 in/hr0.0 mm/hr 0.00 in0.0 mm
04:42 AM 25.2°F-3.8°C 19.9°F-6.7°C 80% Calm Calm -- 30.04 in1017.3 mb 0.00 in0.0 mm 0.00 in/hr0.0 mm/hr 0.00 in0.0 mm
04:41 AM 25.2°F-3.8°C 19.9°F-6.7°C 80% Calm Calm -- 30.04 in1017.3 mb 0.00 in0.0 mm 0.00 in/hr0.0 mm/hr 0.00 in0.0 mm
04:40 AM 25.2°F-3.8°C 19.9°F-6.7°C 80% Calm Calm -- 30.04 in1017.3 mb 0.00 in0.0 mm 0.00 in/hr0.0 mm/hr 0.00 in0.0 mm
04:39 AM 25.0°F-3.9°C 19.8°F-6.8°C 80% Calm Calm -- 30.04 in1017.3 mb 0.00 in0.0 mm 0.00 in/hr0.0 mm/hr 0.00 in0.0 mm
04:37 AM 25.0°F-3.9°C 19.8°F-6.8°C 80% Calm Calm -- 30.04 in1017.3 mb 0.00 in0.0 mm 0.00 in/hr0.0 mm/hr 0.00 in0.0 mm
04:36 AM 25.0°F-3.9°C 19.8°F-6.8°C 80% Calm Calm -- 30.04 in1017.3 mb 0.00 in0.0 mm 0.00 in/hr0.0 mm/hr 0.00 in0.0 mm
04:35 AM 25.0°F-3.9°C 19.8°F-6.8°C 80% Calm Calm -- 30.04 in1017.3 mb 0.00 in0.0 mm 0.00 in/hr0.0 mm/hr 0.00 in0.0 mm
04:34 AM 25.0°F-3.9°C 19.8°F-6.8°C 80% Calm Calm -- 30.04 in1017.3 mb 0.00 in0.0 mm 0.00 in/hr0.0 mm/hr 0.00 in0.0 mm
04:33 AM 25.0°F-3.9°C 19.4°F-7.0°C 79% Calm Calm -- 30.04 in1017.3 mb 0.00 in0.0 mm 0.00 in/hr0.0 mm/hr 0.00 in0.0 mm
04:32 AM 25.0°F-3.9°C 19.4°F-7.0°C 79% Calm Calm -- 30.04 in1017.3 mb 0.00 in0.0 mm 0.00 in/hr0.0 mm/hr 0.00 in0.0 mm
04:31 AM 25.0°F-3.9°C 19.4°F-7.0°C 79% Calm Calm -- 30.04 in1017.3 mb 0.00 in0.0 mm 0.00 in/hr0.0 mm/hr 0.00 in0.0 mm
04:30 AM 25.0°F-3.9°C 19.4°F-7.0°C 79% Calm Calm -- 30.04 in1017.3 mb 0.00 in0.0 mm 0.00 in/hr0.0 mm/hr 0.00 in0.0 mm
04:29 AM 25.0°F-3.9°C 19.4°F-7.0°C 79% Calm Calm -- 30.04 in1017.3 mb 0.00 in0.0 mm 0.00 in/hr0.0 mm/hr 0.00 in0.0 mm
04:28 AM 25.0°F-3.9°C 19.4°F-7.0°C 79% Calm Calm -- 30.04 in1017.3 mb 0.00 in0.0 mm 0.00 in/hr0.0 mm/hr 0.00 in0.0 mm
04:27 AM 25.0°F-3.9°C 19.4°F-7.0°C 79% Calm Calm -- 30.04 in1017.3 mb 0.00 in0.0 mm 0.00 in/hr0.0 mm/hr 0.00 in0.0 mm
04:26 AM 25.0°F-3.9°C 19.4°F-7.0°C 79% Calm Calm -- 30.04 in1017.3 mb 0.00 in0.0 mm 0.00 in/hr0.0 mm/hr 0.00 in0.0 mm
04:25 AM 25.0°F-3.9°C 19.4°F-7.0°C 79% Calm Calm -- 30.04 in1017.3 mb 0.00 in0.0 mm 0.00 in/hr0.0 mm/hr 0.00 in0.0 mm
04:24 AM 25.0°F-3.9°C 19.4°F-7.0°C 79% Calm Calm -- 30.04 in1017.3 mb 0.00 in0.0 mm 0.00 in/hr0.0 mm/hr 0.00 in0.0 mm
04:23 AM 25.2°F-3.8°C 19.6°F-6.9°C 79% Calm Calm -- 30.04 in1017.3 mb 0.00 in0.0 mm 0.00 in/hr0.0 mm/hr 0.00 in0.0 mm
04:22 AM 25.2°F-3.8°C 19.6°F-6.9°C 79% Calm Calm -- 30.04 in1017.3 mb 0.00 in0.0 mm 0.00 in/hr0.0 mm/hr 0.00 in0.0 mm
04:21 AM 25.2°F-3.8°C 19.6°F-6.9°C 79% Calm Calm -- 30.04 in1017.3 mb 0.00 in0.0 mm 0.00 in/hr0.0 mm/hr 0.00 in0.0 mm
04:19 AM 25.2°F-3.8°C 19.2°F-7.1°C 78% Calm Calm -- 30.04 in1017.3 mb 0.00 in0.0 mm 0.00 in/hr0.0 mm/hr 0.00 in0.0 mm
04:18 AM 25.2°F-3.8°C 19.2°F-7.1°C 78% Calm Calm -- 30.06 in1017.9 mb 0.00 in0.0 mm 0.00 in/hr0.0 mm/hr 0.00 in0.0 mm
04:17 AM 25.3°F-3.7°C 19.4°F-7.0°C 78% 0.9 mph NW1.4 kmh NW -- 30.06 in1017.9 mb 0.00 in0.0 mm 0.00 in/hr0.0 mm/hr 0.00 in0.0 mm
04:16 AM 25.3°F-3.7°C 19.4°F-7.0°C 78% 0.9 mph NW1.4 kmh NW -- 30.06 in1017.9 mb 0.00 in0.0 mm 0.00 in/hr0.0 mm/hr 0.00 in0.0 mm
04:15 AM 25.3°F-3.7°C 19.8°F-6.8°C 79% 0.9 mph NW1.4 kmh NW 2.0 mph3.2 kmh 30.06 in1017.9 mb 0.00 in0.0 mm 0.00 in/hr0.0 mm/hr 0.00 in0.0 mm
04:14 AM 25.3°F-3.7°C 19.8°F-6.8°C 79% 0.9 mph NW1.4 kmh NW 2.0 mph3.2 kmh 30.06 in1017.9 mb 0.00 in0.0 mm 0.00 in/hr0.0 mm/hr 0.00 in0.0 mm
04:13 AM 25.3°F-3.7°C 19.8°F-6.8°C 79% 0.9 mph NW1.4 kmh NW -- 30.06 in1017.9 mb 0.00 in0.0 mm 0.00 in/hr0.0 mm/hr 0.00 in0.0 mm
04:12 AM 25.3°F-3.7°C 19.8°F-6.8°C 79% 0.9 mph NW1.4 kmh NW -- 30.06 in1017.9 mb 0.00 in0.0 mm 0.00 in/hr0.0 mm/hr 0.00 in0.0 mm
04:11 AM 25.3°F-3.7°C 19.4°F-7.0°C 78% 0.9 mph NW1.4 kmh NW -- 30.06 in1017.9 mb 0.00 in0.0 mm 0.00 in/hr0.0 mm/hr 0.00 in0.0 mm
04:10 AM 25.3°F-3.7°C 19.4°F-7.0°C 78% 0.9 mph NW1.4 kmh NW -- 30.06 in1017.9 mb 0.00 in0.0 mm 0.00 in/hr0.0 mm/hr 0.00 in0.0 mm
04:09 AM 25.3°F-3.7°C 19.8°F-6.8°C 79% 0.9 mph NW1.4 kmh NW 2.0 mph3.2 kmh 30.06 in1017.9 mb 0.00 in0.0 mm 0.00 in/hr0.0 mm/hr 0.00 in0.0 mm
04:08 AM 25.3°F-3.7°C 19.8°F-6.8°C 79% 0.9 mph NW1.4 kmh NW 4.0 mph6.4 kmh 30.06 in1017.9 mb 0.00 in0.0 mm 0.00 in/hr0.0 mm/hr 0.00 in0.0 mm
04:07 AM 25.3°F-3.7°C 19.8°F-6.8°C 79% 0.9 mph W1.4 kmh W -- 30.06 in1017.9 mb 0.00 in0.0 mm 0.00 in/hr0.0 mm/hr 0.00 in0.0 mm
04:06 AM 25.3°F-3.7°C 19.8°F-6.8°C 79% 0.9 mph W1.4 kmh W 0.9 mph1.4 kmh 30.06 in1017.9 mb 0.00 in0.0 mm 0.00 in/hr0.0 mm/hr 0.00 in0.0 mm
04:04 AM 25.3°F-3.7°C 19.8°F-6.8°C 79% 0.9 mph W1.4 kmh W 4.0 mph6.4 kmh 30.06 in1017.9 mb 0.00 in0.0 mm 0.00 in/hr0.0 mm/hr 0.00 in0.0 mm
04:03 AM 25.2°F-3.8°C 19.6°F-6.9°C 79% 0.9 mph NW1.4 kmh NW 2.0 mph3.2 kmh 30.06 in1017.9 mb 0.00 in0.0 mm 0.00 in/hr0.0 mm/hr 0.00 in0.0 mm
04:02 AM 25.2°F-3.8°C 19.6°F-6.9°C 79% 0.9 mph NE1.4 kmh NE -- 30.06 in1017.9 mb 0.00 in0.0 mm 0.00 in/hr0.0 mm/hr 0.00 in0.0 mm
04:01 AM 25.2°F-3.8°C 19.2°F-7.1°C 78% 0.9 mph N1.4 kmh N 2.0 mph3.2 kmh 30.06 in1017.9 mb 0.00 in0.0 mm 0.00 in/hr0.0 mm/hr 0.00 in0.0 mm
04:00 AM 25.2°F-3.8°C 19.2°F-7.1°C 78% 0.9 mph NW1.4 kmh NW 4.9 mph7.9 kmh 30.06 in1017.9 mb 0.00 in0.0 mm 0.00 in/hr0.0 mm/hr 0.00 in0.0 mm
03:59 AM 25.2°F-3.8°C 19.6°F-6.9°C 79% Calm Calm 4.9 mph7.9 kmh 30.06 in1017.9 mb 0.00 in0.0 mm 0.00 in/hr0.0 mm/hr 0.00 in0.0 mm
03:58 AM 25.2°F-3.8°C 19.2°F-7.1°C 78% Calm Calm -- 30.06 in1017.9 mb 0.00 in0.0 mm 0.00 in/hr0.0 mm/hr 0.00 in0.0 mm
03:57 AM 25.2°F-3.8°C 19.2°F-7.1°C 78% Calm Calm -- 30.06 in1017.9 mb 0.00 in0.0 mm 0.00 in/hr0.0 mm/hr 0.00 in0.0 mm
03:56 AM 25.2°F-3.8°C 19.2°F-7.1°C 78% Calm Calm -- 30.06 in1017.9 mb 0.00 in0.0 mm 0.00 in/hr0.0 mm/hr 0.00 in0.0 mm
03:55 AM 25.2°F-3.8°C 19.2°F-7.1°C 78% 0.9 mph NW1.4 kmh NW -- 30.06 in1017.9 mb 0.00 in0.0 mm 0.00 in/hr0.0 mm/hr 0.00 in0.0 mm
03:54 AM 25.2°F-3.8°C 19.2°F-7.1°C 78% 0.9 mph NW1.4 kmh NW 0.9 mph1.4 kmh 30.06 in1017.9 mb 0.00 in0.0 mm 0.00 in/hr0.0 mm/hr 0.00 in0.0 mm
03:53 AM 25.2°F-3.8°C 19.2°F-7.1°C 78% 0.9 mph NW1.4 kmh NW 2.9 mph4.7 kmh 30.06 in1017.9 mb 0.00 in0.0 mm 0.00 in/hr0.0 mm/hr 0.00 in0.0 mm
03:52 AM 25.2°F-3.8°C 19.2°F-7.1°C 78% 0.9 mph NE1.4 kmh NE 0.9 mph1.4 kmh 30.06 in1017.9 mb 0.00 in0.0 mm 0.00 in/hr0.0 mm/hr 0.00 in0.0 mm
03:51 AM 25.0°F-3.9°C 19.0°F-7.2°C 78% 0.9 mph NE1.4 kmh NE 2.9 mph4.7 kmh 30.06 in1017.9 mb 0.00 in0.0 mm 0.00 in/hr0.0 mm/hr 0.00 in0.0 mm
03:50 AM 25.0°F-3.9°C 19.0°F-7.2°C 78% Calm Calm -- 30.06 in1017.9 mb 0.00 in0.0 mm 0.00 in/hr0.0 mm/hr 0.00 in0.0 mm
03:49 AM 25.0°F-3.9°C 19.0°F-7.2°C 78% Calm Calm 4.0 mph6.4 kmh 30.06 in1017.9 mb 0.00 in0.0 mm 0.00 in/hr0.0 mm/hr 0.00 in0.0 mm
03:48 AM 25.0°F-3.9°C 19.0°F-7.2°C 78% Calm Calm 2.0 mph3.2 kmh 30.06 in1017.9 mb 0.00 in0.0 mm 0.00 in/hr0.0 mm/hr 0.00 in0.0 mm
03:47 AM 25.0°F-3.9°C 19.0°F-7.2°C 78% Calm Calm 2.0 mph3.2 kmh 30.06 in1017.9 mb 0.00 in0.0 mm 0.00 in/hr0.0 mm/hr 0.00 in0.0 mm
03:46 AM 25.0°F-3.9°C 19.0°F-7.2°C 78% Calm Calm 2.9 mph4.7 kmh 30.06 in1017.9 mb 0.00 in0.0 mm 0.00 in/hr0.0 mm/hr 0.00 in0.0 mm
03:45 AM 24.8°F-4.0°C 18.9°F-7.3°C 78% Calm Calm 2.0 mph3.2 kmh 30.06 in1017.9 mb 0.00 in0.0 mm 0.00 in/hr0.0 mm/hr 0.00 in0.0 mm
03:44 AM 24.8°F-4.0°C 18.9°F-7.3°C 78% Calm Calm -- 30.06 in1017.9 mb 0.00 in0.0 mm 0.00 in/hr0.0 mm/hr 0.00 in0.0 mm
03:42 AM 24.8°F-4.0°C 18.9°F-7.3°C 78% Calm Calm -- 30.06 in1017.9 mb 0.00 in0.0 mm 0.00 in/hr0.0 mm/hr 0.00 in0.0 mm
03:41 AM 24.8°F-4.0°C 18.9°F-7.3°C 78% Calm Calm -- 30.06 in1017.9 mb 0.00 in0.0 mm 0.00 in/hr0.0 mm/hr 0.00 in0.0 mm
03:40 AM 24.8°F-4.0°C 18.7°F-7.4°C 77% Calm Calm -- 30.06 in1017.9 mb 0.00 in0.0 mm 0.00 in/hr0.0 mm/hr 0.00 in0.0 mm
03:39 AM 24.8°F-4.0°C 18.7°F-7.4°C 77% Calm Calm -- 30.06 in1017.9 mb 0.00 in0.0 mm 0.00 in/hr0.0 mm/hr 0.00 in0.0 mm
03:38 AM 25.0°F-3.9°C 18.9°F-7.3°C 77% Calm Calm -- 30.06 in1017.9 mb 0.00 in0.0 mm 0.00 in/hr0.0 mm/hr 0.00 in0.0 mm
03:37 AM 25.0°F-3.9°C 18.9°F-7.3°C 77% Calm Calm 0.9 mph1.4 kmh 30.06 in1017.9 mb 0.00 in0.0 mm 0.00 in/hr0.0 mm/hr 0.00 in0.0 mm
03:36 AM 25.0°F-3.9°C 18.9°F-7.3°C 77% Calm Calm -- 30.06 in1017.9 mb 0.00 in0.0 mm 0.00 in/hr0.0 mm/hr 0.00 in0.0 mm
03:35 AM 25.0°F-3.9°C 18.9°F-7.3°C 77% Calm Calm -- 30.06 in1017.9 mb 0.00 in0.0 mm 0.00 in/hr0.0 mm/hr 0.00 in0.0 mm
03:34 AM 25.0°F-3.9°C 18.9°F-7.3°C 77% Calm Calm -- 30.06 in1017.9 mb 0.00 in0.0 mm 0.00 in/hr0.0 mm/hr 0.00 in0.0 mm
03:33 AM 25.0°F-3.9°C 18.9°F-7.3°C 77% Calm Calm -- 30.06 in1017.9 mb 0.00 in0.0 mm 0.00 in/hr0.0 mm/hr 0.00 in0.0 mm
03:32 AM 25.0°F-3.9°C 18.9°F-7.3°C 77% Calm Calm -- 30.06 in1017.9 mb 0.00 in0.0 mm 0.00 in/hr0.0 mm/hr 0.00 in0.0 mm
03:31 AM 25.0°F-3.9°C 18.9°F-7.3°C 77% Calm Calm -- 30.06 in1017.9 mb 0.00 in0.0 mm 0.00 in/hr0.0 mm/hr 0.00 in0.0 mm
03:30 AM 25.2°F-3.8°C 18.7°F-7.4°C 76% 0.9 mph N1.4 kmh N -- 30.06 in1017.9 mb 0.00 in0.0 mm 0.00 in/hr0.0 mm/hr 0.00 in0.0 mm
03:29 AM 25.2°F-3.8°C 19.0°F-7.2°C 77% 0.9 mph N1.4 kmh N -- 30.06 in1017.9 mb 0.00 in0.0 mm 0.00 in/hr0.0 mm/hr 0.00 in0.0 mm
03:28 AM 25.3°F-3.7°C 19.2°F-7.1°C 77% 0.9 mph N1.4 kmh N -- 30.06 in1017.9 mb 0.00 in0.0 mm 0.00 in/hr0.0 mm/hr 0.00 in0.0 mm
03:27 AM 25.3°F-3.7°C 19.2°F-7.1°C 77% 0.9 mph N1.4 kmh N -- 30.06 in1017.9 mb 0.00 in0.0 mm 0.00 in/hr0.0 mm/hr 0.00 in0.0 mm
03:26 AM 25.3°F-3.7°C 19.2°F-7.1°C 77% 0.9 mph N1.4 kmh N -- 30.06 in1017.9 mb 0.00 in0.0 mm 0.00 in/hr0.0 mm/hr 0.00 in0.0 mm
03:24 AM 25.3°F-3.7°C 19.2°F-7.1°C 77% 0.9 mph N1.4 kmh N -- 30.06 in1017.9 mb 0.00 in0.0 mm 0.00 in/hr0.0 mm/hr 0.00 in0.0 mm
03:23 AM 25.2°F-3.8°C 19.0°F-7.2°C 77% 0.9 mph N1.4 kmh N 2.9 mph4.7 kmh 30.06 in1017.9 mb 0.00 in0.0 mm 0.00 in/hr0.0 mm/hr 0.00 in0.0 mm
03:22 AM 25.2°F-3.8°C 19.0°F-7.2°C 77% 0.9 mph 1.4 kmh 4.0 mph6.4 kmh 30.06 in1017.9 mb 0.00 in0.0 mm 0.00 in/hr0.0 mm/hr 0.00 in0.0 mm
03:21 AM 25.2°F-3.8°C 18.7°F-7.4°C 76% Calm Calm 2.9 mph4.7 kmh 30.06 in1017.9 mb 0.00 in0.0 mm 0.00 in/hr0.0 mm/hr 0.00 in0.0 mm
03:20 AM 25.3°F-3.7°C 18.9°F-7.3°C 76% Calm Calm 2.9 mph4.7 kmh 30.06 in1017.9 mb 0.00 in0.0 mm 0.00 in/hr0.0 mm/hr 0.00 in0.0 mm
03:19 AM 25.3°F-3.7°C 18.9°F-7.3°C 76% Calm Calm -- 30.06 in1017.9 mb 0.00 in0.0 mm 0.00 in/hr0.0 mm/hr 0.00 in0.0 mm
03:18 AM 25.3°F-3.7°C 19.2°F-7.1°C 77% Calm Calm -- 30.06 in1017.9 mb 0.00 in0.0 mm 0.00 in/hr0.0 mm/hr 0.00 in0.0 mm
03:17 AM 25.3°F-3.7°C 19.2°F-7.1°C 77% Calm Calm -- 30.06 in1017.9 mb 0.00 in0.0 mm 0.00 in/hr0.0 mm/hr 0.00 in0.0 mm
03:16 AM 25.3°F-3.7°C 19.2°F-7.1°C 77% Calm Calm -- 30.06 in1017.9 mb 0.00 in0.0 mm 0.00 in/hr0.0 mm/hr 0.00 in0.0 mm
03:15 AM 25.3°F-3.7°C 19.2°F-7.1°C 77% Calm Calm -- 30.06 in1017.9 mb 0.00 in0.0 mm 0.00 in/hr0.0 mm/hr 0.00 in0.0 mm
03:14 AM 25.3°F-3.7°C 18.9°F-7.3°C 76% Calm Calm -- 30.06 in1017.9 mb 0.00 in0.0 mm 0.00 in/hr0.0 mm/hr 0.00 in0.0 mm
03:13 AM 25.3°F-3.7°C 18.9°F-7.3°C 76% Calm Calm 2.9 mph4.7 kmh 30.06 in1017.9 mb 0.00 in0.0 mm 0.00 in/hr0.0 mm/hr 0.00 in0.0 mm
03:12 AM 25.2°F-3.8°C 18.7°F-7.4°C 76% Calm Calm 4.0 mph6.4 kmh 30.06 in1017.9 mb 0.00 in0.0 mm 0.00 in/hr0.0 mm/hr 0.00 in0.0 mm
03:11 AM 25.2°F-3.8°C 18.7°F-7.4°C 76% Calm Calm -- 30.06 in1017.9 mb 0.00 in0.0 mm 0.00 in/hr0.0 mm/hr 0.00 in0.0 mm
03:10 AM 25.2°F-3.8°C 18.7°F-7.4°C 76% Calm Calm -- 30.06 in1017.9 mb 0.00 in0.0 mm 0.00 in/hr0.0 mm/hr 0.00 in0.0 mm
03:09 AM 25.3°F-3.7°C 18.5°F-7.5°C 75% Calm Calm -- 30.06 in1017.9 mb 0.00 in0.0 mm 0.00 in/hr0.0 mm/hr 0.00 in0.0 mm
03:08 AM 25.3°F-3.7°C 18.5°F-7.5°C 75% Calm Calm -- 30.06 in1017.9 mb 0.00 in0.0 mm 0.00 in/hr0.0 mm/hr 0.00 in0.0 mm
03:07 AM 25.3°F-3.7°C 18.5°F-7.5°C 75% Calm Calm -- 30.06 in1017.9 mb 0.00 in0.0 mm 0.00 in/hr0.0 mm/hr 0.00 in0.0 mm
03:05 AM 25.5°F-3.6°C 18.7°F-7.4°C 75% Calm Calm 2.0 mph3.2 kmh 30.06 in1017.9 mb 0.00 in0.0 mm 0.00 in/hr0.0 mm/hr 0.00 in0.0 mm
03:04 AM 25.9°F-3.4°C 19.0°F-7.2°C 75% Calm Calm -- 30.06 in1017.9 mb 0.00 in0.0 mm 0.00 in/hr0.0 mm/hr 0.00 in0.0 mm
03:03 AM 25.9°F-3.4°C 19.0°F-7.2°C 75% Calm Calm -- 30.06 in1017.9 mb 0.00 in0.0 mm 0.00 in/hr0.0 mm/hr 0.00 in0.0 mm
03:02 AM 26.1°F-3.3°C 19.2°F-7.1°C 75% Calm Calm 2.0 mph3.2 kmh 30.06 in1017.9 mb 0.00 in0.0 mm 0.00 in/hr0.0 mm/hr 0.00 in0.0 mm
03:01 AM 26.1°F-3.3°C 19.2°F-7.1°C 75% Calm Calm 0.9 mph1.4 kmh 30.06 in1017.9 mb 0.00 in0.0 mm 0.00 in/hr0.0 mm/hr 0.00 in0.0 mm
03:00 AM 26.1°F-3.3°C 19.2°F-7.1°C 75% Calm Calm -- 30.06 in1017.9 mb 0.00 in0.0 mm 0.00 in/hr0.0 mm/hr 0.00 in0.0 mm
02:59 AM 26.1°F-3.3°C 19.2°F-7.1°C 75% Calm Calm -- 30.06 in1017.9 mb 0.00 in0.0 mm 0.00 in/hr0.0 mm/hr 0.00 in0.0 mm
02:58 AM 26.1°F-3.3°C 19.2°F-7.1°C 75% Calm Calm -- 30.06 in1017.9 mb 0.00 in0.0 mm 0.00 in/hr0.0 mm/hr 0.00 in0.0 mm
02:57 AM 26.1°F-3.3°C 19.2°F-7.1°C 75% Calm Calm -- 30.06 in1017.9 mb 0.00 in0.0 mm 0.00 in/hr0.0 mm/hr 0.00 in0.0 mm
02:56 AM 26.1°F-3.3°C 19.2°F-7.1°C 75% Calm Calm -- 30.06 in1017.9 mb 0.00 in0.0 mm 0.00 in/hr0.0 mm/hr 0.00 in0.0 mm
02:55 AM 26.1°F-3.3°C 19.2°F-7.1°C 75% Calm Calm 2.9 mph4.7 kmh 30.06 in1017.9 mb 0.00 in0.0 mm 0.00 in/hr0.0 mm/hr 0.00 in0.0 mm
02:54 AM 26.1°F-3.3°C 19.2°F-7.1°C 75% Calm Calm 2.9 mph4.7 kmh 30.06 in1017.9 mb 0.00 in0.0 mm 0.00 in/hr0.0 mm/hr 0.00 in0.0 mm
02:53 AM 26.1°F-3.3°C 19.2°F-7.1°C 75% Calm Calm -- 30.06 in1017.9 mb 0.00 in0.0 mm 0.00 in/hr0.0 mm/hr 0.00 in0.0 mm
02:52 AM 26.1°F-3.3°C 19.2°F-7.1°C 75% Calm Calm -- 30.06 in1017.9 mb 0.00 in0.0 mm 0.00 in/hr0.0 mm/hr 0.00 in0.0 mm
02:51 AM 26.1°F-3.3°C 19.2°F-7.1°C 75% Calm Calm -- 30.06 in1017.9 mb 0.00 in0.0 mm 0.00 in/hr0.0 mm/hr 0.00 in0.0 mm
02:50 AM 26.1°F-3.3°C 19.2°F-7.1°C 75% Calm Calm -- 30.06 in1017.9 mb 0.00 in0.0 mm 0.00 in/hr0.0 mm/hr 0.00 in0.0 mm
02:49 AM 26.1°F-3.3°C 19.2°F-7.1°C 75% Calm Calm -- 30.07 in1018.3 mb 0.00 in0.0 mm 0.00 in/hr0.0 mm/hr 0.00 in0.0 mm
02:47 AM 26.1°F-3.3°C 18.9°F-7.3°C 74% Calm Calm -- 30.07 in1018.3 mb 0.00 in0.0 mm 0.00 in/hr0.0 mm/hr 0.00 in0.0 mm
02:46 AM 26.1°F-3.3°C 18.9°F-7.3°C 74% Calm Calm 2.0 mph3.2 kmh 30.07 in1018.3 mb 0.00 in0.0 mm 0.00 in/hr0.0 mm/hr 0.00 in0.0 mm
02:45 AM 26.1°F-3.3°C 19.2°F-7.1°C 75% Calm Calm -- 30.07 in1018.3 mb 0.00 in0.0 mm 0.00 in/hr0.0 mm/hr 0.00 in0.0 mm
02:44 AM 26.1°F-3.3°C 19.2°F-7.1°C 75% Calm Calm -- 30.07 in1018.3 mb 0.00 in0.0 mm 0.00 in/hr0.0 mm/hr 0.00 in0.0 mm
02:43 AM 26.1°F-3.3°C 19.2°F-7.1°C 75% Calm Calm -- 30.07 in1018.3 mb 0.00 in0.0 mm 0.00 in/hr0.0 mm/hr 0.00 in0.0 mm
02:42 AM 26.1°F-3.3°C 19.2°F-7.1°C 75% Calm Calm -- 30.07 in1018.3 mb 0.00 in0.0 mm 0.00 in/hr0.0 mm/hr 0.00 in0.0 mm
02:41 AM 25.9°F-3.4°C 19.0°F-7.2°C 75% Calm Calm -- 30.07 in1018.3 mb 0.00 in0.0 mm 0.00 in/hr0.0 mm/hr 0.00 in0.0 mm
02:40 AM 25.9°F-3.4°C 18.7°F-7.4°C 74% Calm Calm -- 30.07 in1018.3 mb 0.00 in0.0 mm 0.00 in/hr0.0 mm/hr 0.00 in0.0 mm
02:39 AM 26.1°F-3.3°C 18.9°F-7.3°C 74% Calm Calm -- 30.07 in1018.3 mb 0.00 in0.0 mm 0.00 in/hr0.0 mm/hr 0.00 in0.0 mm
02:38 AM 26.1°F-3.3°C 18.9°F-7.3°C 74% Calm Calm -- 30.07 in1018.3 mb 0.00 in0.0 mm 0.00 in/hr0.0 mm/hr 0.00 in0.0 mm
02:37 AM 26.1°F-3.3°C 18.9°F-7.3°C 74% Calm Calm -- 30.07 in1018.3 mb 0.00 in0.0 mm 0.00 in/hr0.0 mm/hr 0.00 in0.0 mm
02:36 AM 26.1°F-3.3°C 18.9°F-7.3°C 74% Calm Calm -- 30.07 in1018.3 mb 0.00 in0.0 mm 0.00 in/hr0.0 mm/hr 0.00 in0.0 mm
02:35 AM 26.1°F-3.3°C 18.7°F-7.4°C 73% Calm Calm -- 30.07 in1018.3 mb 0.00 in0.0 mm 0.00 in/hr0.0 mm/hr 0.00 in0.0 mm
02:34 AM 26.2°F-3.2°C 18.9°F-7.3°C 73% Calm Calm -- 30.08 in1018.6 mb 0.00 in0.0 mm 0.00 in/hr0.0 mm/hr 0.00 in0.0 mm
02:33 AM 26.4°F-3.1°C 18.9°F-7.3°C 73% Calm Calm 0.9 mph1.4 kmh 30.08 in1018.6 mb 0.00 in0.0 mm 0.00 in/hr0.0 mm/hr 0.00 in0.0 mm
02:31 AM 26.6°F-3.0°C 19.0°F-7.2°C 73% Calm Calm 2.0 mph3.2 kmh 30.08 in1018.6 mb 0.00 in0.0 mm 0.00 in/hr0.0 mm/hr 0.00 in0.0 mm
02:30 AM 26.4°F-3.1°C 19.2°F-7.1°C 74% Calm Calm -- 30.08 in1018.6 mb 0.00 in0.0 mm 0.00 in/hr0.0 mm/hr 0.00 in0.0 mm
02:29 AM 26.4°F-3.1°C 19.2°F-7.1°C 74% Calm Calm -- 30.08 in1018.6 mb 0.00 in0.0 mm 0.00 in/hr0.0 mm/hr 0.00 in0.0 mm
02:28 AM 26.4°F-3.1°C 19.2°F-7.1°C 74% Calm Calm -- 30.08 in1018.6 mb 0.00 in0.0 mm 0.00 in/hr0.0 mm/hr 0.00 in0.0 mm
02:27 AM 26.4°F-3.1°C 18.9°F-7.3°C 73% Calm Calm -- 30.08 in1018.6 mb 0.00 in0.0 mm 0.00 in/hr0.0 mm/hr 0.00 in0.0 mm
02:26 AM 26.4°F-3.1°C 18.9°F-7.3°C 73% Calm Calm -- 30.08 in1018.6 mb 0.00 in0.0 mm 0.00 in/hr0.0 mm/hr 0.00 in0.0 mm
02:25 AM 26.4°F-3.1°C 18.9°F-7.3°C 73% Calm Calm -- 30.08 in1018.6 mb 0.00 in0.0 mm 0.00 in/hr0.0 mm/hr 0.00 in0.0 mm
02:24 AM 26.4°F-3.1°C 18.9°F-7.3°C 73% Calm Calm -- 30.08 in1018.6 mb 0.00 in0.0 mm 0.00 in/hr0.0 mm/hr 0.00 in0.0 mm
02:23 AM 26.4°F-3.1°C 18.9°F-7.3°C 73% Calm Calm -- 30.08 in1018.6 mb 0.00 in0.0 mm 0.00 in/hr0.0 mm/hr 0.00 in0.0 mm
02:22 AM 26.4°F-3.1°C 18.9°F-7.3°C 73% Calm Calm -- 30.08 in1018.6 mb 0.00 in0.0 mm 0.00 in/hr0.0 mm/hr 0.00 in0.0 mm
02:21 AM 26.4°F-3.1°C 18.9°F-7.3°C 73% Calm Calm -- 30.08 in1018.6 mb 0.00 in0.0 mm 0.00 in/hr0.0 mm/hr 0.00 in0.0 mm
02:20 AM 26.6°F-3.0°C 19.0°F-7.2°C 73% Calm Calm -- 30.08 in1018.6 mb 0.00 in0.0 mm 0.00 in/hr0.0 mm/hr 0.00 in0.0 mm
02:19 AM 26.6°F-3.0°C 18.9°F-7.3°C 72% Calm Calm -- 30.08 in1018.6 mb 0.00 in0.0 mm 0.00 in/hr0.0 mm/hr 0.00 in0.0 mm
02:18 AM 26.8°F-2.9°C 19.0°F-7.2°C 72% Calm Calm -- 30.09 in1019.0 mb 0.00 in0.0 mm 0.00 in/hr0.0 mm/hr 0.00 in0.0 mm
02:17 AM 26.8°F-2.9°C 19.0°F-7.2°C 72% Calm Calm -- 30.09 in1019.0 mb 0.00 in0.0 mm 0.00 in/hr0.0 mm/hr 0.00 in0.0 mm
02:16 AM 26.8°F-2.9°C 19.0°F-7.2°C 72% Calm Calm -- 30.09 in1019.0 mb 0.00 in0.0 mm 0.00 in/hr0.0 mm/hr 0.00 in0.0 mm
02:15 AM 26.8°F-2.9°C 19.0°F-7.2°C 72% Calm Calm -- 30.09 in1019.0 mb 0.00 in0.0 mm 0.00 in/hr0.0 mm/hr 0.00 in0.0 mm
02:14 AM 26.8°F-2.9°C 19.0°F-7.2°C 72% Calm Calm -- 30.09 in1019.0 mb 0.00 in0.0 mm 0.00 in/hr0.0 mm/hr 0.00 in0.0 mm
02:13 AM 26.8°F-2.9°C 19.0°F-7.2°C 72% Calm Calm -- 30.09 in1019.0 mb 0.00 in0.0 mm 0.00 in/hr0.0 mm/hr 0.00 in0.0 mm
02:12 AM 27.0°F-2.8°C 19.2°F-7.1°C 72% Calm Calm -- 30.09 in1019.0 mb 0.00 in0.0 mm 0.00 in/hr0.0 mm/hr 0.00 in0.0 mm
02:10 AM 27.0°F-2.8°C 19.2°F-7.1°C 72% Calm Calm -- 30.09 in1019.0 mb 0.00 in0.0 mm 0.00 in/hr0.0 mm/hr 0.00 in0.0 mm
02:09 AM 27.0°F-2.8°C 18.9°F-7.3°C 71% Calm Calm -- 30.09 in1019.0 mb 0.00 in0.0 mm 0.00 in/hr0.0 mm/hr 0.00 in0.0 mm
02:08 AM 27.0°F-2.8°C 18.9°F-7.3°C 71% Calm Calm -- 30.09 in1019.0 mb 0.00 in0.0 mm 0.00 in/hr0.0 mm/hr 0.00 in0.0 mm
02:07 AM 27.0°F-2.8°C 18.5°F-7.5°C 70% Calm Calm -- 30.09 in1019.0 mb 0.00 in0.0 mm 0.00 in/hr0.0 mm/hr 0.00 in0.0 mm
02:06 AM 27.0°F-2.8°C 18.5°F-7.5°C 70% Calm Calm -- 30.09 in1019.0 mb 0.00 in0.0 mm 0.00 in/hr0.0 mm/hr 0.00 in0.0 mm
02:05 AM 27.1°F-2.7°C 18.7°F-7.4°C 70% Calm Calm -- 30.09 in1019.0 mb 0.00 in0.0 mm 0.00 in/hr0.0 mm/hr 0.00 in0.0 mm
02:04 AM 27.3°F-2.6°C 18.9°F-7.3°C 70% Calm Calm 0.9 mph1.4 kmh 30.09 in1019.0 mb 0.00 in0.0 mm 0.00 in/hr0.0 mm/hr 0.00 in0.0 mm
02:03 AM 27.5°F-2.5°C 19.0°F-7.2°C 70% Calm Calm 0.9 mph1.4 kmh 30.09 in1019.0 mb 0.00 in0.0 mm 0.00 in/hr0.0 mm/hr 0.00 in0.0 mm
02:02 AM 27.5°F-2.5°C 19.0°F-7.2°C 70% Calm Calm -- 30.09 in1019.0 mb 0.00 in0.0 mm 0.00 in/hr0.0 mm/hr 0.00 in0.0 mm
02:01 AM 27.5°F-2.5°C 19.0°F-7.2°C 70% Calm Calm -- 30.09 in1019.0 mb 0.00 in0.0 mm 0.00 in/hr0.0 mm/hr 0.00 in0.0 mm
02:00 AM 27.7°F-2.4°C 19.2°F-7.1°C 70% Calm Calm -- 30.09 in1019.0 mb 0.00 in0.0 mm 0.00 in/hr0.0 mm/hr 0.00 in0.0 mm
01:59 AM 27.7°F-2.4°C 19.2°F-7.1°C 70% Calm Calm -- 30.09 in1019.0 mb 0.00 in0.0 mm 0.00 in/hr0.0 mm/hr 0.00 in0.0 mm
01:58 AM 27.9°F-2.3°C 19.4°F-7.0°C 70% Calm Calm -- 30.09 in1019.0 mb 0.00 in0.0 mm 0.00 in/hr0.0 mm/hr 0.00 in0.0 mm
01:57 AM 27.9°F-2.3°C 19.4°F-7.0°C 70% Calm Calm -- 30.09 in1019.0 mb 0.00 in0.0 mm 0.00 in/hr0.0 mm/hr 0.00 in0.0 mm
01:56 AM 27.9°F-2.3°C 19.4°F-7.0°C 70% Calm Calm -- 30.09 in1019.0 mb 0.00 in0.0 mm 0.00 in/hr0.0 mm/hr 0.00 in0.0 mm
01:55 AM 27.9°F-2.3°C 19.4°F-7.0°C 70% Calm Calm -- 30.09 in1019.0 mb 0.00 in0.0 mm 0.00 in/hr0.0 mm/hr 0.00 in0.0 mm
01:54 AM 27.9°F-2.3°C 19.0°F-7.2°C 69% Calm Calm -- 30.09 in1019.0 mb 0.00 in0.0 mm 0.00 in/hr0.0 mm/hr 0.00 in0.0 mm
01:52 AM 27.9°F-2.3°C 19.0°F-7.2°C 69% Calm Calm -- 30.09 in1019.0 mb 0.00 in0.0 mm 0.00 in/hr0.0 mm/hr 0.00 in0.0 mm
01:51 AM 28.0°F-2.2°C 19.2°F-7.1°C 69% Calm Calm -- 30.09 in1019.0 mb 0.00 in0.0 mm 0.00 in/hr0.0 mm/hr 0.00 in0.0 mm
01:50 AM 28.2°F-2.1°C 19.0°F-7.2°C 68% Calm Calm -- 30.09 in1019.0 mb 0.00 in0.0 mm 0.00 in/hr0.0 mm/hr 0.00 in0.0 mm
01:49 AM 28.4°F-2.0°C 18.9°F-7.3°C 67% Calm Calm -- 30.09 in1019.0 mb 0.00 in0.0 mm 0.00 in/hr0.0 mm/hr 0.00 in0.0 mm
01:48 AM 28.8°F-1.8°C 19.2°F-7.1°C 67% Calm Calm 2.0 mph3.2 kmh 30.09 in1019.0 mb 0.00 in0.0 mm 0.00 in/hr0.0 mm/hr 0.00 in0.0 mm
01:47 AM 28.9°F-1.7°C 19.4°F-7.0°C 67% Calm Calm 2.0 mph3.2 kmh 30.09 in1019.0 mb 0.00 in0.0 mm 0.00 in/hr0.0 mm/hr 0.00 in0.0 mm
01:46 AM 29.1°F-1.6°C 19.9°F-6.7°C 68% Calm Calm 2.0 mph3.2 kmh 30.09 in1019.0 mb 0.00 in0.0 mm 0.00 in/hr0.0 mm/hr 0.00 in0.0 mm
01:44 AM 29.1°F-1.6°C 20.3°F-6.5°C 69% Calm Calm -- 30.09 in1019.0 mb 0.00 in0.0 mm 0.00 in/hr0.0 mm/hr 0.00 in0.0 mm
01:43 AM 28.9°F-1.7°C 20.1°F-6.6°C 69% Calm Calm -- 30.09 in1019.0 mb 0.00 in0.0 mm 0.00 in/hr0.0 mm/hr 0.00 in0.0 mm
01:42 AM 28.9°F-1.7°C 20.1°F-6.6°C 69% Calm Calm 2.0 mph3.2 kmh 30.09 in1019.0 mb 0.00 in0.0 mm 0.00 in/hr0.0 mm/hr 0.00 in0.0 mm
01:41 AM 28.8°F-1.8°C 19.9°F-6.7°C 69% Calm Calm -- 30.09 in1019.0 mb 0.00 in0.0 mm 0.00 in/hr0.0 mm/hr 0.00 in0.0 mm
01:40 AM 28.8°F-1.8°C 19.9°F-6.7°C 69% Calm Calm -- 30.09 in1019.0 mb 0.00 in0.0 mm 0.00 in/hr0.0 mm/hr 0.00 in0.0 mm
01:39 AM 28.8°F-1.8°C 19.9°F-6.7°C 69% Calm Calm -- 30.09 in1019.0 mb 0.00 in0.0 mm 0.00 in/hr0.0 mm/hr 0.00 in0.0 mm
01:38 AM 28.8°F-1.8°C 19.9°F-6.7°C 69% Calm Calm -- 30.09 in1019.0 mb 0.00 in0.0 mm 0.00 in/hr0.0 mm/hr 0.00 in0.0 mm
01:37 AM 28.8°F-1.8°C 19.9°F-6.7°C 69% Calm Calm -- 30.09 in1019.0 mb 0.00 in0.0 mm 0.00 in/hr0.0 mm/hr 0.00 in0.0 mm
01:35 AM 28.6°F-1.9°C 19.8°F-6.8°C 69% Calm Calm -- 30.09 in1019.0 mb 0.00 in0.0 mm 0.00 in/hr0.0 mm/hr 0.00 in0.0 mm
01:34 AM 28.6°F-1.9°C 19.8°F-6.8°C 69% Calm Calm -- 30.09 in1019.0 mb 0.00 in0.0 mm 0.00 in/hr0.0 mm/hr 0.00 in0.0 mm
01:33 AM 28.8°F-1.8°C 19.9°F-6.7°C 69% Calm Calm -- 30.11 in1019.6 mb 0.00 in0.0 mm 0.00 in/hr0.0 mm/hr 0.00 in0.0 mm
01:32 AM 28.8°F-1.8°C 19.9°F-6.7°C 69% Calm Calm -- 30.11 in1019.6 mb 0.00 in0.0 mm 0.00 in/hr0.0 mm/hr 0.00 in0.0 mm
01:31 AM 28.6°F-1.9°C 19.8°F-6.8°C 69% Calm Calm -- 30.11 in1019.6 mb 0.00 in0.0 mm 0.00 in/hr0.0 mm/hr 0.00 in0.0 mm
01:30 AM 28.6°F-1.9°C 19.4°F-7.0°C 68% Calm Calm -- 30.11 in1019.6 mb 0.00 in0.0 mm 0.00 in/hr0.0 mm/hr 0.00 in0.0 mm
01:29 AM 28.8°F-1.8°C 19.6°F-6.9°C 68% Calm Calm -- 30.11 in1019.6 mb 0.00 in0.0 mm 0.00 in/hr0.0 mm/hr 0.00 in0.0 mm
01:28 AM 28.8°F-1.8°C 19.6°F-6.9°C 68% Calm Calm -- 30.11 in1019.6 mb 0.00 in0.0 mm 0.00 in/hr0.0 mm/hr 0.00 in0.0 mm
01:27 AM 28.8°F-1.8°C 19.6°F-6.9°C 68% Calm Calm -- 30.11 in1019.6 mb 0.00 in0.0 mm 0.00 in/hr0.0 mm/hr 0.00 in0.0 mm
01:26 AM 28.8°F-1.8°C 19.2°F-7.1°C 67% Calm Calm -- 30.11 in1019.6 mb 0.00 in0.0 mm 0.00 in/hr0.0 mm/hr 0.00 in0.0 mm
01:25 AM 28.8°F-1.8°C 19.2°F-7.1°C 67% Calm Calm -- 30.11 in1019.6 mb 0.00 in0.0 mm 0.00 in/hr0.0 mm/hr 0.00 in0.0 mm
01:24 AM 28.8°F-1.8°C 19.2°F-7.1°C 67% Calm Calm -- 30.11 in1019.6 mb 0.00 in0.0 mm 0.00 in/hr0.0 mm/hr 0.00 in0.0 mm
01:23 AM 28.8°F-1.8°C 19.2°F-7.1°C 67% Calm Calm -- 30.11 in1019.6 mb 0.00 in0.0 mm 0.00 in/hr0.0 mm/hr 0.00 in0.0 mm
01:22 AM 28.8°F-1.8°C 19.2°F-7.1°C 67% Calm Calm -- 30.11 in1019.6 mb 0.00 in0.0 mm 0.00 in/hr0.0 mm/hr 0.00 in0.0 mm
01:21 AM 28.9°F-1.7°C 19.4°F-7.0°C 67% Calm Calm -- 30.11 in1019.6 mb 0.00 in0.0 mm 0.00 in/hr0.0 mm/hr 0.00 in0.0 mm
01:20 AM 28.9°F-1.7°C 19.4°F-7.0°C 67% Calm Calm -- 30.11 in1019.6 mb 0.00 in0.0 mm 0.00 in/hr0.0 mm/hr 0.00 in0.0 mm
01:19 AM 28.9°F-1.7°C 19.4°F-7.0°C 67% Calm Calm -- 30.11 in1019.6 mb 0.00 in0.0 mm 0.00 in/hr0.0 mm/hr 0.00 in0.0 mm
01:17 AM 28.9°F-1.7°C 19.4°F-7.0°C 67% Calm Calm -- 30.11 in1019.6 mb 0.00 in0.0 mm 0.00 in/hr0.0 mm/hr 0.00 in0.0 mm
01:16 AM 28.9°F-1.7°C 19.4°F-7.0°C 67% Calm Calm -- 30.11 in1019.6 mb 0.00 in0.0 mm 0.00 in/hr0.0 mm/hr 0.00 in0.0 mm
01:15 AM 29.1°F-1.6°C 19.6°F-6.9°C 67% Calm Calm -- 30.11 in1019.6 mb 0.00 in0.0 mm 0.00 in/hr0.0 mm/hr 0.00 in0.0 mm
01:14 AM 29.1°F-1.6°C 19.2°F-7.1°C 66% Calm Calm -- 30.11 in1019.6 mb 0.00 in0.0 mm 0.00 in/hr0.0 mm/hr 0.00 in0.0 mm
01:13 AM 29.1°F-1.6°C 19.2°F-7.1°C 66% Calm Calm -- 30.11 in1019.6 mb 0.00 in0.0 mm 0.00 in/hr0.0 mm/hr 0.00 in0.0 mm
01:12 AM 29.3°F-1.5°C 19.4°F-7.0°C 66% Calm Calm -- 30.11 in1019.6 mb 0.00 in0.0 mm 0.00 in/hr0.0 mm/hr 0.00 in0.0 mm
01:11 AM 29.3°F-1.5°C 19.4°F-7.0°C 66% Calm Calm -- 30.11 in1019.6 mb 0.00 in0.0 mm 0.00 in/hr0.0 mm/hr 0.00 in0.0 mm
01:10 AM 29.5°F-1.4°C 19.6°F-6.9°C 66% Calm Calm -- 30.11 in1019.6 mb 0.00 in0.0 mm 0.00 in/hr0.0 mm/hr 0.00 in0.0 mm
01:09 AM 29.5°F-1.4°C 19.6°F-6.9°C 66% Calm Calm -- 30.11 in1019.6 mb 0.00 in0.0 mm 0.00 in/hr0.0 mm/hr 0.00 in0.0 mm
01:08 AM 29.5°F-1.4°C 19.2°F-7.1°C 65% Calm Calm -- 30.11 in1019.6 mb 0.00 in0.0 mm 0.00 in/hr0.0 mm/hr 0.00 in0.0 mm
01:07 AM 29.7°F-1.3°C 19.4°F-7.0°C 65% Calm Calm -- 30.11 in1019.6 mb 0.00 in0.0 mm 0.00 in/hr0.0 mm/hr 0.00 in0.0 mm
01:05 AM 30.0°F-1.1°C 19.8°F-6.8°C 65% Calm Calm -- 30.11 in1019.6 mb 0.00 in0.0 mm 0.00 in/hr0.0 mm/hr 0.00 in0.0 mm
01:04 AM 30.4°F-0.9°C 19.6°F-6.9°C 64% Calm Calm -- 30.11 in1019.6 mb 0.00 in0.0 mm 0.00 in/hr0.0 mm/hr 0.00 in0.0 mm
01:03 AM 30.4°F-0.9°C 19.9°F-6.7°C 65% Calm Calm -- 30.11 in1019.6 mb 0.00 in0.0 mm 0.00 in/hr0.0 mm/hr 0.00 in0.0 mm
01:02 AM 30.4°F-0.9°C 19.9°F-6.7°C 65% Calm Calm -- 30.11 in1019.6 mb 0.00 in0.0 mm 0.00 in/hr0.0 mm/hr 0.00 in0.0 mm
01:01 AM 30.4°F-0.9°C 19.9°F-6.7°C 65% Calm Calm -- 30.11 in1019.6 mb 0.00 in0.0 mm 0.00 in/hr0.0 mm/hr 0.00 in0.0 mm
01:00 AM 30.4°F-0.9°C 19.9°F-6.7°C 65% Calm Calm -- 30.11 in1019.6 mb 0.00 in0.0 mm 0.00 in/hr0.0 mm/hr 0.00 in0.0 mm
12:58 AM 30.4°F-0.9°C 19.9°F-6.7°C 65% Calm Calm 0.9 mph1.4 kmh 30.11 in1019.6 mb 0.00 in0.0 mm 0.00 in/hr0.0 mm/hr 0.00 in0.0 mm
12:57 AM 30.4°F-0.9°C 19.9°F-6.7°C 65% Calm Calm 2.0 mph3.2 kmh 30.11 in1019.6 mb 0.00 in0.0 mm 0.00 in/hr0.0 mm/hr 0.00 in0.0 mm
12:56 AM 30.4°F-0.9°C 19.6°F-6.9°C 64% Calm Calm -- 30.11 in1019.6 mb 0.00 in0.0 mm 0.00 in/hr0.0 mm/hr 0.00 in0.0 mm
12:55 AM 30.4°F-0.9°C 19.9°F-6.7°C 65% Calm Calm -- 30.11 in1019.6 mb 0.00 in0.0 mm 0.00 in/hr0.0 mm/hr 0.00 in0.0 mm
12:54 AM 30.4°F-0.9°C 19.9°F-6.7°C 65% Calm Calm -- 30.11 in1019.6 mb 0.00 in0.0 mm 0.00 in/hr0.0 mm/hr 0.00 in0.0 mm
12:53 AM 30.4°F-0.9°C 19.6°F-6.9°C 64% Calm Calm -- 30.11 in1019.6 mb 0.00 in0.0 mm 0.00 in/hr0.0 mm/hr 0.00 in0.0 mm
12:52 AM 30.4°F-0.9°C 19.9°F-6.7°C 65% Calm Calm -- 30.11 in1019.6 mb 0.00 in0.0 mm 0.00 in/hr0.0 mm/hr 0.00 in0.0 mm
12:51 AM 30.4°F-0.9°C 19.9°F-6.7°C 65% Calm Calm -- 30.11 in1019.6 mb 0.00 in0.0 mm 0.00 in/hr0.0 mm/hr 0.00 in0.0 mm
12:50 AM 30.4°F-0.9°C 19.9°F-6.7°C 65% Calm Calm -- 30.11 in1019.6 mb 0.00 in0.0 mm 0.00 in/hr0.0 mm/hr 0.00 in0.0 mm
12:49 AM 30.4°F-0.9°C 19.9°F-6.7°C 65% Calm Calm -- 30.11 in1019.6 mb 0.00 in0.0 mm 0.00 in/hr0.0 mm/hr 0.00 in0.0 mm
12:48 AM 30.4°F-0.9°C 19.9°F-6.7°C 65% Calm Calm -- 30.12 in1020.0 mb 0.00 in0.0 mm 0.00 in/hr0.0 mm/hr 0.00 in0.0 mm
12:47 AM 30.4°F-0.9°C 19.9°F-6.7°C 65% Calm Calm -- 30.12 in1020.0 mb 0.00 in0.0 mm 0.00 in/hr0.0 mm/hr 0.00 in0.0 mm
12:46 AM 30.0°F-1.1°C 19.8°F-6.8°C 65% Calm Calm -- 30.12 in1020.0 mb 0.00 in0.0 mm 0.00 in/hr0.0 mm/hr 0.00 in0.0 mm
12:45 AM 30.0°F-1.1°C 19.8°F-6.8°C 65% Calm Calm -- 30.12 in1020.0 mb 0.00 in0.0 mm 0.00 in/hr0.0 mm/hr 0.00 in0.0 mm
12:44 AM 30.0°F-1.1°C 19.8°F-6.8°C 65% Calm Calm -- 30.12 in1020.0 mb 0.00 in0.0 mm 0.00 in/hr0.0 mm/hr 0.00 in0.0 mm
12:43 AM 30.0°F-1.1°C 19.8°F-6.8°C 65% Calm Calm -- 30.12 in1020.0 mb 0.00 in0.0 mm 0.00 in/hr0.0 mm/hr 0.00 in0.0 mm
12:42 AM 30.0°F-1.1°C 19.8°F-6.8°C 65% Calm Calm -- 30.12 in1020.0 mb 0.00 in0.0 mm 0.00 in/hr0.0 mm/hr 0.00 in0.0 mm
12:40 AM 30.0°F-1.1°C 19.4°F-7.0°C 64% Calm Calm 0.9 mph1.4 kmh 30.12 in1020.0 mb 0.00 in0.0 mm 0.00 in/hr0.0 mm/hr 0.00 in0.0 mm
12:39 AM 30.0°F-1.1°C 19.4°F-7.0°C 64% Calm Calm -- 30.12 in1020.0 mb 0.00 in0.0 mm 0.00 in/hr0.0 mm/hr 0.00 in0.0 mm
12:38 AM 30.4°F-0.9°C 19.6°F-6.9°C 64% Calm Calm -- 30.12 in1020.0 mb 0.00 in0.0 mm 0.00 in/hr0.0 mm/hr 0.00 in0.0 mm
12:37 AM 30.4°F-0.9°C 19.6°F-6.9°C 64% Calm Calm -- 30.12 in1020.0 mb 0.00 in0.0 mm 0.00 in/hr0.0 mm/hr 0.00 in0.0 mm
12:36 AM 30.4°F-0.9°C 19.6°F-6.9°C 64% Calm Calm -- 30.12 in1020.0 mb 0.00 in0.0 mm 0.00 in/hr0.0 mm/hr 0.00 in0.0 mm
12:35 AM 30.6°F-0.8°C 19.8°F-6.8°C 64% Calm Calm -- 30.12 in1020.0 mb 0.00 in0.0 mm 0.00 in/hr0.0 mm/hr 0.00 in0.0 mm
12:34 AM 30.6°F-0.8°C 19.4°F-7.0°C 63% Calm Calm -- 30.12 in1020.0 mb 0.00 in0.0 mm 0.00 in/hr0.0 mm/hr 0.00 in0.0 mm
12:33 AM 30.7°F-0.7°C 19.6°F-6.9°C 63% Calm Calm -- 30.13 in1020.3 mb 0.00 in0.0 mm 0.00 in/hr0.0 mm/hr 0.00 in0.0 mm
12:31 AM 30.9°F-0.6°C 19.8°F-6.8°C 63% Calm Calm -- 30.13 in1020.3 mb 0.00 in0.0 mm 0.00 in/hr0.0 mm/hr 0.00 in0.0 mm
12:30 AM 30.9°F-0.6°C 19.8°F-6.8°C 63% Calm Calm -- 30.13 in1020.3 mb 0.00 in0.0 mm 0.00 in/hr0.0 mm/hr 0.00 in0.0 mm
12:29 AM 30.9°F-0.6°C 19.8°F-6.8°C 63% Calm Calm -- 30.13 in1020.3 mb 0.00 in0.0 mm 0.00 in/hr0.0 mm/hr 0.00 in0.0 mm
12:28 AM 30.9°F-0.6°C 19.8°F-6.8°C 63% Calm Calm -- 30.13 in1020.3 mb 0.00 in0.0 mm 0.00 in/hr0.0 mm/hr 0.00 in0.0 mm
12:27 AM 30.9°F-0.6°C 19.8°F-6.8°C 63% Calm Calm -- 30.13 in1020.3 mb 0.00 in0.0 mm 0.00 in/hr0.0 mm/hr 0.00 in0.0 mm
12:26 AM 31.3°F-0.4°C 19.8°F-6.8°C 62% Calm Calm -- 30.13 in1020.3 mb 0.00 in0.0 mm 0.00 in/hr0.0 mm/hr 0.00 in0.0 mm
12:25 AM 31.3°F-0.4°C 19.8°F-6.8°C 62% Calm Calm -- 30.13 in1020.3 mb 0.00 in0.0 mm 0.00 in/hr0.0 mm/hr 0.00 in0.0 mm
12:24 AM 31.3°F-0.4°C 19.8°F-6.8°C 62% Calm Calm 0.9 mph1.4 kmh 30.13 in1020.3 mb 0.00 in0.0 mm 0.00 in/hr0.0 mm/hr 0.00 in0.0 mm
12:23 AM 31.3°F-0.4°C 19.8°F-6.8°C 62% Calm Calm -- 30.13 in1020.3 mb 0.00 in0.0 mm 0.00 in/hr0.0 mm/hr 0.00 in0.0 mm
12:21 AM 31.3°F-0.4°C 19.8°F-6.8°C 62% Calm Calm -- 30.13 in1020.3 mb 0.00 in0.0 mm 0.00 in/hr0.0 mm/hr 0.00 in0.0 mm
12:20 AM 31.3°F-0.4°C 19.8°F-6.8°C 62% Calm Calm -- 30.13 in1020.3 mb 0.00 in0.0 mm 0.00 in/hr0.0 mm/hr 0.00 in0.0 mm
12:19 AM 31.5°F-0.3°C 19.9°F-6.7°C 62% Calm Calm -- 30.13 in1020.3 mb 0.00 in0.0 mm 0.00 in/hr0.0 mm/hr 0.00 in0.0 mm
12:18 AM 31.5°F-0.3°C 19.9°F-6.7°C 62% Calm Calm -- 30.14 in1020.7 mb 0.00 in0.0 mm 0.00 in/hr0.0 mm/hr 0.00 in0.0 mm
12:17 AM 31.5°F-0.3°C 19.9°F-6.7°C 62% Calm Calm -- 30.14 in1020.7 mb 0.00 in0.0 mm 0.00 in/hr0.0 mm/hr 0.00 in0.0 mm
12:16 AM 31.5°F-0.3°C 19.9°F-6.7°C 62% Calm Calm -- 30.14 in1020.7 mb 0.00 in0.0 mm 0.00 in/hr0.0 mm/hr 0.00 in0.0 mm
12:15 AM 31.5°F-0.3°C 19.9°F-6.7°C 62% Calm Calm -- 30.14 in1020.7 mb 0.00 in0.0 mm 0.00 in/hr0.0 mm/hr 0.00 in0.0 mm
12:13 AM 31.6°F-0.2°C 20.1°F-6.6°C 62% Calm Calm -- 30.14 in1020.7 mb 0.00 in0.0 mm 0.00 in/hr0.0 mm/hr 0.00 in0.0 mm
12:12 AM 31.6°F-0.2°C 20.1°F-6.6°C 62% Calm Calm -- 30.14 in1020.7 mb 0.00 in0.0 mm 0.00 in/hr0.0 mm/hr 0.00 in0.0 mm
12:11 AM 31.6°F-0.2°C 20.1°F-6.6°C 62% Calm Calm -- 30.14 in1020.7 mb 0.00 in0.0 mm 0.00 in/hr0.0 mm/hr 0.00 in0.0 mm
12:10 AM 31.6°F-0.2°C 20.5°F-6.4°C 63% Calm Calm -- 30.14 in1020.7 mb 0.00 in0.0 mm 0.00 in/hr0.0 mm/hr 0.00 in0.0 mm
12:09 AM 31.6°F-0.2°C 20.5°F-6.4°C 63% Calm Calm -- 30.14 in1020.7 mb 0.00 in0.0 mm 0.00 in/hr0.0 mm/hr 0.00 in0.0 mm
12:08 AM 31.6°F-0.2°C 20.5°F-6.4°C 63% Calm Calm -- 30.14 in1020.7 mb 0.00 in0.0 mm 0.00 in/hr0.0 mm/hr 0.00 in0.0 mm
12:07 AM 31.5°F-0.3°C 20.3°F-6.5°C 63% Calm Calm -- 30.14 in1020.7 mb 0.00 in0.0 mm 0.00 in/hr0.0 mm/hr 0.00 in0.0 mm
12:06 AM 31.5°F-0.3°C 20.3°F-6.5°C 63% Calm Calm -- 30.14 in1020.7 mb 0.00 in0.0 mm 0.00 in/hr0.0 mm/hr 0.00 in0.0 mm
12:05 AM 31.5°F-0.3°C 20.3°F-6.5°C 63% Calm Calm -- 30.14 in1020.7 mb 0.00 in0.0 mm 0.00 in/hr0.0 mm/hr 0.00 in0.0 mm
12:03 AM 31.5°F-0.3°C 20.7°F-6.3°C 64% Calm Calm -- 30.14 in1020.7 mb 0.00 in0.0 mm 0.00 in/hr0.0 mm/hr 0.00 in0.0 mm
12:02 AM 31.3°F-0.4°C 20.5°F-6.4°C 64% Calm Calm 2.0 mph3.2 kmh 30.14 in1020.7 mb 0.00 in0.0 mm 0.00 in/hr0.0 mm/hr 0.00 in0.0 mm
12:01 AM 31.3°F-0.4°C 20.5°F-6.4°C 64% Calm Calm 2.0 mph3.2 kmh 30.14 in1020.7 mb 0.00 in0.0 mm 0.00 in/hr0.0 mm/hr 0.00 in0.0 mm
12:00 AM 31.3°F-0.4°C 20.5°F-6.4°C 64% Calm Calm -- 30.14 in1020.7 mb 0.00 in0.0 mm 0.00 in/hr0.0 mm/hr 0.00 in0.0 mm
WeatherForYou.com, LLC is not responsible for any damages or problems caused by this service. Current weather conditions are obtained from the closest station including government and personal stations which may have varying degrees of accuracy. Weather forecasts are derived from the NOAA NDFD and obtained through HAMweather's Aeris Weather API. Like all things, this site belongs to Jesus Christ... He just trusts me to maintain it. If you have any questions or comments email webmaster@weatherforyou.com

Copyright © 2014, WeatherForYou.com LLC. All rights reserved.